<?xml version="1.0" encoding="UTF-8" standalone="no" ?>
<gpx xmlns="http://www.topografix.com/GPX/1/1" xmlns:xsi="http://www.w3.org/2001/XMLSchema-instance" xsi:schemaLocation="http://www.topografix.com/GPX/1/1 http://www.topografix.com/GPX/1/1/gpx.xsd" version="1.1" creator="VisuGPX - https://www.visugpx.com">
  <metadata>
    <name>79 km Mauléon édité par cth85.com</name>
    <desc><![CDATA[. Les Herbiers  / Ardelay / St Mars
Les Epesses / Le Puy du Fou
St Malô du B / St Laurent sur Sévre
La Chapelle Largeau /  Moulin
Mauléon / Le Coudreau
Marssaudières / Barangerie
St Amand sur Sèvre
Châteaumur / La Savarière
la Roussière / Beaufou
La Sicotière/ La Chagnais
Le Boupère / Les Davière
St Paul / Les Herbiers]]></desc>
  </metadata>
  <trk>
    <name><![CDATA[79 km Mauléon édité par cth85.com_1]]></name>
    <desc><![CDATA[]]></desc>
    <trkseg>
      <trkpt lat="46.86368" lon="-1.0058">
        <ele>119.2</ele>
        <time>2022-05-28T06:36:46.000Z</time>
      </trkpt>
      <trkpt lat="46.86382" lon="-1.00563">
        <ele>119.2</ele>
        <time>2022-05-28T06:36:48.869Z</time>
      </trkpt>
      <trkpt lat="46.86387" lon="-1.00558">
        <ele>119.1</ele>
        <time>2022-05-28T06:36:49.636Z</time>
      </trkpt>
      <trkpt lat="46.86396" lon="-1.00556">
        <ele>119</ele>
        <time>2022-05-28T06:36:50.830Z</time>
      </trkpt>
      <trkpt lat="46.86407" lon="-1.00559">
        <ele>119.1</ele>
        <time>2022-05-28T06:36:52.604Z</time>
      </trkpt>
      <trkpt lat="46.86414" lon="-1.00561">
        <ele>119.2</ele>
        <time>2022-05-28T06:36:53.978Z</time>
      </trkpt>
      <trkpt lat="46.86422" lon="-1.00563">
        <ele>119.1</ele>
        <time>2022-05-28T06:36:55.005Z</time>
      </trkpt>
      <trkpt lat="46.86453" lon="-1.00561">
        <ele>117.9</ele>
        <time>2022-05-28T06:36:58.438Z</time>
      </trkpt>
      <trkpt lat="46.8647" lon="-1.00561">
        <ele>117.3</ele>
        <time>2022-05-28T06:37:00.358Z</time>
      </trkpt>
      <trkpt lat="46.86481" lon="-1.00563">
        <ele>117.3</ele>
        <time>2022-05-28T06:37:01.927Z</time>
      </trkpt>
      <trkpt lat="46.86496" lon="-1.00567">
        <ele>117.2</ele>
        <time>2022-05-28T06:37:04.064Z</time>
      </trkpt>
      <trkpt lat="46.8652" lon="-1.00578">
        <ele>115</ele>
        <time>2022-05-28T06:37:06.375Z</time>
      </trkpt>
      <trkpt lat="46.86535" lon="-1.00588">
        <ele>114.4</ele>
        <time>2022-05-28T06:37:08.208Z</time>
      </trkpt>
      <trkpt lat="46.86556" lon="-1.00602">
        <ele>114.7</ele>
        <time>2022-05-28T06:37:12.146Z</time>
      </trkpt>
      <trkpt lat="46.86569" lon="-1.00612">
        <ele>114</ele>
        <time>2022-05-28T06:37:13.771Z</time>
      </trkpt>
      <trkpt lat="46.86579" lon="-1.00619">
        <ele>113.6</ele>
        <time>2022-05-28T06:37:14.859Z</time>
      </trkpt>
      <trkpt lat="46.8659" lon="-1.00625">
        <ele>113.2</ele>
        <time>2022-05-28T06:37:16.246Z</time>
      </trkpt>
      <trkpt lat="46.86608" lon="-1.00631">
        <ele>112.2</ele>
        <time>2022-05-28T06:37:18.120Z</time>
      </trkpt>
      <trkpt lat="46.86637" lon="-1.00639">
        <ele>111.1</ele>
        <time>2022-05-28T06:37:21.313Z</time>
      </trkpt>
      <trkpt lat="46.86685" lon="-1.00653">
        <ele>110.3</ele>
        <time>2022-05-28T06:37:27.719Z</time>
      </trkpt>
      <trkpt lat="46.86704" lon="-1.00658">
        <ele>110</ele>
        <time>2022-05-28T06:37:30.267Z</time>
      </trkpt>
      <trkpt lat="46.86714" lon="-1.00668">
        <ele>110</ele>
        <time>2022-05-28T06:37:32.135Z</time>
      </trkpt>
      <trkpt lat="46.86716" lon="-1.00673">
        <ele>110</ele>
        <time>2022-05-28T06:37:32.671Z</time>
      </trkpt>
      <trkpt lat="46.86724" lon="-1.00668">
        <ele>110</ele>
        <time>2022-05-28T06:37:34.071Z</time>
      </trkpt>
      <trkpt lat="46.86732" lon="-1.00665">
        <ele>110</ele>
        <time>2022-05-28T06:37:35.250Z</time>
      </trkpt>
      <trkpt lat="46.86751" lon="-1.0066">
        <ele>110</ele>
        <time>2022-05-28T06:37:38.128Z</time>
      </trkpt>
      <trkpt lat="46.86766" lon="-1.00655">
        <ele>110</ele>
        <time>2022-05-28T06:37:40.512Z</time>
      </trkpt>
      <trkpt lat="46.86791" lon="-1.00648">
        <ele>110</ele>
        <time>2022-05-28T06:37:44.312Z</time>
        <extensions>
          <visugpx:TrkExtension xmlns:visugpx="https://www.visugpx.com/editgpx/">
            <visugpx:node>1</visugpx:node>
            </visugpx:TrkExtension>
        </extensions>
      </trkpt>
      <trkpt lat="46.86837" lon="-1.00634">
        <ele>111.2</ele>
        <time>2022-05-28T06:37:53.577Z</time>
      </trkpt>
      <trkpt lat="46.86845" lon="-1.00632">
        <ele>111.2</ele>
        <time>2022-05-28T06:37:54.901Z</time>
      </trkpt>
      <trkpt lat="46.86854" lon="-1.00633">
        <ele>111.2</ele>
        <time>2022-05-28T06:37:56.126Z</time>
      </trkpt>
      <trkpt lat="46.869" lon="-1.0065">
        <ele>111.1</ele>
        <time>2022-05-28T06:38:03.276Z</time>
      </trkpt>
      <trkpt lat="46.86928" lon="-1.00658">
        <ele>109.9</ele>
        <time>2022-05-28T06:38:06.331Z</time>
      </trkpt>
      <trkpt lat="46.86937" lon="-1.00659">
        <ele>109.4</ele>
        <time>2022-05-28T06:38:07.198Z</time>
      </trkpt>
      <trkpt lat="46.86946" lon="-1.00656">
        <ele>108.9</ele>
        <time>2022-05-28T06:38:08.098Z</time>
      </trkpt>
      <trkpt lat="46.86943" lon="-1.00633">
        <ele>109.4</ele>
        <time>2022-05-28T06:38:11.467Z</time>
      </trkpt>
      <trkpt lat="46.86942" lon="-1.00631">
        <ele>109.5</ele>
        <time>2022-05-28T06:38:11.984Z</time>
      </trkpt>
      <trkpt lat="46.86937" lon="-1.00598">
        <ele>110.5</ele>
        <time>2022-05-28T06:38:17.550Z</time>
      </trkpt>
      <trkpt lat="46.86919" lon="-1.00481">
        <ele>111.8</ele>
        <time>2022-05-28T06:38:32.114Z</time>
      </trkpt>
      <trkpt lat="46.86914" lon="-1.00447">
        <ele>113.1</ele>
        <time>2022-05-28T06:38:38.762Z</time>
      </trkpt>
      <trkpt lat="46.86914" lon="-1.00443">
        <ele>113.2</ele>
        <time>2022-05-28T06:38:39.400Z</time>
      </trkpt>
      <trkpt lat="46.86914" lon="-1.00438">
        <ele>113.2</ele>
        <time>2022-05-28T06:38:39.908Z</time>
      </trkpt>
      <trkpt lat="46.86906" lon="-1.00384">
        <ele>114.3</ele>
        <time>2022-05-28T06:38:47.581Z</time>
      </trkpt>
      <trkpt lat="46.86906" lon="-1.0038">
        <ele>114.2</ele>
        <time>2022-05-28T06:38:47.935Z</time>
      </trkpt>
      <trkpt lat="46.86904" lon="-1.00371">
        <ele>114.1</ele>
        <time>2022-05-28T06:38:48.779Z</time>
      </trkpt>
      <trkpt lat="46.86902" lon="-1.00363">
        <ele>114.1</ele>
        <time>2022-05-28T06:38:49.613Z</time>
      </trkpt>
      <trkpt lat="46.86894" lon="-1.00304">
        <ele>115.3</ele>
        <time>2022-05-28T06:38:58.092Z</time>
      </trkpt>
      <trkpt lat="46.8686" lon="-1.0007">
        <ele>118.3</ele>
        <time>2022-05-28T06:39:27.872Z</time>
      </trkpt>
      <trkpt lat="46.86848" lon="-0.99996">
        <ele>119.9</ele>
        <time>2022-05-28T06:39:38.721Z</time>
      </trkpt>
      <trkpt lat="46.86844" lon="-0.9998">
        <ele>119.8</ele>
        <time>2022-05-28T06:39:40.319Z</time>
      </trkpt>
      <trkpt lat="46.86839" lon="-0.99963">
        <ele>120.1</ele>
        <time>2022-05-28T06:39:42.756Z</time>
      </trkpt>
      <trkpt lat="46.86834" lon="-0.99946">
        <ele>120.9</ele>
        <time>2022-05-28T06:39:46.722Z</time>
      </trkpt>
      <trkpt lat="46.86831" lon="-0.99947">
        <ele>121.1</ele>
        <time>2022-05-28T06:39:47.709Z</time>
      </trkpt>
      <trkpt lat="46.86828" lon="-0.99946">
        <ele>121.4</ele>
        <time>2022-05-28T06:39:49.238Z</time>
      </trkpt>
      <trkpt lat="46.86825" lon="-0.99944">
        <ele>121.6</ele>
        <time>2022-05-28T06:39:50.225Z</time>
      </trkpt>
      <trkpt lat="46.86823" lon="-0.99941">
        <ele>121.9</ele>
        <time>2022-05-28T06:39:51.759Z</time>
      </trkpt>
      <trkpt lat="46.86822" lon="-0.99937">
        <ele>122.2</ele>
        <time>2022-05-28T06:39:53.288Z</time>
      </trkpt>
      <trkpt lat="46.86821" lon="-0.99933">
        <ele>122.4</ele>
        <time>2022-05-28T06:39:54.274Z</time>
      </trkpt>
      <trkpt lat="46.86822" lon="-0.99929">
        <ele>122.5</ele>
        <time>2022-05-28T06:39:54.920Z</time>
      </trkpt>
      <trkpt lat="46.86823" lon="-0.99925">
        <ele>122.5</ele>
        <time>2022-05-28T06:39:55.373Z</time>
      </trkpt>
      <trkpt lat="46.86826" lon="-0.99922">
        <ele>122.3</ele>
        <time>2022-05-28T06:39:55.647Z</time>
      </trkpt>
      <trkpt lat="46.86828" lon="-0.9992">
        <ele>121.8</ele>
        <time>2022-05-28T06:39:55.922Z</time>
      </trkpt>
      <trkpt lat="46.86831" lon="-0.9992">
        <ele>121.4</ele>
        <time>2022-05-28T06:39:56.186Z</time>
      </trkpt>
      <trkpt lat="46.86831" lon="-0.99902">
        <ele>121.5</ele>
        <time>2022-05-28T06:39:58.122Z</time>
      </trkpt>
      <trkpt lat="46.8683" lon="-0.99868">
        <ele>121.7</ele>
        <time>2022-05-28T06:40:01.979Z</time>
      </trkpt>
      <trkpt lat="46.86823" lon="-0.99824">
        <ele>121.9</ele>
        <time>2022-05-28T06:40:06.936Z</time>
        <extensions>
          <visugpx:TrkExtension xmlns:visugpx="https://www.visugpx.com/editgpx/">
            <visugpx:node>2</visugpx:node>
            </visugpx:TrkExtension>
        </extensions>
      </trkpt>
      <trkpt lat="46.86821" lon="-0.99809">
        <ele>122.1</ele>
        <time>2022-05-28T06:40:08.896Z</time>
      </trkpt>
      <trkpt lat="46.86805" lon="-0.99692">
        <ele>124.2</ele>
        <time>2022-05-28T06:40:25.004Z</time>
      </trkpt>
      <trkpt lat="46.86794" lon="-0.99621">
        <ele>125.2</ele>
        <time>2022-05-28T06:40:34.200Z</time>
      </trkpt>
      <trkpt lat="46.86755" lon="-0.99359">
        <ele>126.4</ele>
        <time>2022-05-28T06:41:03.746Z</time>
      </trkpt>
      <trkpt lat="46.86752" lon="-0.99335">
        <ele>126.8</ele>
        <time>2022-05-28T06:41:06.949Z</time>
      </trkpt>
      <trkpt lat="46.86746" lon="-0.99304">
        <ele>127.6</ele>
        <time>2022-05-28T06:41:11.862Z</time>
      </trkpt>
      <trkpt lat="46.86739" lon="-0.99276">
        <ele>128.1</ele>
        <time>2022-05-28T06:41:15.811Z</time>
      </trkpt>
      <trkpt lat="46.86731" lon="-0.99221">
        <ele>128</ele>
        <time>2022-05-28T06:41:21.553Z</time>
      </trkpt>
      <trkpt lat="46.8673" lon="-0.99214">
        <ele>127.9</ele>
        <time>2022-05-28T06:41:22.091Z</time>
      </trkpt>
      <trkpt lat="46.86725" lon="-0.99155">
        <ele>127.3</ele>
        <time>2022-05-28T06:41:27.490Z</time>
      </trkpt>
      <trkpt lat="46.86723" lon="-0.99141">
        <ele>127</ele>
        <time>2022-05-28T06:41:28.677Z</time>
      </trkpt>
      <trkpt lat="46.86715" lon="-0.99086">
        <ele>126.3</ele>
        <time>2022-05-28T06:41:33.576Z</time>
      </trkpt>
      <trkpt lat="46.86713" lon="-0.99073">
        <ele>126.2</ele>
        <time>2022-05-28T06:41:34.852Z</time>
      </trkpt>
      <trkpt lat="46.8671" lon="-0.99051">
        <ele>126.5</ele>
        <time>2022-05-28T06:41:37.682Z</time>
      </trkpt>
      <trkpt lat="46.86696" lon="-0.98962">
        <ele>129.2</ele>
        <time>2022-05-28T06:41:52.763Z</time>
      </trkpt>
      <trkpt lat="46.86686" lon="-0.98893">
        <ele>132.6</ele>
        <time>2022-05-28T06:42:09.450Z</time>
      </trkpt>
      <trkpt lat="46.86684" lon="-0.98883">
        <ele>132.7</ele>
        <time>2022-05-28T06:42:10.738Z</time>
      </trkpt>
      <trkpt lat="46.86681" lon="-0.9887">
        <ele>133</ele>
        <time>2022-05-28T06:42:12.661Z</time>
      </trkpt>
      <trkpt lat="46.86679" lon="-0.98853">
        <ele>133.4</ele>
        <time>2022-05-28T06:42:15.266Z</time>
      </trkpt>
      <trkpt lat="46.86677" lon="-0.98841">
        <ele>134</ele>
        <time>2022-05-28T06:42:18.209Z</time>
      </trkpt>
      <trkpt lat="46.86677" lon="-0.98834">
        <ele>134.3</ele>
        <time>2022-05-28T06:42:19.724Z</time>
      </trkpt>
      <trkpt lat="46.86676" lon="-0.98827">
        <ele>134.5</ele>
        <time>2022-05-28T06:42:20.856Z</time>
      </trkpt>
      <trkpt lat="46.86673" lon="-0.98802">
        <ele>135.3</ele>
        <time>2022-05-28T06:42:25.181Z</time>
      </trkpt>
      <trkpt lat="46.86664" lon="-0.98742">
        <ele>137.2</ele>
        <time>2022-05-28T06:42:35.681Z</time>
      </trkpt>
      <trkpt lat="46.86651" lon="-0.98656">
        <ele>137.7</ele>
        <time>2022-05-28T06:42:45.533Z</time>
      </trkpt>
      <trkpt lat="46.86645" lon="-0.98615">
        <ele>138.9</ele>
        <time>2022-05-28T06:42:52.326Z</time>
      </trkpt>
      <trkpt lat="46.86642" lon="-0.98591">
        <ele>138.9</ele>
        <time>2022-05-28T06:42:54.890Z</time>
      </trkpt>
      <trkpt lat="46.86637" lon="-0.98555">
        <ele>140.5</ele>
        <time>2022-05-28T06:43:02.799Z</time>
      </trkpt>
      <trkpt lat="46.86635" lon="-0.98532">
        <ele>141.1</ele>
        <time>2022-05-28T06:43:06.457Z</time>
      </trkpt>
      <trkpt lat="46.86629" lon="-0.98473">
        <ele>142.4</ele>
        <time>2022-05-28T06:43:15.078Z</time>
      </trkpt>
      <trkpt lat="46.86629" lon="-0.98461">
        <ele>142.3</ele>
        <time>2022-05-28T06:43:16.198Z</time>
      </trkpt>
      <trkpt lat="46.86629" lon="-0.98452">
        <ele>142.2</ele>
        <time>2022-05-28T06:43:16.962Z</time>
      </trkpt>
      <trkpt lat="46.86629" lon="-0.98433">
        <ele>142.1</ele>
        <time>2022-05-28T06:43:18.760Z</time>
      </trkpt>
      <trkpt lat="46.86628" lon="-0.98417">
        <ele>142.1</ele>
        <time>2022-05-28T06:43:20.415Z</time>
      </trkpt>
      <trkpt lat="46.86627" lon="-0.98371">
        <ele>144.6</ele>
        <time>2022-05-28T06:43:32.703Z</time>
      </trkpt>
      <trkpt lat="46.86626" lon="-0.98231">
        <ele>146.7</ele>
        <time>2022-05-28T06:43:50.802Z</time>
      </trkpt>
      <trkpt lat="46.86625" lon="-0.98189">
        <ele>148.4</ele>
        <time>2022-05-28T06:43:59.349Z</time>
      </trkpt>
      <trkpt lat="46.86624" lon="-0.9816">
        <ele>149.7</ele>
        <time>2022-05-28T06:44:05.769Z</time>
      </trkpt>
      <trkpt lat="46.86622" lon="-0.98135">
        <ele>150.3</ele>
        <time>2022-05-28T06:44:09.523Z</time>
      </trkpt>
      <trkpt lat="46.86628" lon="-0.98134">
        <ele>149.9</ele>
        <time>2022-05-28T06:44:10.052Z</time>
      </trkpt>
      <trkpt lat="46.86637" lon="-0.98132">
        <ele>149.2</ele>
        <time>2022-05-28T06:44:10.923Z</time>
      </trkpt>
      <trkpt lat="46.86645" lon="-0.98128">
        <ele>148.4</ele>
        <time>2022-05-28T06:44:11.708Z</time>
      </trkpt>
      <trkpt lat="46.86648" lon="-0.98125">
        <ele>148.2</ele>
        <time>2022-05-28T06:44:12.036Z</time>
      </trkpt>
      <trkpt lat="46.8665" lon="-0.98123">
        <ele>148</ele>
        <time>2022-05-28T06:44:12.275Z</time>
      </trkpt>
      <trkpt lat="46.86656" lon="-0.98113">
        <ele>147.7</ele>
        <time>2022-05-28T06:44:13.302Z</time>
      </trkpt>
      <trkpt lat="46.86662" lon="-0.98101">
        <ele>147.1</ele>
        <time>2022-05-28T06:44:14.305Z</time>
      </trkpt>
      <trkpt lat="46.86673" lon="-0.98077">
        <ele>145.8</ele>
        <time>2022-05-28T06:44:16.042Z</time>
      </trkpt>
      <trkpt lat="46.86693" lon="-0.98032">
        <ele>144.2</ele>
        <time>2022-05-28T06:44:19.937Z</time>
      </trkpt>
      <trkpt lat="46.86728" lon="-0.97946">
        <ele>142.8</ele>
        <time>2022-05-28T06:44:28.577Z</time>
        <extensions>
          <visugpx:TrkExtension xmlns:visugpx="https://www.visugpx.com/editgpx/">
            <visugpx:node>3</visugpx:node>
            </visugpx:TrkExtension>
        </extensions>
      </trkpt>
      <trkpt lat="46.86738" lon="-0.97922">
        <ele>143.6</ele>
        <time>2022-05-28T06:44:33.164Z</time>
      </trkpt>
      <trkpt lat="46.86758" lon="-0.97872">
        <ele>143.7</ele>
        <time>2022-05-28T06:44:39.261Z</time>
      </trkpt>
      <trkpt lat="46.86782" lon="-0.97815">
        <ele>143</ele>
        <time>2022-05-28T06:44:45.283Z</time>
        <extensions>
          <visugpx:TrkExtension xmlns:visugpx="https://www.visugpx.com/editgpx/">
            <visugpx:node>4</visugpx:node>
            </visugpx:TrkExtension>
        </extensions>
      </trkpt>
      <trkpt lat="46.86837" lon="-0.97682">
        <ele>140.8</ele>
        <time>2022-05-28T06:44:58.703Z</time>
      </trkpt>
      <trkpt lat="46.86875" lon="-0.97589">
        <ele>139.5</ele>
        <time>2022-05-28T06:45:08.225Z</time>
        <extensions>
          <visugpx:TrkExtension xmlns:visugpx="https://www.visugpx.com/editgpx/">
            <visugpx:node>5</visugpx:node>
            </visugpx:TrkExtension>
        </extensions>
      </trkpt>
      <trkpt lat="46.86918" lon="-0.97487">
        <ele>140.9</ele>
        <time>2022-05-28T06:45:22.931Z</time>
      </trkpt>
      <trkpt lat="46.8694" lon="-0.9743">
        <ele>141.6</ele>
        <time>2022-05-28T06:45:30.853Z</time>
        <extensions>
          <visugpx:TrkExtension xmlns:visugpx="https://www.visugpx.com/editgpx/">
            <visugpx:node>6</visugpx:node>
            </visugpx:TrkExtension>
        </extensions>
      </trkpt>
      <trkpt lat="46.86946" lon="-0.97416">
        <ele>142</ele>
        <time>2022-05-28T06:45:33.337Z</time>
      </trkpt>
      <trkpt lat="46.86953" lon="-0.97379">
        <ele>142.8</ele>
        <time>2022-05-28T06:45:38.798Z</time>
      </trkpt>
      <trkpt lat="46.86954" lon="-0.97368">
        <ele>142.9</ele>
        <time>2022-05-28T06:45:40.086Z</time>
      </trkpt>
      <trkpt lat="46.86954" lon="-0.97359">
        <ele>143</ele>
        <time>2022-05-28T06:45:41.162Z</time>
      </trkpt>
      <trkpt lat="46.86953" lon="-0.97356">
        <ele>143.1</ele>
        <time>2022-05-28T06:45:41.806Z</time>
      </trkpt>
      <trkpt lat="46.86952" lon="-0.97352">
        <ele>143.1</ele>
        <time>2022-05-28T06:45:42.252Z</time>
      </trkpt>
      <trkpt lat="46.86951" lon="-0.97345">
        <ele>143.1</ele>
        <time>2022-05-28T06:45:42.917Z</time>
      </trkpt>
      <trkpt lat="46.86951" lon="-0.97339">
        <ele>143.2</ele>
        <time>2022-05-28T06:45:43.764Z</time>
      </trkpt>
      <trkpt lat="46.86952" lon="-0.97333">
        <ele>143.3</ele>
        <time>2022-05-28T06:45:44.601Z</time>
      </trkpt>
      <trkpt lat="46.86954" lon="-0.97327">
        <ele>143.5</ele>
        <time>2022-05-28T06:45:45.699Z</time>
      </trkpt>
      <trkpt lat="46.86956" lon="-0.97323">
        <ele>143.6</ele>
        <time>2022-05-28T06:45:46.392Z</time>
      </trkpt>
      <trkpt lat="46.86959" lon="-0.9732">
        <ele>143.7</ele>
        <time>2022-05-28T06:45:47.075Z</time>
      </trkpt>
      <trkpt lat="46.86962" lon="-0.97318">
        <ele>143.8</ele>
        <time>2022-05-28T06:45:47.769Z</time>
      </trkpt>
      <trkpt lat="46.86965" lon="-0.97316">
        <ele>143.9</ele>
        <time>2022-05-28T06:45:48.444Z</time>
      </trkpt>
      <trkpt lat="46.86969" lon="-0.97315">
        <ele>144</ele>
        <time>2022-05-28T06:45:49.319Z</time>
      </trkpt>
      <trkpt lat="46.86974" lon="-0.97316">
        <ele>144</ele>
        <time>2022-05-28T06:45:50.033Z</time>
      </trkpt>
      <trkpt lat="46.86978" lon="-0.97318">
        <ele>143.9</ele>
        <time>2022-05-28T06:45:50.600Z</time>
      </trkpt>
      <trkpt lat="46.86982" lon="-0.97321">
        <ele>143.8</ele>
        <time>2022-05-28T06:45:51.181Z</time>
      </trkpt>
      <trkpt lat="46.86985" lon="-0.97326">
        <ele>143.6</ele>
        <time>2022-05-28T06:45:51.678Z</time>
      </trkpt>
      <trkpt lat="46.86987" lon="-0.9733">
        <ele>143.5</ele>
        <time>2022-05-28T06:45:51.972Z</time>
        <extensions>
          <visugpx:TrkExtension xmlns:visugpx="https://www.visugpx.com/editgpx/">
            <visugpx:node>7</visugpx:node>
            </visugpx:TrkExtension>
        </extensions>
      </trkpt>
      <trkpt lat="46.86988" lon="-0.97332">
        <ele>143.5</ele>
        <time>2022-05-28T06:45:52.280Z</time>
      </trkpt>
      <trkpt lat="46.86989" lon="-0.97339">
        <ele>143.1</ele>
        <time>2022-05-28T06:45:52.698Z</time>
      </trkpt>
      <trkpt lat="46.86996" lon="-0.97337">
        <ele>142.9</ele>
        <time>2022-05-28T06:45:53.572Z</time>
      </trkpt>
      <trkpt lat="46.87002" lon="-0.97333">
        <ele>142.9</ele>
        <time>2022-05-28T06:45:54.583Z</time>
      </trkpt>
      <trkpt lat="46.87006" lon="-0.9733">
        <ele>142.9</ele>
        <time>2022-05-28T06:45:55.259Z</time>
      </trkpt>
      <trkpt lat="46.8701" lon="-0.97322">
        <ele>142.9</ele>
        <time>2022-05-28T06:45:56.301Z</time>
      </trkpt>
      <trkpt lat="46.87009" lon="-0.97312">
        <ele>143.2</ele>
        <time>2022-05-28T06:45:57.937Z</time>
      </trkpt>
      <trkpt lat="46.87002" lon="-0.97293">
        <ele>143.9</ele>
        <time>2022-05-28T06:46:01.759Z</time>
      </trkpt>
      <trkpt lat="46.86997" lon="-0.97279">
        <ele>144</ele>
        <time>2022-05-28T06:46:03.522Z</time>
      </trkpt>
      <trkpt lat="46.86994" lon="-0.97267">
        <ele>144.4</ele>
        <time>2022-05-28T06:46:05.714Z</time>
      </trkpt>
      <trkpt lat="46.86993" lon="-0.97251">
        <ele>145</ele>
        <time>2022-05-28T06:46:08.812Z</time>
      </trkpt>
      <trkpt lat="46.86998" lon="-0.97184">
        <ele>145.1</ele>
        <time>2022-05-28T06:46:15.847Z</time>
      </trkpt>
      <trkpt lat="46.86999" lon="-0.97173">
        <ele>145</ele>
        <time>2022-05-28T06:46:16.918Z</time>
        <extensions>
          <visugpx:TrkExtension xmlns:visugpx="https://www.visugpx.com/editgpx/">
            <visugpx:node>8</visugpx:node>
            </visugpx:TrkExtension>
        </extensions>
      </trkpt>
      <trkpt lat="46.87003" lon="-0.97131">
        <ele>145.9</ele>
        <time>2022-05-28T06:46:22.989Z</time>
      </trkpt>
      <trkpt lat="46.87015" lon="-0.96876">
        <ele>146.1</ele>
        <time>2022-05-28T06:46:49.658Z</time>
      </trkpt>
      <trkpt lat="46.87027" lon="-0.96747">
        <ele>145</ele>
        <time>2022-05-28T06:47:01.675Z</time>
      </trkpt>
      <trkpt lat="46.87041" lon="-0.96675">
        <ele>145</ele>
        <time>2022-05-28T06:47:09.463Z</time>
      </trkpt>
      <trkpt lat="46.87073" lon="-0.96556">
        <ele>144.2</ele>
        <time>2022-05-28T06:47:21.608Z</time>
      </trkpt>
      <trkpt lat="46.87187" lon="-0.96263">
        <ele>143.7</ele>
        <time>2022-05-28T06:47:55.782Z</time>
      </trkpt>
      <trkpt lat="46.8721" lon="-0.96206">
        <ele>143.6</ele>
        <time>2022-05-28T06:48:02.483Z</time>
        <extensions>
          <visugpx:TrkExtension xmlns:visugpx="https://www.visugpx.com/editgpx/">
            <visugpx:node>9</visugpx:node>
            </visugpx:TrkExtension>
        </extensions>
      </trkpt>
      <trkpt lat="46.87239" lon="-0.96134">
        <ele>145.7</ele>
        <time>2022-05-28T06:48:15.232Z</time>
      </trkpt>
      <trkpt lat="46.87245" lon="-0.96117">
        <ele>145.8</ele>
        <time>2022-05-28T06:48:17.327Z</time>
      </trkpt>
      <trkpt lat="46.87254" lon="-0.96073">
        <ele>146.9</ele>
        <time>2022-05-28T06:48:24.229Z</time>
      </trkpt>
      <trkpt lat="46.87265" lon="-0.96038">
        <ele>148.1</ele>
        <time>2022-05-28T06:48:30.825Z</time>
      </trkpt>
      <trkpt lat="46.87277" lon="-0.95988">
        <ele>149.1</ele>
        <time>2022-05-28T06:48:38.090Z</time>
      </trkpt>
      <trkpt lat="46.87284" lon="-0.95951">
        <ele>148.7</ele>
        <time>2022-05-28T06:48:41.539Z</time>
      </trkpt>
      <trkpt lat="46.87289" lon="-0.95935">
        <ele>149.4</ele>
        <time>2022-05-28T06:48:45.101Z</time>
      </trkpt>
      <trkpt lat="46.87294" lon="-0.95921">
        <ele>150.1</ele>
        <time>2022-05-28T06:48:48.562Z</time>
      </trkpt>
      <trkpt lat="46.8731" lon="-0.9589">
        <ele>150.2</ele>
        <time>2022-05-28T06:48:52.719Z</time>
      </trkpt>
      <trkpt lat="46.87319" lon="-0.9587">
        <ele>152.1</ele>
        <time>2022-05-28T06:49:02.489Z</time>
      </trkpt>
      <trkpt lat="46.87326" lon="-0.95844">
        <ele>154.5</ele>
        <time>2022-05-28T06:49:14.700Z</time>
      </trkpt>
      <trkpt lat="46.8733" lon="-0.95815">
        <ele>155.6</ele>
        <time>2022-05-28T06:49:20.376Z</time>
      </trkpt>
      <trkpt lat="46.87331" lon="-0.95763">
        <ele>152.8</ele>
        <time>2022-05-28T06:49:23.614Z</time>
      </trkpt>
      <trkpt lat="46.8734" lon="-0.95588">
        <ele>151.1</ele>
        <time>2022-05-28T06:49:39.512Z</time>
      </trkpt>
      <trkpt lat="46.87334" lon="-0.9557">
        <ele>151.5</ele>
        <time>2022-05-28T06:49:42.322Z</time>
      </trkpt>
      <trkpt lat="46.8732" lon="-0.95568">
        <ele>151.5</ele>
        <time>2022-05-28T06:49:44.417Z</time>
      </trkpt>
      <trkpt lat="46.87307" lon="-0.9557">
        <ele>151.5</ele>
        <time>2022-05-28T06:49:46.389Z</time>
      </trkpt>
      <trkpt lat="46.87304" lon="-0.9557">
        <ele>151.4</ele>
        <time>2022-05-28T06:49:46.716Z</time>
      </trkpt>
      <trkpt lat="46.87297" lon="-0.9557">
        <ele>151</ele>
        <time>2022-05-28T06:49:47.432Z</time>
      </trkpt>
      <trkpt lat="46.87295" lon="-0.95571">
        <ele>150.8</ele>
        <time>2022-05-28T06:49:47.613Z</time>
      </trkpt>
      <trkpt lat="46.87273" lon="-0.95573">
        <ele>149.5</ele>
        <time>2022-05-28T06:49:49.659Z</time>
      </trkpt>
      <trkpt lat="46.87266" lon="-0.95571">
        <ele>149.3</ele>
        <time>2022-05-28T06:49:50.542Z</time>
      </trkpt>
      <trkpt lat="46.87261" lon="-0.95566">
        <ele>149.2</ele>
        <time>2022-05-28T06:49:51.297Z</time>
      </trkpt>
      <trkpt lat="46.87257" lon="-0.95559">
        <ele>149.4</ele>
        <time>2022-05-28T06:49:52.608Z</time>
      </trkpt>
      <trkpt lat="46.87256" lon="-0.95551">
        <ele>149.6</ele>
        <time>2022-05-28T06:49:53.844Z</time>
      </trkpt>
      <trkpt lat="46.87256" lon="-0.95541">
        <ele>150</ele>
        <time>2022-05-28T06:49:55.841Z</time>
      </trkpt>
      <trkpt lat="46.87262" lon="-0.95512">
        <ele>150.8</ele>
        <time>2022-05-28T06:50:00.594Z</time>
      </trkpt>
      <trkpt lat="46.87264" lon="-0.95491">
        <ele>151.3</ele>
        <time>2022-05-28T06:50:03.761Z</time>
      </trkpt>
      <trkpt lat="46.87258" lon="-0.95404">
        <ele>151</ele>
        <time>2022-05-28T06:50:12.329Z</time>
      </trkpt>
      <trkpt lat="46.87254" lon="-0.95377">
        <ele>150.3</ele>
        <time>2022-05-28T06:50:14.485Z</time>
      </trkpt>
      <trkpt lat="46.87245" lon="-0.95344">
        <ele>148.9</ele>
        <time>2022-05-28T06:50:16.809Z</time>
      </trkpt>
      <trkpt lat="46.87209" lon="-0.95237">
        <ele>144.8</ele>
        <time>2022-05-28T06:50:25.013Z</time>
        <extensions>
          <visugpx:TrkExtension xmlns:visugpx="https://www.visugpx.com/editgpx/">
            <visugpx:node>10</visugpx:node>
            </visugpx:TrkExtension>
        </extensions>
      </trkpt>
      <trkpt lat="46.87193" lon="-0.95186">
        <ele>143.9</ele>
        <time>2022-05-28T06:50:29.738Z</time>
      </trkpt>
      <trkpt lat="46.8718" lon="-0.95142">
        <ele>143</ele>
        <time>2022-05-28T06:50:33.664Z</time>
      </trkpt>
      <trkpt lat="46.87171" lon="-0.95095">
        <ele>140.7</ele>
        <time>2022-05-28T06:50:36.695Z</time>
      </trkpt>
      <trkpt lat="46.87164" lon="-0.95045">
        <ele>138.6</ele>
        <time>2022-05-28T06:50:39.918Z</time>
      </trkpt>
      <trkpt lat="46.87161" lon="-0.95002">
        <ele>136.3</ele>
        <time>2022-05-28T06:50:42.651Z</time>
      </trkpt>
      <trkpt lat="46.87159" lon="-0.94959">
        <ele>134.8</ele>
        <time>2022-05-28T06:50:45.564Z</time>
      </trkpt>
      <trkpt lat="46.87162" lon="-0.94897">
        <ele>132.5</ele>
        <time>2022-05-28T06:50:49.709Z</time>
      </trkpt>
      <trkpt lat="46.8717" lon="-0.9484">
        <ele>130.1</ele>
        <time>2022-05-28T06:50:53.481Z</time>
      </trkpt>
      <trkpt lat="46.87223" lon="-0.94561">
        <ele>119</ele>
        <time>2022-05-28T06:51:12.690Z</time>
      </trkpt>
      <trkpt lat="46.87226" lon="-0.9455">
        <ele>119.5</ele>
        <time>2022-05-28T06:51:15.162Z</time>
      </trkpt>
      <trkpt lat="46.87242" lon="-0.9447">
        <ele>125.8</ele>
        <time>2022-05-28T06:51:47.773Z</time>
      </trkpt>
      <trkpt lat="46.87243" lon="-0.94449">
        <ele>126.6</ele>
        <time>2022-05-28T06:51:51.851Z</time>
      </trkpt>
      <trkpt lat="46.87241" lon="-0.94431">
        <ele>127.6</ele>
        <time>2022-05-28T06:51:56.773Z</time>
      </trkpt>
      <trkpt lat="46.87236" lon="-0.9442">
        <ele>128.2</ele>
        <time>2022-05-28T06:51:59.722Z</time>
      </trkpt>
      <trkpt lat="46.87231" lon="-0.94412">
        <ele>128.2</ele>
        <time>2022-05-28T06:52:00.896Z</time>
      </trkpt>
      <trkpt lat="46.87188" lon="-0.94366">
        <ele>125.8</ele>
        <time>2022-05-28T06:52:06.450Z</time>
      </trkpt>
      <trkpt lat="46.87165" lon="-0.94341">
        <ele>124.2</ele>
        <time>2022-05-28T06:52:09.202Z</time>
        <extensions>
          <visugpx:TrkExtension xmlns:visugpx="https://www.visugpx.com/editgpx/">
            <visugpx:node>11</visugpx:node>
            </visugpx:TrkExtension>
        </extensions>
      </trkpt>
      <trkpt lat="46.87159" lon="-0.94334">
        <ele>124</ele>
        <time>2022-05-28T06:52:10.149Z</time>
        <extensions>
          <visugpx:TrkExtension xmlns:visugpx="https://www.visugpx.com/editgpx/">
            <visugpx:node>12</visugpx:node>
            </visugpx:TrkExtension>
        </extensions>
      </trkpt>
      <trkpt lat="46.87126" lon="-0.94286">
        <ele>123</ele>
        <time>2022-05-28T06:52:15.966Z</time>
      </trkpt>
      <trkpt lat="46.87015" lon="-0.94075">
        <ele>127</ele>
        <time>2022-05-28T06:52:50.413Z</time>
      </trkpt>
      <trkpt lat="46.86982" lon="-0.94008">
        <ele>128</ele>
        <time>2022-05-28T06:53:00.617Z</time>
      </trkpt>
      <trkpt lat="46.86963" lon="-0.93964">
        <ele>127</ele>
        <time>2022-05-28T06:53:04.832Z</time>
      </trkpt>
      <trkpt lat="46.86949" lon="-0.93923">
        <ele>126</ele>
        <time>2022-05-28T06:53:08.437Z</time>
      </trkpt>
      <trkpt lat="46.86934" lon="-0.93847">
        <ele>126</ele>
        <time>2022-05-28T06:53:16.615Z</time>
      </trkpt>
      <trkpt lat="46.86934" lon="-0.93827">
        <ele>126</ele>
        <time>2022-05-28T06:53:18.682Z</time>
      </trkpt>
      <trkpt lat="46.86921" lon="-0.93718">
        <ele>126</ele>
        <time>2022-05-28T06:53:30.121Z</time>
      </trkpt>
      <trkpt lat="46.86893" lon="-0.93549">
        <ele>124</ele>
        <time>2022-05-28T06:53:45.572Z</time>
      </trkpt>
      <trkpt lat="46.86871" lon="-0.93439">
        <ele>126</ele>
        <time>2022-05-28T06:54:00.994Z</time>
      </trkpt>
      <trkpt lat="46.8687" lon="-0.93402">
        <ele>127</ele>
        <time>2022-05-28T06:54:06.856Z</time>
      </trkpt>
      <trkpt lat="46.86882" lon="-0.93306">
        <ele>130</ele>
        <time>2022-05-28T06:54:23.375Z</time>
      </trkpt>
      <trkpt lat="46.86888" lon="-0.93231">
        <ele>132</ele>
        <time>2022-05-28T06:54:35.220Z</time>
      </trkpt>
      <trkpt lat="46.8689" lon="-0.93168">
        <ele>131</ele>
        <time>2022-05-28T06:54:40.535Z</time>
      </trkpt>
      <trkpt lat="46.86888" lon="-0.92975">
        <ele>126</ele>
        <time>2022-05-28T06:54:55.047Z</time>
      </trkpt>
      <trkpt lat="46.86882" lon="-0.92888">
        <ele>126</ele>
        <time>2022-05-28T06:55:04.087Z</time>
      </trkpt>
      <trkpt lat="46.86877" lon="-0.92868">
        <ele>127</ele>
        <time>2022-05-28T06:55:09.002Z</time>
      </trkpt>
      <trkpt lat="46.86862" lon="-0.92859">
        <ele>127</ele>
        <time>2022-05-28T06:55:11.454Z</time>
      </trkpt>
      <trkpt lat="46.86852" lon="-0.92861">
        <ele>126</ele>
        <time>2022-05-28T06:55:12.369Z</time>
      </trkpt>
      <trkpt lat="46.86799" lon="-0.92896">
        <ele>125</ele>
        <time>2022-05-28T06:55:19.903Z</time>
      </trkpt>
      <trkpt lat="46.86776" lon="-0.92902">
        <ele>126</ele>
        <time>2022-05-28T06:55:25.535Z</time>
      </trkpt>
      <trkpt lat="46.86753" lon="-0.92902">
        <ele>126</ele>
        <time>2022-05-28T06:55:29.013Z</time>
      </trkpt>
      <trkpt lat="46.86656" lon="-0.92873">
        <ele>126</ele>
        <time>2022-05-28T06:55:43.985Z</time>
      </trkpt>
      <trkpt lat="46.86603" lon="-0.92861">
        <ele>125</ele>
        <time>2022-05-28T06:55:50.848Z</time>
      </trkpt>
      <trkpt lat="46.86586" lon="-0.92859">
        <ele>124</ele>
        <time>2022-05-28T06:55:52.475Z</time>
      </trkpt>
      <trkpt lat="46.86561" lon="-0.92865">
        <ele>124</ele>
        <time>2022-05-28T06:55:56.306Z</time>
      </trkpt>
      <trkpt lat="46.86518" lon="-0.9288">
        <ele>123</ele>
        <time>2022-05-28T06:56:01.780Z</time>
      </trkpt>
      <trkpt lat="46.86491" lon="-0.9288">
        <ele>123</ele>
        <time>2022-05-28T06:56:05.863Z</time>
      </trkpt>
      <trkpt lat="46.86456" lon="-0.92872">
        <ele>124</ele>
        <time>2022-05-28T06:56:13.051Z</time>
      </trkpt>
      <trkpt lat="46.86421" lon="-0.9286">
        <ele>126</ele>
        <time>2022-05-28T06:56:23.248Z</time>
      </trkpt>
      <trkpt lat="46.86326" lon="-0.92808">
        <ele>131</ele>
        <time>2022-05-28T06:56:49.767Z</time>
      </trkpt>
      <trkpt lat="46.86304" lon="-0.92791">
        <ele>132</ele>
        <time>2022-05-28T06:56:55.576Z</time>
      </trkpt>
      <trkpt lat="46.86281" lon="-0.92764">
        <ele>134</ele>
        <time>2022-05-28T06:57:05.415Z</time>
      </trkpt>
      <trkpt lat="46.8627" lon="-0.92745">
        <ele>135</ele>
        <time>2022-05-28T06:57:10.445Z</time>
      </trkpt>
      <trkpt lat="46.86266" lon="-0.92674">
        <ele>137</ele>
        <time>2022-05-28T06:57:21.939Z</time>
      </trkpt>
      <trkpt lat="46.86259" lon="-0.92627">
        <ele>139</ele>
        <time>2022-05-28T06:57:31.927Z</time>
      </trkpt>
      <trkpt lat="46.8626" lon="-0.92612">
        <ele>140</ele>
        <time>2022-05-28T06:57:37.003Z</time>
      </trkpt>
      <trkpt lat="46.86251" lon="-0.92587">
        <ele>141</ele>
        <time>2022-05-28T06:57:42.215Z</time>
      </trkpt>
      <trkpt lat="46.86246" lon="-0.92579">
        <ele>141</ele>
        <time>2022-05-28T06:57:43.336Z</time>
      </trkpt>
      <trkpt lat="46.86209" lon="-0.92546">
        <ele>142</ele>
        <time>2022-05-28T06:57:51.637Z</time>
      </trkpt>
      <trkpt lat="46.86181" lon="-0.92526">
        <ele>143</ele>
        <time>2022-05-28T06:57:58.246Z</time>
      </trkpt>
      <trkpt lat="46.86153" lon="-0.925">
        <ele>143</ele>
        <time>2022-05-28T06:58:03.261Z</time>
      </trkpt>
      <trkpt lat="46.86168" lon="-0.92475">
        <ele>143</ele>
        <time>2022-05-28T06:58:06.701Z</time>
      </trkpt>
      <trkpt lat="46.86183" lon="-0.92457">
        <ele>143</ele>
        <time>2022-05-28T06:58:09.635Z</time>
      </trkpt>
      <trkpt lat="46.86224" lon="-0.92427">
        <ele>143</ele>
        <time>2022-05-28T06:58:16.567Z</time>
      </trkpt>
      <trkpt lat="46.86262" lon="-0.92409">
        <ele>143</ele>
        <time>2022-05-28T06:58:22.607Z</time>
      </trkpt>
      <trkpt lat="46.86306" lon="-0.92374">
        <ele>141</ele>
        <time>2022-05-28T06:58:28.034Z</time>
      </trkpt>
      <trkpt lat="46.86332" lon="-0.92341">
        <ele>141</ele>
        <time>2022-05-28T06:58:33.240Z</time>
      </trkpt>
      <trkpt lat="46.86435" lon="-0.92184">
        <ele>143</ele>
        <time>2022-05-28T06:58:58.950Z</time>
      </trkpt>
      <trkpt lat="46.8651" lon="-0.92081">
        <ele>146</ele>
        <time>2022-05-28T06:59:20.047Z</time>
      </trkpt>
      <trkpt lat="46.86543" lon="-0.92043">
        <ele>148</ele>
        <time>2022-05-28T06:59:30.797Z</time>
      </trkpt>
      <trkpt lat="46.86622" lon="-0.91975">
        <ele>146</ele>
        <time>2022-05-28T06:59:42.223Z</time>
      </trkpt>
      <trkpt lat="46.86639" lon="-0.91957">
        <ele>146</ele>
        <time>2022-05-28T06:59:45.397Z</time>
      </trkpt>
      <trkpt lat="46.86655" lon="-0.91937">
        <ele>146</ele>
        <time>2022-05-28T06:59:48.579Z</time>
      </trkpt>
      <trkpt lat="46.86687" lon="-0.91879">
        <ele>148</ele>
        <time>2022-05-28T07:00:00.342Z</time>
      </trkpt>
      <trkpt lat="46.86708" lon="-0.9182">
        <ele>151</ele>
        <time>2022-05-28T07:00:15.140Z</time>
      </trkpt>
      <trkpt lat="46.86744" lon="-0.91572">
        <ele>163</ele>
        <time>2022-05-28T07:01:14.084Z</time>
      </trkpt>
      <trkpt lat="46.86755" lon="-0.91512">
        <ele>164</ele>
        <time>2022-05-28T07:01:22.262Z</time>
      </trkpt>
      <trkpt lat="46.86771" lon="-0.91457">
        <ele>167</ele>
        <time>2022-05-28T07:01:36.972Z</time>
      </trkpt>
      <trkpt lat="46.86799" lon="-0.91389">
        <ele>171</ele>
        <time>2022-05-28T07:01:56.586Z</time>
      </trkpt>
      <trkpt lat="46.86855" lon="-0.91281">
        <ele>176</ele>
        <time>2022-05-28T07:02:22.306Z</time>
      </trkpt>
      <trkpt lat="46.87121" lon="-0.90878">
        <ele>179</ele>
        <time>2022-05-28T07:03:24.815Z</time>
      </trkpt>
      <trkpt lat="46.87153" lon="-0.90822">
        <ele>179</ele>
        <time>2022-05-28T07:03:32.361Z</time>
      </trkpt>
      <trkpt lat="46.87181" lon="-0.90766">
        <ele>179</ele>
        <time>2022-05-28T07:03:39.533Z</time>
      </trkpt>
      <trkpt lat="46.87204" lon="-0.90712">
        <ele>180</ele>
        <time>2022-05-28T07:03:47.856Z</time>
      </trkpt>
      <trkpt lat="46.87262" lon="-0.90541">
        <ele>183</ele>
        <time>2022-05-28T07:04:12.829Z</time>
      </trkpt>
      <trkpt lat="46.87267" lon="-0.90502">
        <ele>184</ele>
        <time>2022-05-28T07:04:18.915Z</time>
      </trkpt>
      <trkpt lat="46.87267" lon="-0.90477">
        <ele>184</ele>
        <time>2022-05-28T07:04:21.499Z</time>
      </trkpt>
      <trkpt lat="46.87258" lon="-0.90463">
        <ele>184</ele>
        <time>2022-05-28T07:04:23.486Z</time>
      </trkpt>
      <trkpt lat="46.87255" lon="-0.90447">
        <ele>185</ele>
        <time>2022-05-28T07:04:28.471Z</time>
      </trkpt>
      <trkpt lat="46.87258" lon="-0.90436">
        <ele>185</ele>
        <time>2022-05-28T07:04:29.695Z</time>
      </trkpt>
      <trkpt lat="46.87267" lon="-0.90422">
        <ele>185</ele>
        <time>2022-05-28T07:04:31.682Z</time>
      </trkpt>
      <trkpt lat="46.87271" lon="-0.90419">
        <ele>184</ele>
        <time>2022-05-28T07:04:32.090Z</time>
      </trkpt>
      <trkpt lat="46.87282" lon="-0.90418">
        <ele>184</ele>
        <time>2022-05-28T07:04:33.756Z</time>
      </trkpt>
      <trkpt lat="46.87292" lon="-0.90425">
        <ele>184</ele>
        <time>2022-05-28T07:04:35.433Z</time>
      </trkpt>
      <trkpt lat="46.87299" lon="-0.90437">
        <ele>184</ele>
        <time>2022-05-28T07:04:37.063Z</time>
      </trkpt>
      <trkpt lat="46.87459" lon="-0.90265">
        <ele>184</ele>
        <time>2022-05-28T07:05:07.089Z</time>
      </trkpt>
      <trkpt lat="46.8749" lon="-0.90237">
        <ele>185</ele>
        <time>2022-05-28T07:05:14.416Z</time>
      </trkpt>
      <trkpt lat="46.87513" lon="-0.90221">
        <ele>185</ele>
        <time>2022-05-28T07:05:18.267Z</time>
      </trkpt>
      <trkpt lat="46.87591" lon="-0.90186">
        <ele>183</ele>
        <time>2022-05-28T07:05:28.216Z</time>
      </trkpt>
      <trkpt lat="46.87648" lon="-0.90161">
        <ele>183.6</ele>
        <time>2022-05-28T07:05:38.082Z</time>
      </trkpt>
      <trkpt lat="46.87717" lon="-0.90124">
        <ele>181.6</ele>
        <time>2022-05-28T07:05:46.924Z</time>
      </trkpt>
      <trkpt lat="46.87773" lon="-0.90096">
        <ele>178.9</ele>
        <time>2022-05-28T07:05:53.017Z</time>
      </trkpt>
      <trkpt lat="46.87828" lon="-0.90069">
        <ele>177.7</ele>
        <time>2022-05-28T07:06:00.322Z</time>
      </trkpt>
      <trkpt lat="46.87871" lon="-0.90049">
        <ele>175.7</ele>
        <time>2022-05-28T07:06:05.057Z</time>
      </trkpt>
      <trkpt lat="46.87905" lon="-0.90032">
        <ele>175.3</ele>
        <time>2022-05-28T07:06:10.083Z</time>
      </trkpt>
      <trkpt lat="46.8794" lon="-0.90029">
        <ele>174.2</ele>
        <time>2022-05-28T07:06:14.097Z</time>
      </trkpt>
      <trkpt lat="46.8795" lon="-0.90013">
        <ele>174</ele>
        <time>2022-05-28T07:06:16.002Z</time>
      </trkpt>
      <trkpt lat="46.87958" lon="-0.89995">
        <ele>173.9</ele>
        <time>2022-05-28T07:06:18.085Z</time>
      </trkpt>
      <trkpt lat="46.8797" lon="-0.89988">
        <ele>173.6</ele>
        <time>2022-05-28T07:06:19.732Z</time>
      </trkpt>
      <trkpt lat="46.87982" lon="-0.90006">
        <ele>173.7</ele>
        <time>2022-05-28T07:06:22.378Z</time>
      </trkpt>
      <trkpt lat="46.87987" lon="-0.90022">
        <ele>173.5</ele>
        <time>2022-05-28T07:06:23.949Z</time>
      </trkpt>
      <trkpt lat="46.88002" lon="-0.90033">
        <ele>173.2</ele>
        <time>2022-05-28T07:06:26.133Z</time>
      </trkpt>
      <trkpt lat="46.88019" lon="-0.90035">
        <ele>173.8</ele>
        <time>2022-05-28T07:06:29.895Z</time>
      </trkpt>
      <trkpt lat="46.88047" lon="-0.90035">
        <ele>173.5</ele>
        <time>2022-05-28T07:06:33.810Z</time>
      </trkpt>
      <trkpt lat="46.88069" lon="-0.90031">
        <ele>173.5</ele>
        <time>2022-05-28T07:06:37.127Z</time>
      </trkpt>
      <trkpt lat="46.88103" lon="-0.90028">
        <ele>174.7</ele>
        <time>2022-05-28T07:06:44.584Z</time>
      </trkpt>
      <trkpt lat="46.88152" lon="-0.90024">
        <ele>176.3</ele>
        <time>2022-05-28T07:06:55.088Z</time>
      </trkpt>
      <trkpt lat="46.8822" lon="-0.90016">
        <ele>180.4</ele>
        <time>2022-05-28T07:07:15.605Z</time>
      </trkpt>
      <trkpt lat="46.88275" lon="-0.90012">
        <ele>183.8</ele>
        <time>2022-05-28T07:07:32.535Z</time>
      </trkpt>
      <trkpt lat="46.88312" lon="-0.90012">
        <ele>186.3</ele>
        <time>2022-05-28T07:07:44.832Z</time>
      </trkpt>
      <trkpt lat="46.88339" lon="-0.90011">
        <ele>187.8</ele>
        <time>2022-05-28T07:07:52.522Z</time>
      </trkpt>
      <trkpt lat="46.88363" lon="-0.90007">
        <ele>189.3</ele>
        <time>2022-05-28T07:07:59.954Z</time>
      </trkpt>
      <trkpt lat="46.88368" lon="-0.90021">
        <ele>190</ele>
        <time>2022-05-28T07:08:03.429Z</time>
      </trkpt>
      <trkpt lat="46.88367" lon="-0.90074">
        <ele>192.2</ele>
        <time>2022-05-28T07:08:14.423Z</time>
      </trkpt>
      <trkpt lat="46.88357" lon="-0.90161">
        <ele>194.6</ele>
        <time>2022-05-28T07:08:28.453Z</time>
      </trkpt>
      <trkpt lat="46.88351" lon="-0.90231">
        <ele>195.8</ele>
        <time>2022-05-28T07:08:37.861Z</time>
      </trkpt>
      <trkpt lat="46.88334" lon="-0.90331">
        <ele>197</ele>
        <time>2022-05-28T07:08:50.499Z</time>
      </trkpt>
      <trkpt lat="46.88316" lon="-0.90438">
        <ele>198.8</ele>
        <time>2022-05-28T07:09:05.078Z</time>
      </trkpt>
      <trkpt lat="46.88308" lon="-0.90488">
        <ele>199</ele>
        <time>2022-05-28T07:09:10.669Z</time>
      </trkpt>
      <trkpt lat="46.88305" lon="-0.90502">
        <ele>199</ele>
        <time>2022-05-28T07:09:12.214Z</time>
      </trkpt>
      <trkpt lat="46.88312" lon="-0.90532">
        <ele>200.9</ele>
        <time>2022-05-28T07:09:21.717Z</time>
      </trkpt>
      <trkpt lat="46.88329" lon="-0.9062">
        <ele>204.4</ele>
        <time>2022-05-28T07:09:39.533Z</time>
      </trkpt>
      <trkpt lat="46.88356" lon="-0.90722">
        <ele>208.4</ele>
        <time>2022-05-28T07:10:00.183Z</time>
      </trkpt>
      <trkpt lat="46.88366" lon="-0.90767">
        <ele>209.4</ele>
        <time>2022-05-28T07:10:06.923Z</time>
      </trkpt>
      <trkpt lat="46.88367" lon="-0.90804">
        <ele>208.5</ele>
        <time>2022-05-28T07:10:09.772Z</time>
      </trkpt>
      <trkpt lat="46.88365" lon="-0.90855">
        <ele>208.3</ele>
        <time>2022-05-28T07:10:14.760Z</time>
      </trkpt>
      <trkpt lat="46.88355" lon="-0.90908">
        <ele>209.1</ele>
        <time>2022-05-28T07:10:21.824Z</time>
      </trkpt>
      <trkpt lat="46.88343" lon="-0.90951">
        <ele>208.7</ele>
        <time>2022-05-28T07:10:26.121Z</time>
      </trkpt>
      <trkpt lat="46.88337" lon="-0.90982">
        <ele>208.2</ele>
        <time>2022-05-28T07:10:28.868Z</time>
      </trkpt>
      <trkpt lat="46.88337" lon="-0.91009">
        <ele>208.5</ele>
        <time>2022-05-28T07:10:32.108Z</time>
      </trkpt>
      <trkpt lat="46.8834" lon="-0.91026">
        <ele>206</ele>
        <time>2022-05-28T07:10:33.211Z</time>
      </trkpt>
      <trkpt lat="46.88342" lon="-0.91044">
        <ele>206</ele>
        <time>2022-05-28T07:10:35.096Z</time>
      </trkpt>
      <trkpt lat="46.88365" lon="-0.91062">
        <ele>206</ele>
        <time>2022-05-28T07:10:39.040Z</time>
      </trkpt>
      <trkpt lat="46.88443" lon="-0.9111">
        <ele>204</ele>
        <time>2022-05-28T07:10:49.432Z</time>
      </trkpt>
      <trkpt lat="46.88494" lon="-0.91149">
        <ele>200</ele>
        <time>2022-05-28T07:10:54.654Z</time>
      </trkpt>
      <trkpt lat="46.88494" lon="-0.91153">
        <ele>200</ele>
        <time>2022-05-28T07:10:55.067Z</time>
      </trkpt>
      <trkpt lat="46.88521" lon="-0.91176">
        <ele>201</ele>
        <time>2022-05-28T07:11:01.687Z</time>
      </trkpt>
      <trkpt lat="46.88578" lon="-0.91237">
        <ele>204</ele>
        <time>2022-05-28T07:11:18.644Z</time>
      </trkpt>
      <trkpt lat="46.88623" lon="-0.91291">
        <ele>206</ele>
        <time>2022-05-28T07:11:31.319Z</time>
      </trkpt>
      <trkpt lat="46.88772" lon="-0.91505">
        <ele>221</ele>
        <time>2022-05-28T07:12:44.887Z</time>
      </trkpt>
      <trkpt lat="46.88805" lon="-0.91543">
        <ele>221</ele>
        <time>2022-05-28T07:12:51.237Z</time>
      </trkpt>
      <trkpt lat="46.88899" lon="-0.91633">
        <ele>220</ele>
        <time>2022-05-28T07:13:06.883Z</time>
      </trkpt>
      <trkpt lat="46.88925" lon="-0.91667">
        <ele>222</ele>
        <time>2022-05-28T07:13:17.000Z</time>
      </trkpt>
      <trkpt lat="46.8896" lon="-0.91729">
        <ele>220</ele>
        <time>2022-05-28T07:13:23.112Z</time>
      </trkpt>
      <trkpt lat="46.88975" lon="-0.91768">
        <ele>219</ele>
        <time>2022-05-28T07:13:26.609Z</time>
      </trkpt>
      <trkpt lat="46.89062" lon="-0.92051">
        <ele>221</ele>
        <time>2022-05-28T07:14:01.784Z</time>
      </trkpt>
      <trkpt lat="46.89068" lon="-0.9205">
        <ele>220</ele>
        <time>2022-05-28T07:14:02.332Z</time>
      </trkpt>
      <trkpt lat="46.89082" lon="-0.92061">
        <ele>218</ele>
        <time>2022-05-28T07:14:03.774Z</time>
      </trkpt>
      <trkpt lat="46.89086" lon="-0.92077">
        <ele>219</ele>
        <time>2022-05-28T07:14:08.738Z</time>
      </trkpt>
      <trkpt lat="46.89084" lon="-0.92092">
        <ele>219</ele>
        <time>2022-05-28T07:14:10.317Z</time>
      </trkpt>
      <trkpt lat="46.89113" lon="-0.92142">
        <ele>218</ele>
        <time>2022-05-28T07:14:15.881Z</time>
      </trkpt>
      <trkpt lat="46.89345" lon="-0.92469">
        <ele>211</ele>
        <time>2022-05-28T07:14:56.062Z</time>
      </trkpt>
      <trkpt lat="46.89371" lon="-0.925">
        <ele>210</ele>
        <time>2022-05-28T07:14:59.983Z</time>
      </trkpt>
      <trkpt lat="46.8939" lon="-0.9252">
        <ele>209</ele>
        <time>2022-05-28T07:15:02.468Z</time>
      </trkpt>
      <trkpt lat="46.89423" lon="-0.92549">
        <ele>209</ele>
        <time>2022-05-28T07:15:08.289Z</time>
      </trkpt>
      <trkpt lat="46.89469" lon="-0.92578">
        <ele>210</ele>
        <time>2022-05-28T07:15:17.563Z</time>
      </trkpt>
      <trkpt lat="46.89503" lon="-0.92594">
        <ele>211</ele>
        <time>2022-05-28T07:15:24.791Z</time>
      </trkpt>
      <trkpt lat="46.89624" lon="-0.92636">
        <ele>212</ele>
        <time>2022-05-28T07:15:45.131Z</time>
      </trkpt>
      <trkpt lat="46.89664" lon="-0.92653">
        <ele>212</ele>
        <time>2022-05-28T07:15:51.430Z</time>
      </trkpt>
      <trkpt lat="46.89728" lon="-0.92684">
        <ele>213</ele>
        <time>2022-05-28T07:16:03.250Z</time>
      </trkpt>
      <trkpt lat="46.89751" lon="-0.92698">
        <ele>214</ele>
        <time>2022-05-28T07:16:09.063Z</time>
      </trkpt>
      <trkpt lat="46.89788" lon="-0.92728">
        <ele>216</ele>
        <time>2022-05-28T07:16:19.844Z</time>
      </trkpt>
      <trkpt lat="46.89813" lon="-0.92755">
        <ele>218</ele>
        <time>2022-05-28T07:16:29.739Z</time>
      </trkpt>
      <trkpt lat="46.8985" lon="-0.92803">
        <ele>219</ele>
        <time>2022-05-28T07:16:38.920Z</time>
      </trkpt>
      <trkpt lat="46.89871" lon="-0.92842">
        <ele>220</ele>
        <time>2022-05-28T07:16:45.902Z</time>
      </trkpt>
      <trkpt lat="46.89885" lon="-0.92875">
        <ele>222</ele>
        <time>2022-05-28T07:16:55.713Z</time>
      </trkpt>
      <trkpt lat="46.89895" lon="-0.92889">
        <ele>223</ele>
        <time>2022-05-28T07:17:00.617Z</time>
      </trkpt>
      <trkpt lat="46.89965" lon="-0.92969">
        <ele>228</ele>
        <time>2022-05-28T07:17:26.030Z</time>
      </trkpt>
      <trkpt lat="46.89969" lon="-0.92978">
        <ele>228</ele>
        <time>2022-05-28T07:17:27.139Z</time>
      </trkpt>
      <trkpt lat="46.8998" lon="-0.93031">
        <ele>229</ele>
        <time>2022-05-28T07:17:34.663Z</time>
      </trkpt>
      <trkpt lat="46.8999" lon="-0.93047">
        <ele>230</ele>
        <time>2022-05-28T07:17:39.584Z</time>
      </trkpt>
      <trkpt lat="46.8999" lon="-0.93061">
        <ele>231</ele>
        <time>2022-05-28T07:17:44.730Z</time>
      </trkpt>
      <trkpt lat="46.90031" lon="-0.93078">
        <ele>232</ele>
        <time>2022-05-28T07:17:52.928Z</time>
      </trkpt>
      <trkpt lat="46.90107" lon="-0.93127">
        <ele>232</ele>
        <time>2022-05-28T07:18:05.486Z</time>
      </trkpt>
      <trkpt lat="46.90259" lon="-0.93162">
        <ele>236</ele>
        <time>2022-05-28T07:18:35.930Z</time>
      </trkpt>
      <trkpt lat="46.90309" lon="-0.93168">
        <ele>237</ele>
        <time>2022-05-28T07:18:45.216Z</time>
      </trkpt>
      <trkpt lat="46.90333" lon="-0.93168">
        <ele>237</ele>
        <time>2022-05-28T07:18:48.846Z</time>
      </trkpt>
      <trkpt lat="46.90351" lon="-0.93165">
        <ele>237</ele>
        <time>2022-05-28T07:18:51.585Z</time>
      </trkpt>
      <trkpt lat="46.90473" lon="-0.93122">
        <ele>234</ele>
        <time>2022-05-28T07:19:06.962Z</time>
      </trkpt>
      <trkpt lat="46.90496" lon="-0.93108">
        <ele>233</ele>
        <time>2022-05-28T07:19:09.657Z</time>
      </trkpt>
      <trkpt lat="46.9051" lon="-0.9309">
        <ele>232</ele>
        <time>2022-05-28T07:19:11.493Z</time>
      </trkpt>
      <trkpt lat="46.90557" lon="-0.92969">
        <ele>225</ele>
        <time>2022-05-28T07:19:20.121Z</time>
      </trkpt>
      <trkpt lat="46.90569" lon="-0.92947">
        <ele>223</ele>
        <time>2022-05-28T07:19:21.866Z</time>
      </trkpt>
      <trkpt lat="46.9059" lon="-0.92929">
        <ele>221</ele>
        <time>2022-05-28T07:19:24.074Z</time>
      </trkpt>
      <trkpt lat="46.90619" lon="-0.92921">
        <ele>220</ele>
        <time>2022-05-28T07:19:27.418Z</time>
      </trkpt>
      <trkpt lat="46.90641" lon="-0.92909">
        <ele>218</ele>
        <time>2022-05-28T07:19:29.548Z</time>
      </trkpt>
      <trkpt lat="46.90675" lon="-0.92854">
        <ele>211</ele>
        <time>2022-05-28T07:19:34.146Z</time>
      </trkpt>
      <trkpt lat="46.90716" lon="-0.92773">
        <ele>208</ele>
        <time>2022-05-28T07:19:41.416Z</time>
      </trkpt>
      <trkpt lat="46.90733" lon="-0.92748">
        <ele>208</ele>
        <time>2022-05-28T07:19:45.060Z</time>
      </trkpt>
      <trkpt lat="46.90753" lon="-0.92729">
        <ele>210</ele>
        <time>2022-05-28T07:19:54.956Z</time>
      </trkpt>
      <trkpt lat="46.90771" lon="-0.9272">
        <ele>211</ele>
        <time>2022-05-28T07:20:00.141Z</time>
      </trkpt>
      <trkpt lat="46.9084" lon="-0.92713">
        <ele>211</ele>
        <time>2022-05-28T07:20:10.600Z</time>
      </trkpt>
      <trkpt lat="46.90959" lon="-0.92681">
        <ele>209</ele>
        <time>2022-05-28T07:20:26.365Z</time>
      </trkpt>
      <trkpt lat="46.91002" lon="-0.92676">
        <ele>210</ele>
        <time>2022-05-28T07:20:34.637Z</time>
      </trkpt>
      <trkpt lat="46.91013" lon="-0.92678">
        <ele>210</ele>
        <time>2022-05-28T07:20:36.313Z</time>
      </trkpt>
      <trkpt lat="46.91045" lon="-0.9269">
        <ele>211</ele>
        <time>2022-05-28T07:20:43.174Z</time>
      </trkpt>
      <trkpt lat="46.9108" lon="-0.92718">
        <ele>212</ele>
        <time>2022-05-28T07:20:50.984Z</time>
      </trkpt>
      <trkpt lat="46.91122" lon="-0.92778">
        <ele>213</ele>
        <time>2022-05-28T07:21:01.516Z</time>
      </trkpt>
      <trkpt lat="46.91183" lon="-0.92853">
        <ele>216</ele>
        <time>2022-05-28T07:21:19.558Z</time>
      </trkpt>
      <trkpt lat="46.91204" lon="-0.92888">
        <ele>216</ele>
        <time>2022-05-28T07:21:24.370Z</time>
      </trkpt>
      <trkpt lat="46.91249" lon="-0.92977">
        <ele>215</ele>
        <time>2022-05-28T07:21:34.510Z</time>
      </trkpt>
      <trkpt lat="46.91262" lon="-0.92998">
        <ele>215</ele>
        <time>2022-05-28T07:21:37.438Z</time>
      </trkpt>
      <trkpt lat="46.91277" lon="-0.93014">
        <ele>214</ele>
        <time>2022-05-28T07:21:39.264Z</time>
      </trkpt>
      <trkpt lat="46.91324" lon="-0.93042">
        <ele>212</ele>
        <time>2022-05-28T07:21:44.782Z</time>
      </trkpt>
      <trkpt lat="46.91345" lon="-0.9305">
        <ele>211</ele>
        <time>2022-05-28T07:21:47.032Z</time>
      </trkpt>
      <trkpt lat="46.91361" lon="-0.93054">
        <ele>211</ele>
        <time>2022-05-28T07:21:49.487Z</time>
      </trkpt>
      <trkpt lat="46.91392" lon="-0.93056">
        <ele>210</ele>
        <time>2022-05-28T07:21:53.048Z</time>
      </trkpt>
      <trkpt lat="46.91407" lon="-0.93052">
        <ele>210</ele>
        <time>2022-05-28T07:21:55.353Z</time>
      </trkpt>
      <trkpt lat="46.91439" lon="-0.93035">
        <ele>209</ele>
        <time>2022-05-28T07:21:59.347Z</time>
      </trkpt>
      <trkpt lat="46.91628" lon="-0.92879">
        <ele>209</ele>
        <time>2022-05-28T07:22:32.157Z</time>
      </trkpt>
      <trkpt lat="46.91665" lon="-0.92835">
        <ele>206</ele>
        <time>2022-05-28T07:22:36.583Z</time>
      </trkpt>
      <trkpt lat="46.91677" lon="-0.9281">
        <ele>206</ele>
        <time>2022-05-28T07:22:39.739Z</time>
      </trkpt>
      <trkpt lat="46.91692" lon="-0.92767">
        <ele>205</ele>
        <time>2022-05-28T07:22:43.580Z</time>
      </trkpt>
      <trkpt lat="46.91698" lon="-0.92742">
        <ele>205</ele>
        <time>2022-05-28T07:22:46.317Z</time>
      </trkpt>
      <trkpt lat="46.917" lon="-0.92715">
        <ele>204</ele>
        <time>2022-05-28T07:22:48.141Z</time>
      </trkpt>
      <trkpt lat="46.91701" lon="-0.92516">
        <ele>200</ele>
        <time>2022-05-28T07:23:04.082Z</time>
      </trkpt>
      <trkpt lat="46.91703" lon="-0.92489">
        <ele>200</ele>
        <time>2022-05-28T07:23:06.887Z</time>
      </trkpt>
      <trkpt lat="46.91715" lon="-0.92431">
        <ele>199</ele>
        <time>2022-05-28T07:23:11.950Z</time>
      </trkpt>
      <trkpt lat="46.91729" lon="-0.92392">
        <ele>199</ele>
        <time>2022-05-28T07:23:16.500Z</time>
      </trkpt>
      <trkpt lat="46.91749" lon="-0.92352">
        <ele>197</ele>
        <time>2022-05-28T07:23:19.721Z</time>
      </trkpt>
      <trkpt lat="46.91802" lon="-0.92267">
        <ele>198</ele>
        <time>2022-05-28T07:23:33.206Z</time>
      </trkpt>
      <trkpt lat="46.91861" lon="-0.92198">
        <ele>197</ele>
        <time>2022-05-28T07:23:43.327Z</time>
      </trkpt>
      <trkpt lat="46.91886" lon="-0.92163">
        <ele>197</ele>
        <time>2022-05-28T07:23:48.558Z</time>
      </trkpt>
      <trkpt lat="46.91907" lon="-0.92118">
        <ele>196</ele>
        <time>2022-05-28T07:23:53.013Z</time>
      </trkpt>
      <trkpt lat="46.9193" lon="-0.92052">
        <ele>196</ele>
        <time>2022-05-28T07:24:00.665Z</time>
      </trkpt>
      <trkpt lat="46.9194" lon="-0.92014">
        <ele>196</ele>
        <time>2022-05-28T07:24:04.872Z</time>
      </trkpt>
      <trkpt lat="46.91948" lon="-0.9196">
        <ele>196</ele>
        <time>2022-05-28T07:24:10.579Z</time>
      </trkpt>
      <trkpt lat="46.91955" lon="-0.91878">
        <ele>196</ele>
        <time>2022-05-28T07:24:19.114Z</time>
      </trkpt>
      <trkpt lat="46.91965" lon="-0.91823">
        <ele>195</ele>
        <time>2022-05-28T07:24:23.808Z</time>
      </trkpt>
      <trkpt lat="46.9198" lon="-0.91776">
        <ele>196</ele>
        <time>2022-05-28T07:24:30.997Z</time>
      </trkpt>
      <trkpt lat="46.92004" lon="-0.91731">
        <ele>195</ele>
        <time>2022-05-28T07:24:35.709Z</time>
      </trkpt>
      <trkpt lat="46.92028" lon="-0.91696">
        <ele>194</ele>
        <time>2022-05-28T07:24:39.679Z</time>
      </trkpt>
      <trkpt lat="46.92119" lon="-0.916">
        <ele>193</ele>
        <time>2022-05-28T07:24:55.299Z</time>
      </trkpt>
      <trkpt lat="46.9215" lon="-0.91575">
        <ele>191</ele>
        <time>2022-05-28T07:24:58.721Z</time>
      </trkpt>
      <trkpt lat="46.92169" lon="-0.91564">
        <ele>190</ele>
        <time>2022-05-28T07:25:00.799Z</time>
      </trkpt>
      <trkpt lat="46.92219" lon="-0.91522">
        <ele>190</ele>
        <time>2022-05-28T07:25:09.516Z</time>
      </trkpt>
      <trkpt lat="46.92247" lon="-0.91493">
        <ele>190</ele>
        <time>2022-05-28T07:25:14.702Z</time>
      </trkpt>
      <trkpt lat="46.92314" lon="-0.91431">
        <ele>192</ele>
        <time>2022-05-28T07:25:30.251Z</time>
      </trkpt>
      <trkpt lat="46.92346" lon="-0.91389">
        <ele>193</ele>
        <time>2022-05-28T07:25:38.500Z</time>
      </trkpt>
      <trkpt lat="46.92411" lon="-0.91285">
        <ele>193</ele>
        <time>2022-05-28T07:25:53.060Z</time>
      </trkpt>
      <trkpt lat="46.92464" lon="-0.91218">
        <ele>193</ele>
        <time>2022-05-28T07:26:03.648Z</time>
      </trkpt>
      <trkpt lat="46.92502" lon="-0.91192">
        <ele>193</ele>
        <time>2022-05-28T07:26:09.991Z</time>
      </trkpt>
      <trkpt lat="46.92564" lon="-0.9116">
        <ele>195</ele>
        <time>2022-05-28T07:26:23.668Z</time>
      </trkpt>
      <trkpt lat="46.92612" lon="-0.91147">
        <ele>196</ele>
        <time>2022-05-28T07:26:32.757Z</time>
      </trkpt>
      <trkpt lat="46.92661" lon="-0.91137">
        <ele>197</ele>
        <time>2022-05-28T07:26:41.943Z</time>
      </trkpt>
      <trkpt lat="46.92678" lon="-0.91131">
        <ele>197</ele>
        <time>2022-05-28T07:26:44.587Z</time>
      </trkpt>
      <trkpt lat="46.92685" lon="-0.91084">
        <ele>198</ele>
        <time>2022-05-28T07:26:51.423Z</time>
      </trkpt>
      <trkpt lat="46.92736" lon="-0.90861">
        <ele>193</ele>
        <time>2022-05-28T07:27:10.010Z</time>
      </trkpt>
      <trkpt lat="46.92768" lon="-0.90678">
        <ele>191</ele>
        <time>2022-05-28T07:27:26.967Z</time>
      </trkpt>
      <trkpt lat="46.92776" lon="-0.90643">
        <ele>191</ele>
        <time>2022-05-28T07:27:30.778Z</time>
      </trkpt>
      <trkpt lat="46.92805" lon="-0.90564">
        <ele>193</ele>
        <time>2022-05-28T07:27:43.854Z</time>
      </trkpt>
      <trkpt lat="46.92813" lon="-0.90525">
        <ele>193</ele>
        <time>2022-05-28T07:27:48.060Z</time>
      </trkpt>
      <trkpt lat="46.92824" lon="-0.90418">
        <ele>194</ele>
        <time>2022-05-28T07:28:00.842Z</time>
      </trkpt>
      <trkpt lat="46.92819" lon="-0.90392">
        <ele>194</ele>
        <time>2022-05-28T07:28:03.631Z</time>
      </trkpt>
      <trkpt lat="46.92805" lon="-0.90345">
        <ele>192</ele>
        <time>2022-05-28T07:28:07.004Z</time>
      </trkpt>
      <trkpt lat="46.92805" lon="-0.90337">
        <ele>192</ele>
        <time>2022-05-28T07:28:07.830Z</time>
      </trkpt>
      <trkpt lat="46.92808" lon="-0.90324">
        <ele>192</ele>
        <time>2022-05-28T07:28:09.247Z</time>
      </trkpt>
      <trkpt lat="46.92832" lon="-0.90271">
        <ele>192</ele>
        <time>2022-05-28T07:28:15.815Z</time>
      </trkpt>
      <trkpt lat="46.92837" lon="-0.90245">
        <ele>192</ele>
        <time>2022-05-28T07:28:18.604Z</time>
      </trkpt>
      <trkpt lat="46.93035" lon="-0.90139">
        <ele>197</ele>
        <time>2022-05-28T07:28:59.272Z</time>
      </trkpt>
      <trkpt lat="46.93109" lon="-0.90105">
        <ele>196</ele>
        <time>2022-05-28T07:29:09.699Z</time>
      </trkpt>
      <trkpt lat="46.93126" lon="-0.90088">
        <ele>195</ele>
        <time>2022-05-28T07:29:11.798Z</time>
      </trkpt>
      <trkpt lat="46.93126" lon="-0.90072">
        <ele>196</ele>
        <time>2022-05-28T07:29:16.816Z</time>
      </trkpt>
      <trkpt lat="46.93132" lon="-0.90072">
        <ele>195</ele>
        <time>2022-05-28T07:29:17.361Z</time>
      </trkpt>
      <trkpt lat="46.93157" lon="-0.9006">
        <ele>194</ele>
        <time>2022-05-28T07:29:20.251Z</time>
      </trkpt>
      <trkpt lat="46.93252" lon="-0.89979">
        <ele>193</ele>
        <time>2022-05-28T07:29:35.536Z</time>
      </trkpt>
      <trkpt lat="46.93318" lon="-0.89911">
        <ele>194</ele>
        <time>2022-05-28T07:29:49.331Z</time>
      </trkpt>
      <trkpt lat="46.9341" lon="-0.89809">
        <ele>192</ele>
        <time>2022-05-28T07:30:04.264Z</time>
      </trkpt>
      <trkpt lat="46.93476" lon="-0.89755">
        <ele>188</ele>
        <time>2022-05-28T07:30:11.749Z</time>
      </trkpt>
      <trkpt lat="46.93479" lon="-0.89741">
        <ele>188</ele>
        <time>2022-05-28T07:30:13.264Z</time>
      </trkpt>
      <trkpt lat="46.93483" lon="-0.89735">
        <ele>187</ele>
        <time>2022-05-28T07:30:13.783Z</time>
      </trkpt>
      <trkpt lat="46.93489" lon="-0.89732">
        <ele>187</ele>
        <time>2022-05-28T07:30:14.742Z</time>
      </trkpt>
      <trkpt lat="46.93495" lon="-0.89735">
        <ele>187</ele>
        <time>2022-05-28T07:30:15.701Z</time>
      </trkpt>
      <trkpt lat="46.93502" lon="-0.89745">
        <ele>187</ele>
        <time>2022-05-28T07:30:17.179Z</time>
      </trkpt>
      <trkpt lat="46.93502" lon="-0.89751">
        <ele>187</ele>
        <time>2022-05-28T07:30:17.799Z</time>
      </trkpt>
      <trkpt lat="46.93686" lon="-0.8975">
        <ele>178</ele>
        <time>2022-05-28T07:30:36.512Z</time>
      </trkpt>
      <trkpt lat="46.9378" lon="-0.89753">
        <ele>176</ele>
        <time>2022-05-28T07:30:48.285Z</time>
      </trkpt>
      <trkpt lat="46.93897" lon="-0.89764">
        <ele>176</ele>
        <time>2022-05-28T07:31:06.014Z</time>
      </trkpt>
      <trkpt lat="46.93965" lon="-0.89763">
        <ele>175</ele>
        <time>2022-05-28T07:31:15.014Z</time>
      </trkpt>
      <trkpt lat="46.94206" lon="-0.89737">
        <ele>172</ele>
        <time>2022-05-28T07:31:47.640Z</time>
      </trkpt>
      <trkpt lat="46.94259" lon="-0.89726">
        <ele>174</ele>
        <time>2022-05-28T07:31:59.720Z</time>
      </trkpt>
      <trkpt lat="46.94517" lon="-0.89643">
        <ele>172</ele>
        <time>2022-05-28T07:32:36.955Z</time>
      </trkpt>
      <trkpt lat="46.94545" lon="-0.89635">
        <ele>171</ele>
        <time>2022-05-28T07:32:40.159Z</time>
      </trkpt>
      <trkpt lat="46.9457" lon="-0.89632">
        <ele>170</ele>
        <time>2022-05-28T07:32:42.878Z</time>
      </trkpt>
      <trkpt lat="46.94608" lon="-0.89633">
        <ele>169</ele>
        <time>2022-05-28T07:32:47.446Z</time>
      </trkpt>
      <trkpt lat="46.94645" lon="-0.89642">
        <ele>168</ele>
        <time>2022-05-28T07:32:51.941Z</time>
      </trkpt>
      <trkpt lat="46.94672" lon="-0.89651">
        <ele>167</ele>
        <time>2022-05-28T07:32:55.027Z</time>
      </trkpt>
      <trkpt lat="46.94743" lon="-0.89687">
        <ele>165</ele>
        <time>2022-05-28T07:33:04.035Z</time>
      </trkpt>
      <trkpt lat="46.94827" lon="-0.89708">
        <ele>163</ele>
        <time>2022-05-28T07:33:14.515Z</time>
      </trkpt>
      <trkpt lat="46.94829" lon="-0.89697">
        <ele>163</ele>
        <time>2022-05-28T07:33:15.690Z</time>
      </trkpt>
      <trkpt lat="46.94834" lon="-0.8969">
        <ele>163</ele>
        <time>2022-05-28T07:33:16.736Z</time>
      </trkpt>
      <trkpt lat="46.94841" lon="-0.89687">
        <ele>163</ele>
        <time>2022-05-28T07:33:17.839Z</time>
      </trkpt>
      <trkpt lat="46.94851" lon="-0.89693">
        <ele>162</ele>
        <time>2022-05-28T07:33:18.819Z</time>
      </trkpt>
      <trkpt lat="46.94893" lon="-0.89653">
        <ele>161</ele>
        <time>2022-05-28T07:33:25.160Z</time>
      </trkpt>
      <trkpt lat="46.9493" lon="-0.89613">
        <ele>159</ele>
        <time>2022-05-28T07:33:30.017Z</time>
      </trkpt>
      <trkpt lat="46.94977" lon="-0.89578">
        <ele>158</ele>
        <time>2022-05-28T07:33:36.706Z</time>
      </trkpt>
      <trkpt lat="46.95017" lon="-0.89563">
        <ele>157.3</ele>
        <time>2022-05-28T07:33:42.121Z</time>
      </trkpt>
      <trkpt lat="46.95056" lon="-0.89558">
        <ele>155</ele>
        <time>2022-05-28T07:33:45.841Z</time>
      </trkpt>
      <trkpt lat="46.95095" lon="-0.89568">
        <ele>155.6</ele>
        <time>2022-05-28T07:33:52.862Z</time>
      </trkpt>
      <trkpt lat="46.95136" lon="-0.89587">
        <ele>153.1</ele>
        <time>2022-05-28T07:33:56.956Z</time>
      </trkpt>
      <trkpt lat="46.95194" lon="-0.89627">
        <ele>148.4</ele>
        <time>2022-05-28T07:34:02.783Z</time>
      </trkpt>
      <trkpt lat="46.95243" lon="-0.89654">
        <ele>146.9</ele>
        <time>2022-05-28T07:34:08.864Z</time>
      </trkpt>
      <trkpt lat="46.95268" lon="-0.89673">
        <ele>145</ele>
        <time>2022-05-28T07:34:11.405Z</time>
      </trkpt>
      <trkpt lat="46.9531" lon="-0.89696">
        <ele>143.2</ele>
        <time>2022-05-28T07:34:16.290Z</time>
      </trkpt>
      <trkpt lat="46.9537" lon="-0.89728">
        <ele>142</ele>
        <time>2022-05-28T07:34:24.447Z</time>
      </trkpt>
      <trkpt lat="46.95411" lon="-0.8975">
        <ele>141.8</ele>
        <time>2022-05-28T07:34:30.826Z</time>
      </trkpt>
      <trkpt lat="46.95461" lon="-0.89777">
        <ele>142.4</ele>
        <time>2022-05-28T07:34:39.796Z</time>
      </trkpt>
      <trkpt lat="46.95504" lon="-0.89796">
        <ele>142.8</ele>
        <time>2022-05-28T07:34:47.245Z</time>
      </trkpt>
      <trkpt lat="46.95546" lon="-0.89806">
        <ele>141.3</ele>
        <time>2022-05-28T07:34:51.925Z</time>
      </trkpt>
      <trkpt lat="46.95578" lon="-0.89804">
        <ele>140.5</ele>
        <time>2022-05-28T07:34:55.956Z</time>
      </trkpt>
      <trkpt lat="46.95606" lon="-0.89804">
        <ele>139.4</ele>
        <time>2022-05-28T07:34:58.877Z</time>
      </trkpt>
      <trkpt lat="46.95625" lon="-0.89796">
        <ele>138.5</ele>
        <time>2022-05-28T07:35:01.039Z</time>
      </trkpt>
      <trkpt lat="46.95656" lon="-0.89775">
        <ele>137.6</ele>
        <time>2022-05-28T07:35:05.082Z</time>
      </trkpt>
      <trkpt lat="46.95692" lon="-0.89731">
        <ele>137</ele>
        <time>2022-05-28T07:35:11.426Z</time>
      </trkpt>
      <trkpt lat="46.95741" lon="-0.89676">
        <ele>135.3</ele>
        <time>2022-05-28T07:35:18.763Z</time>
      </trkpt>
      <trkpt lat="46.95789" lon="-0.89621">
        <ele>133.7</ele>
        <time>2022-05-28T07:35:26.052Z</time>
      </trkpt>
      <trkpt lat="46.9581" lon="-0.89598">
        <ele>133.1</ele>
        <time>2022-05-28T07:35:29.363Z</time>
      </trkpt>
      <trkpt lat="46.95814" lon="-0.89583">
        <ele>133</ele>
        <time>2022-05-28T07:35:30.843Z</time>
      </trkpt>
      <trkpt lat="46.95811" lon="-0.89572">
        <ele>132.9</ele>
        <time>2022-05-28T07:35:32.008Z</time>
      </trkpt>
      <trkpt lat="46.95793" lon="-0.89563">
        <ele>133.9</ele>
        <time>2022-05-28T07:35:37.163Z</time>
      </trkpt>
      <trkpt lat="46.95781" lon="-0.89548">
        <ele>134.8</ele>
        <time>2022-05-28T07:35:41.752Z</time>
      </trkpt>
      <trkpt lat="46.95777" lon="-0.89537">
        <ele>135.1</ele>
        <time>2022-05-28T07:35:43.605Z</time>
      </trkpt>
      <trkpt lat="46.95798" lon="-0.89477">
        <ele>133.5</ele>
        <time>2022-05-28T07:35:48.829Z</time>
      </trkpt>
      <trkpt lat="46.95822" lon="-0.89394">
        <ele>130</ele>
        <time>2022-05-28T07:35:54.702Z</time>
      </trkpt>
      <trkpt lat="46.95843" lon="-0.89296">
        <ele>125.7</ele>
        <time>2022-05-28T07:36:01.274Z</time>
      </trkpt>
      <trkpt lat="46.95861" lon="-0.89268">
        <ele>125</ele>
        <time>2022-05-28T07:36:04.492Z</time>
      </trkpt>
      <trkpt lat="46.95874" lon="-0.8921">
        <ele>123.3</ele>
        <time>2022-05-28T07:36:08.968Z</time>
      </trkpt>
      <trkpt lat="46.95881" lon="-0.89167">
        <ele>122</ele>
        <time>2022-05-28T07:36:12.108Z</time>
      </trkpt>
      <trkpt lat="46.95889" lon="-0.89136">
        <ele>120.9</ele>
        <time>2022-05-28T07:36:14.411Z</time>
      </trkpt>
      <trkpt lat="46.95901" lon="-0.89117">
        <ele>120.2</ele>
        <time>2022-05-28T07:36:16.372Z</time>
      </trkpt>
      <trkpt lat="46.95924" lon="-0.89097">
        <ele>119.6</ele>
        <time>2022-05-28T07:36:19.713Z</time>
      </trkpt>
      <trkpt lat="46.95942" lon="-0.89083">
        <ele>119.9</ele>
        <time>2022-05-28T07:36:23.214Z</time>
      </trkpt>
      <trkpt lat="46.95956" lon="-0.89061">
        <ele>119.1</ele>
        <time>2022-05-28T07:36:25.506Z</time>
      </trkpt>
      <trkpt lat="46.95968" lon="-0.89044">
        <ele>118.6</ele>
        <time>2022-05-28T07:36:27.473Z</time>
      </trkpt>
      <trkpt lat="46.95986" lon="-0.89009">
        <ele>117.3</ele>
        <time>2022-05-28T07:36:30.592Z</time>
      </trkpt>
      <trkpt lat="46.96" lon="-0.88976">
        <ele>116.1</ele>
        <time>2022-05-28T07:36:33.365Z</time>
      </trkpt>
      <trkpt lat="46.96016" lon="-0.88926">
        <ele>114.1</ele>
        <time>2022-05-28T07:36:37.072Z</time>
      </trkpt>
      <trkpt lat="46.96018" lon="-0.88896">
        <ele>114.5</ele>
        <time>2022-05-28T07:36:40.904Z</time>
      </trkpt>
      <trkpt lat="46.96027" lon="-0.88866">
        <ele>114.9</ele>
        <time>2022-05-28T07:36:44.905Z</time>
      </trkpt>
      <trkpt lat="46.96034" lon="-0.88819">
        <ele>110</ele>
        <time>2022-05-28T07:36:47.927Z</time>
      </trkpt>
      <trkpt lat="46.9604" lon="-0.88776">
        <ele>111.6</ele>
        <time>2022-05-28T07:36:56.148Z</time>
      </trkpt>
      <trkpt lat="46.96042" lon="-0.88746">
        <ele>111.7</ele>
        <time>2022-05-28T07:36:59.376Z</time>
      </trkpt>
      <trkpt lat="46.96038" lon="-0.8872">
        <ele>112.9</ele>
        <time>2022-05-28T07:37:05.311Z</time>
      </trkpt>
      <trkpt lat="46.96021" lon="-0.88719">
        <ele>112.6</ele>
        <time>2022-05-28T07:37:07.519Z</time>
      </trkpt>
      <trkpt lat="46.95989" lon="-0.88719">
        <ele>111.9</ele>
        <time>2022-05-28T07:37:11.445Z</time>
      </trkpt>
      <trkpt lat="46.95954" lon="-0.8872">
        <ele>112.6</ele>
        <time>2022-05-28T07:37:17.959Z</time>
      </trkpt>
      <trkpt lat="46.95923" lon="-0.88717">
        <ele>112.1</ele>
        <time>2022-05-28T07:37:22.109Z</time>
      </trkpt>
      <trkpt lat="46.95899" lon="-0.88719">
        <ele>112.5</ele>
        <time>2022-05-28T07:37:26.304Z</time>
      </trkpt>
      <trkpt lat="46.95887" lon="-0.88715">
        <ele>112</ele>
        <time>2022-05-28T07:37:27.662Z</time>
      </trkpt>
      <trkpt lat="46.95882" lon="-0.8871">
        <ele>112</ele>
        <time>2022-05-28T07:37:28.578Z</time>
      </trkpt>
      <trkpt lat="46.9582" lon="-0.88603">
        <ele>111</ele>
        <time>2022-05-28T07:37:41.739Z</time>
      </trkpt>
      <trkpt lat="46.95807" lon="-0.8857">
        <ele>111</ele>
        <time>2022-05-28T07:37:45.671Z</time>
      </trkpt>
      <trkpt lat="46.95795" lon="-0.88509">
        <ele>111</ele>
        <time>2022-05-28T07:37:52.224Z</time>
      </trkpt>
      <trkpt lat="46.9579" lon="-0.88455">
        <ele>111</ele>
        <time>2022-05-28T07:37:57.848Z</time>
      </trkpt>
      <trkpt lat="46.95774" lon="-0.88166">
        <ele>116</ele>
        <time>2022-05-28T07:38:36.686Z</time>
      </trkpt>
      <trkpt lat="46.9577" lon="-0.88141">
        <ele>117</ele>
        <time>2022-05-28T07:38:41.751Z</time>
      </trkpt>
      <trkpt lat="46.95759" lon="-0.88115">
        <ele>118</ele>
        <time>2022-05-28T07:38:47.114Z</time>
      </trkpt>
      <trkpt lat="46.95702" lon="-0.88003">
        <ele>123</ele>
        <time>2022-05-28T07:39:13.065Z</time>
      </trkpt>
      <trkpt lat="46.95685" lon="-0.8798">
        <ele>124</ele>
        <time>2022-05-28T07:39:18.671Z</time>
      </trkpt>
      <trkpt lat="46.95639" lon="-0.87933">
        <ele>126</ele>
        <time>2022-05-28T07:39:31.074Z</time>
      </trkpt>
      <trkpt lat="46.95616" lon="-0.87904">
        <ele>128</ele>
        <time>2022-05-28T07:39:40.940Z</time>
      </trkpt>
      <trkpt lat="46.95588" lon="-0.87858">
        <ele>129</ele>
        <time>2022-05-28T07:39:49.060Z</time>
      </trkpt>
      <trkpt lat="46.95579" lon="-0.8783">
        <ele>129</ele>
        <time>2022-05-28T07:39:52.255Z</time>
      </trkpt>
      <trkpt lat="46.95566" lon="-0.87764">
        <ele>129</ele>
        <time>2022-05-28T07:39:59.345Z</time>
      </trkpt>
      <trkpt lat="46.95555" lon="-0.87735">
        <ele>130</ele>
        <time>2022-05-28T07:40:04.896Z</time>
      </trkpt>
      <trkpt lat="46.95529" lon="-0.87696">
        <ele>132</ele>
        <time>2022-05-28T07:40:15.196Z</time>
      </trkpt>
      <trkpt lat="46.95516" lon="-0.87669">
        <ele>132</ele>
        <time>2022-05-28T07:40:18.606Z</time>
      </trkpt>
      <trkpt lat="46.95497" lon="-0.87611">
        <ele>132</ele>
        <time>2022-05-28T07:40:25.247Z</time>
      </trkpt>
      <trkpt lat="46.95481" lon="-0.87527">
        <ele>135</ele>
        <time>2022-05-28T07:40:41.029Z</time>
      </trkpt>
      <trkpt lat="46.95469" lon="-0.87499">
        <ele>135</ele>
        <time>2022-05-28T07:40:44.442Z</time>
      </trkpt>
      <trkpt lat="46.95449" lon="-0.87468">
        <ele>136</ele>
        <time>2022-05-28T07:40:50.782Z</time>
      </trkpt>
      <trkpt lat="46.95341" lon="-0.8732">
        <ele>142</ele>
        <time>2022-05-28T07:41:25.472Z</time>
      </trkpt>
      <trkpt lat="46.95317" lon="-0.8728">
        <ele>144</ele>
        <time>2022-05-28T07:41:35.701Z</time>
      </trkpt>
      <trkpt lat="46.95308" lon="-0.87254">
        <ele>146</ele>
        <time>2022-05-28T07:41:45.923Z</time>
      </trkpt>
      <trkpt lat="46.95297" lon="-0.87198">
        <ele>146</ele>
        <time>2022-05-28T07:41:51.938Z</time>
      </trkpt>
      <trkpt lat="46.95251" lon="-0.86911">
        <ele>147</ele>
        <time>2022-05-28T07:42:23.865Z</time>
      </trkpt>
      <trkpt lat="46.95247" lon="-0.8685">
        <ele>149</ele>
        <time>2022-05-28T07:42:34.598Z</time>
      </trkpt>
      <trkpt lat="46.95248" lon="-0.868">
        <ele>152</ele>
        <time>2022-05-28T07:42:49.544Z</time>
      </trkpt>
      <trkpt lat="46.95251" lon="-0.86775">
        <ele>154</ele>
        <time>2022-05-28T07:42:59.897Z</time>
      </trkpt>
      <trkpt lat="46.95262" lon="-0.86722">
        <ele>156</ele>
        <time>2022-05-28T07:43:10.249Z</time>
      </trkpt>
      <trkpt lat="46.95307" lon="-0.86561">
        <ele>159</ele>
        <time>2022-05-28T07:43:33.554Z</time>
      </trkpt>
      <trkpt lat="46.95317" lon="-0.86537">
        <ele>159</ele>
        <time>2022-05-28T07:43:36.456Z</time>
      </trkpt>
      <trkpt lat="46.95329" lon="-0.8652">
        <ele>159</ele>
        <time>2022-05-28T07:43:38.980Z</time>
      </trkpt>
      <trkpt lat="46.9528" lon="-0.86425">
        <ele>162</ele>
        <time>2022-05-28T07:43:57.224Z</time>
      </trkpt>
      <trkpt lat="46.95295" lon="-0.86406">
        <ele>161</ele>
        <time>2022-05-28T07:43:59.220Z</time>
      </trkpt>
      <trkpt lat="46.953" lon="-0.86386">
        <ele>161</ele>
        <time>2022-05-28T07:44:01.418Z</time>
      </trkpt>
      <trkpt lat="46.95291" lon="-0.86282">
        <ele>161</ele>
        <time>2022-05-28T07:44:12.239Z</time>
      </trkpt>
      <trkpt lat="46.95294" lon="-0.8625">
        <ele>161</ele>
        <time>2022-05-28T07:44:15.573Z</time>
      </trkpt>
      <trkpt lat="46.9533" lon="-0.86157">
        <ele>161</ele>
        <time>2022-05-28T07:44:26.609Z</time>
      </trkpt>
      <trkpt lat="46.95352" lon="-0.86118">
        <ele>159</ele>
        <time>2022-05-28T07:44:29.918Z</time>
      </trkpt>
      <trkpt lat="46.95381" lon="-0.86083">
        <ele>154</ele>
        <time>2022-05-28T07:44:33.327Z</time>
      </trkpt>
      <trkpt lat="46.95396" lon="-0.8607">
        <ele>152</ele>
        <time>2022-05-28T07:44:34.909Z</time>
      </trkpt>
      <trkpt lat="46.95403" lon="-0.86068">
        <ele>150</ele>
        <time>2022-05-28T07:44:35.556Z</time>
      </trkpt>
      <trkpt lat="46.95419" lon="-0.86036">
        <ele>148</ele>
        <time>2022-05-28T07:44:38.012Z</time>
      </trkpt>
      <trkpt lat="46.95427" lon="-0.85999">
        <ele>147</ele>
        <time>2022-05-28T07:44:40.929Z</time>
      </trkpt>
      <trkpt lat="46.95422" lon="-0.85958">
        <ele>146</ele>
        <time>2022-05-28T07:44:44.119Z</time>
      </trkpt>
      <trkpt lat="46.95401" lon="-0.8587">
        <ele>146</ele>
        <time>2022-05-28T07:44:53.742Z</time>
      </trkpt>
      <trkpt lat="46.9539" lon="-0.85776">
        <ele>145</ele>
        <time>2022-05-28T07:45:02.309Z</time>
      </trkpt>
      <trkpt lat="46.95383" lon="-0.85737">
        <ele>145</ele>
        <time>2022-05-28T07:45:06.471Z</time>
      </trkpt>
      <trkpt lat="46.95375" lon="-0.85706">
        <ele>145</ele>
        <time>2022-05-28T07:45:09.892Z</time>
      </trkpt>
      <trkpt lat="46.95353" lon="-0.85654">
        <ele>145</ele>
        <time>2022-05-28T07:45:16.207Z</time>
      </trkpt>
      <trkpt lat="46.95346" lon="-0.85632">
        <ele>146</ele>
        <time>2022-05-28T07:45:21.208Z</time>
      </trkpt>
      <trkpt lat="46.95345" lon="-0.85616">
        <ele>146</ele>
        <time>2022-05-28T07:45:22.867Z</time>
      </trkpt>
      <trkpt lat="46.95349" lon="-0.85594">
        <ele>146</ele>
        <time>2022-05-28T07:45:25.217Z</time>
      </trkpt>
      <trkpt lat="46.95359" lon="-0.85566">
        <ele>146</ele>
        <time>2022-05-28T07:45:28.478Z</time>
      </trkpt>
      <trkpt lat="46.95388" lon="-0.85534">
        <ele>145</ele>
        <time>2022-05-28T07:45:32.800Z</time>
      </trkpt>
      <trkpt lat="46.95396" lon="-0.85522">
        <ele>145</ele>
        <time>2022-05-28T07:45:34.531Z</time>
      </trkpt>
      <trkpt lat="46.95415" lon="-0.85473">
        <ele>146</ele>
        <time>2022-05-28T07:45:42.142Z</time>
      </trkpt>
      <trkpt lat="46.95448" lon="-0.85372">
        <ele>148</ele>
        <time>2022-05-28T07:45:57.294Z</time>
      </trkpt>
      <trkpt lat="46.95456" lon="-0.85311">
        <ele>148</ele>
        <time>2022-05-28T07:46:03.705Z</time>
      </trkpt>
      <trkpt lat="46.95454" lon="-0.85235">
        <ele>147</ele>
        <time>2022-05-28T07:46:10.315Z</time>
      </trkpt>
      <trkpt lat="46.95456" lon="-0.85227">
        <ele>147</ele>
        <time>2022-05-28T07:46:11.194Z</time>
      </trkpt>
      <trkpt lat="46.95461" lon="-0.85222">
        <ele>146</ele>
        <time>2022-05-28T07:46:11.743Z</time>
      </trkpt>
      <trkpt lat="46.95388" lon="-0.85059">
        <ele>148</ele>
        <time>2022-05-28T07:46:35.124Z</time>
      </trkpt>
      <trkpt lat="46.95364" lon="-0.85012">
        <ele>147</ele>
        <time>2022-05-28T07:46:39.992Z</time>
      </trkpt>
      <trkpt lat="46.95342" lon="-0.84982">
        <ele>147</ele>
        <time>2022-05-28T07:46:44.537Z</time>
      </trkpt>
      <trkpt lat="46.9524" lon="-0.84859">
        <ele>147</ele>
        <time>2022-05-28T07:47:04.515Z</time>
      </trkpt>
      <trkpt lat="46.95205" lon="-0.84828">
        <ele>148</ele>
        <time>2022-05-28T07:47:12.469Z</time>
      </trkpt>
      <trkpt lat="46.95192" lon="-0.84809">
        <ele>148</ele>
        <time>2022-05-28T07:47:15.245Z</time>
      </trkpt>
      <trkpt lat="46.95183" lon="-0.84773">
        <ele>148</ele>
        <time>2022-05-28T07:47:19.203Z</time>
      </trkpt>
      <trkpt lat="46.95178" lon="-0.84673">
        <ele>146</ele>
        <time>2022-05-28T07:47:27.242Z</time>
      </trkpt>
      <trkpt lat="46.95167" lon="-0.84633">
        <ele>147</ele>
        <time>2022-05-28T07:47:33.624Z</time>
      </trkpt>
      <trkpt lat="46.95146" lon="-0.84574">
        <ele>149</ele>
        <time>2022-05-28T07:47:44.741Z</time>
      </trkpt>
      <trkpt lat="46.95122" lon="-0.8446">
        <ele>151</ele>
        <time>2022-05-28T07:48:00.598Z</time>
      </trkpt>
      <trkpt lat="46.95078" lon="-0.84306">
        <ele>154</ele>
        <time>2022-05-28T07:48:23.229Z</time>
      </trkpt>
      <trkpt lat="46.95063" lon="-0.84269">
        <ele>154</ele>
        <time>2022-05-28T07:48:27.671Z</time>
      </trkpt>
      <trkpt lat="46.95051" lon="-0.84248">
        <ele>154</ele>
        <time>2022-05-28T07:48:30.498Z</time>
      </trkpt>
      <trkpt lat="46.94999" lon="-0.84175">
        <ele>157</ele>
        <time>2022-05-28T07:48:47.617Z</time>
      </trkpt>
      <trkpt lat="46.94971" lon="-0.84125">
        <ele>159</ele>
        <time>2022-05-28T07:48:58.594Z</time>
      </trkpt>
      <trkpt lat="46.94948" lon="-0.84074">
        <ele>160</ele>
        <time>2022-05-28T07:49:06.665Z</time>
      </trkpt>
      <trkpt lat="46.94907" lon="-0.83961">
        <ele>160</ele>
        <time>2022-05-28T07:49:19.875Z</time>
      </trkpt>
      <trkpt lat="46.9489" lon="-0.83871">
        <ele>159</ele>
        <time>2022-05-28T07:49:28.241Z</time>
      </trkpt>
      <trkpt lat="46.94878" lon="-0.83841">
        <ele>161</ele>
        <time>2022-05-28T07:49:38.143Z</time>
      </trkpt>
      <trkpt lat="46.94865" lon="-0.83821">
        <ele>163</ele>
        <time>2022-05-28T07:49:48.455Z</time>
      </trkpt>
      <trkpt lat="46.94849" lon="-0.83812">
        <ele>166</ele>
        <time>2022-05-28T07:49:59.563Z</time>
      </trkpt>
      <trkpt lat="46.94843" lon="-0.83806">
        <ele>167</ele>
        <time>2022-05-28T07:50:04.271Z</time>
      </trkpt>
      <trkpt lat="46.94826" lon="-0.83778">
        <ele>168</ele>
        <time>2022-05-28T07:50:10.165Z</time>
      </trkpt>
      <trkpt lat="46.94814" lon="-0.8375">
        <ele>167</ele>
        <time>2022-05-28T07:50:12.535Z</time>
      </trkpt>
      <trkpt lat="46.94804" lon="-0.83712">
        <ele>167</ele>
        <time>2022-05-28T07:50:16.739Z</time>
      </trkpt>
      <trkpt lat="46.9479" lon="-0.83685">
        <ele>166</ele>
        <time>2022-05-28T07:50:19.188Z</time>
      </trkpt>
      <trkpt lat="46.94775" lon="-0.83669">
        <ele>166</ele>
        <time>2022-05-28T07:50:21.994Z</time>
      </trkpt>
      <trkpt lat="46.94762" lon="-0.83665">
        <ele>166</ele>
        <time>2022-05-28T07:50:24.003Z</time>
      </trkpt>
      <trkpt lat="46.94757" lon="-0.83666">
        <ele>166</ele>
        <time>2022-05-28T07:50:24.766Z</time>
      </trkpt>
      <trkpt lat="46.94758" lon="-0.83657">
        <ele>165</ele>
        <time>2022-05-28T07:50:25.331Z</time>
      </trkpt>
      <trkpt lat="46.94769" lon="-0.83627">
        <ele>163</ele>
        <time>2022-05-28T07:50:27.440Z</time>
      </trkpt>
      <trkpt lat="46.94779" lon="-0.83583">
        <ele>160</ele>
        <time>2022-05-28T07:50:30.312Z</time>
      </trkpt>
      <trkpt lat="46.94796" lon="-0.83552">
        <ele>156</ele>
        <time>2022-05-28T07:50:32.775Z</time>
      </trkpt>
      <trkpt lat="46.94983" lon="-0.83585">
        <ele>138</ele>
        <time>2022-05-28T07:50:49.865Z</time>
      </trkpt>
      <trkpt lat="46.94992" lon="-0.83521">
        <ele>135</ele>
        <time>2022-05-28T07:50:53.912Z</time>
      </trkpt>
      <trkpt lat="46.9497" lon="-0.83464">
        <ele>135</ele>
        <time>2022-05-28T07:51:00.671Z</time>
      </trkpt>
      <trkpt lat="46.9487" lon="-0.83422">
        <ele>138</ele>
        <time>2022-05-28T07:51:21.925Z</time>
      </trkpt>
      <trkpt lat="46.94791" lon="-0.83395">
        <ele>143</ele>
        <time>2022-05-28T07:51:46.832Z</time>
      </trkpt>
      <trkpt lat="46.94787" lon="-0.83372">
        <ele>144</ele>
        <time>2022-05-28T07:51:51.812Z</time>
      </trkpt>
      <trkpt lat="46.9479" lon="-0.83337">
        <ele>144</ele>
        <time>2022-05-28T07:51:55.454Z</time>
      </trkpt>
      <trkpt lat="46.94804" lon="-0.83255">
        <ele>143</ele>
        <time>2022-05-28T07:52:02.921Z</time>
      </trkpt>
      <trkpt lat="46.94802" lon="-0.83211">
        <ele>142</ele>
        <time>2022-05-28T07:52:06.349Z</time>
      </trkpt>
      <trkpt lat="46.94798" lon="-0.83182">
        <ele>141</ele>
        <time>2022-05-28T07:52:08.395Z</time>
      </trkpt>
      <trkpt lat="46.94746" lon="-0.83013">
        <ele>144</ele>
        <time>2022-05-28T07:52:32.804Z</time>
      </trkpt>
      <trkpt lat="46.94724" lon="-0.82933">
        <ele>145</ele>
        <time>2022-05-28T07:52:43.364Z</time>
      </trkpt>
      <trkpt lat="46.94719" lon="-0.82894">
        <ele>144</ele>
        <time>2022-05-28T07:52:46.365Z</time>
      </trkpt>
      <trkpt lat="46.94717" lon="-0.82837">
        <ele>140</ele>
        <time>2022-05-28T07:52:49.900Z</time>
      </trkpt>
      <trkpt lat="46.94723" lon="-0.82735">
        <ele>137</ele>
        <time>2022-05-28T07:52:57.311Z</time>
      </trkpt>
      <trkpt lat="46.94752" lon="-0.8254">
        <ele>133</ele>
        <time>2022-05-28T07:53:13.297Z</time>
      </trkpt>
      <trkpt lat="46.94756" lon="-0.82501">
        <ele>132</ele>
        <time>2022-05-28T07:53:16.274Z</time>
      </trkpt>
      <trkpt lat="46.94756" lon="-0.82458">
        <ele>132</ele>
        <time>2022-05-28T07:53:20.713Z</time>
      </trkpt>
      <trkpt lat="46.94754" lon="-0.82424">
        <ele>132</ele>
        <time>2022-05-28T07:53:24.236Z</time>
      </trkpt>
      <trkpt lat="46.94717" lon="-0.82242">
        <ele>130</ele>
        <time>2022-05-28T07:53:41.287Z</time>
      </trkpt>
      <trkpt lat="46.94697" lon="-0.81937">
        <ele>131</ele>
        <time>2022-05-28T07:54:14.413Z</time>
      </trkpt>
      <trkpt lat="46.9469" lon="-0.81751">
        <ele>137</ele>
        <time>2022-05-28T07:54:46.784Z</time>
      </trkpt>
      <trkpt lat="46.94686" lon="-0.81712">
        <ele>138</ele>
        <time>2022-05-28T07:54:52.844Z</time>
      </trkpt>
      <trkpt lat="46.9467" lon="-0.81643">
        <ele>138</ele>
        <time>2022-05-28T07:55:00.367Z</time>
      </trkpt>
      <trkpt lat="46.94669" lon="-0.81623">
        <ele>138</ele>
        <time>2022-05-28T07:55:02.437Z</time>
      </trkpt>
      <trkpt lat="46.94678" lon="-0.81582">
        <ele>138</ele>
        <time>2022-05-28T07:55:06.883Z</time>
      </trkpt>
      <trkpt lat="46.94733" lon="-0.81472">
        <ele>137</ele>
        <time>2022-05-28T07:55:19.636Z</time>
      </trkpt>
      <trkpt lat="46.9475" lon="-0.81448">
        <ele>137</ele>
        <time>2022-05-28T07:55:23.206Z</time>
      </trkpt>
      <trkpt lat="46.94787" lon="-0.81409">
        <ele>136</ele>
        <time>2022-05-28T07:55:28.883Z</time>
      </trkpt>
      <trkpt lat="46.94834" lon="-0.81349">
        <ele>134</ele>
        <time>2022-05-28T07:55:36.045Z</time>
      </trkpt>
      <trkpt lat="46.94843" lon="-0.81324">
        <ele>133</ele>
        <time>2022-05-28T07:55:37.969Z</time>
      </trkpt>
      <trkpt lat="46.94848" lon="-0.8126">
        <ele>131</ele>
        <time>2022-05-28T07:55:42.549Z</time>
      </trkpt>
      <trkpt lat="46.94855" lon="-0.81224">
        <ele>131</ele>
        <time>2022-05-28T07:55:46.413Z</time>
      </trkpt>
      <trkpt lat="46.94863" lon="-0.81199">
        <ele>130</ele>
        <time>2022-05-28T07:55:48.277Z</time>
      </trkpt>
      <trkpt lat="46.94893" lon="-0.81128">
        <ele>128</ele>
        <time>2022-05-28T07:55:54.678Z</time>
      </trkpt>
      <trkpt lat="46.94908" lon="-0.81055">
        <ele>126</ele>
        <time>2022-05-28T07:56:00.379Z</time>
      </trkpt>
      <trkpt lat="46.94911" lon="-0.81022">
        <ele>125</ele>
        <time>2022-05-28T07:56:02.770Z</time>
      </trkpt>
      <trkpt lat="46.9491" lon="-0.80971">
        <ele>126</ele>
        <time>2022-05-28T07:56:09.876Z</time>
      </trkpt>
      <trkpt lat="46.94903" lon="-0.80935">
        <ele>126</ele>
        <time>2022-05-28T07:56:13.740Z</time>
      </trkpt>
      <trkpt lat="46.94896" lon="-0.80907">
        <ele>127</ele>
        <time>2022-05-28T07:56:19.050Z</time>
      </trkpt>
      <trkpt lat="46.94855" lon="-0.80794">
        <ele>130</ele>
        <time>2022-05-28T07:56:38.072Z</time>
      </trkpt>
      <trkpt lat="46.9485" lon="-0.8077">
        <ele>131</ele>
        <time>2022-05-28T07:56:43.109Z</time>
      </trkpt>
      <trkpt lat="46.9483" lon="-0.80597">
        <ele>142</ele>
        <time>2022-05-28T07:57:38.347Z</time>
      </trkpt>
      <trkpt lat="46.94826" lon="-0.80537">
        <ele>146</ele>
        <time>2022-05-28T07:57:58.658Z</time>
      </trkpt>
      <trkpt lat="46.94835" lon="-0.80501">
        <ele>150</ele>
        <time>2022-05-28T07:58:15.620Z</time>
      </trkpt>
      <trkpt lat="46.94853" lon="-0.80479">
        <ele>151</ele>
        <time>2022-05-28T07:58:21.261Z</time>
      </trkpt>
      <trkpt lat="46.94893" lon="-0.80444">
        <ele>151</ele>
        <time>2022-05-28T07:58:28.306Z</time>
      </trkpt>
      <trkpt lat="46.94914" lon="-0.80411">
        <ele>151</ele>
        <time>2022-05-28T07:58:32.963Z</time>
      </trkpt>
      <trkpt lat="46.94923" lon="-0.80364">
        <ele>149</ele>
        <time>2022-05-28T07:58:36.114Z</time>
      </trkpt>
      <trkpt lat="46.94928" lon="-0.80355">
        <ele>149</ele>
        <time>2022-05-28T07:58:37.312Z</time>
      </trkpt>
      <trkpt lat="46.94974" lon="-0.80312">
        <ele>145</ele>
        <time>2022-05-28T07:58:42.263Z</time>
      </trkpt>
      <trkpt lat="46.94988" lon="-0.80294">
        <ele>144</ele>
        <time>2022-05-28T07:58:44.098Z</time>
      </trkpt>
      <trkpt lat="46.95003" lon="-0.80261">
        <ele>144</ele>
        <time>2022-05-28T07:58:48.190Z</time>
      </trkpt>
      <trkpt lat="46.9503" lon="-0.80121">
        <ele>146</ele>
        <time>2022-05-28T07:59:06.613Z</time>
      </trkpt>
      <trkpt lat="46.95045" lon="-0.80083">
        <ele>146</ele>
        <time>2022-05-28T07:59:11.145Z</time>
      </trkpt>
      <trkpt lat="46.95133" lon="-0.79984">
        <ele>150</ele>
        <time>2022-05-28T07:59:35.796Z</time>
      </trkpt>
      <trkpt lat="46.95222" lon="-0.79873">
        <ele>156</ele>
        <time>2022-05-28T08:00:07.159Z</time>
      </trkpt>
      <trkpt lat="46.95236" lon="-0.79853">
        <ele>157</ele>
        <time>2022-05-28T08:00:12.393Z</time>
      </trkpt>
      <trkpt lat="46.9525" lon="-0.79827">
        <ele>158</ele>
        <time>2022-05-28T08:00:17.940Z</time>
      </trkpt>
      <trkpt lat="46.95269" lon="-0.79757">
        <ele>156</ele>
        <time>2022-05-28T08:00:23.553Z</time>
      </trkpt>
      <trkpt lat="46.95279" lon="-0.79673">
        <ele>151</ele>
        <time>2022-05-28T08:00:28.834Z</time>
      </trkpt>
      <trkpt lat="46.95295" lon="-0.79573">
        <ele>148</ele>
        <time>2022-05-28T08:00:36.275Z</time>
      </trkpt>
      <trkpt lat="46.95314" lon="-0.79501">
        <ele>146</ele>
        <time>2022-05-28T08:00:42.067Z</time>
      </trkpt>
      <trkpt lat="46.95282" lon="-0.79447">
        <ele>146</ele>
        <time>2022-05-28T08:00:49.449Z</time>
      </trkpt>
      <trkpt lat="46.95257" lon="-0.7941">
        <ele>147</ele>
        <time>2022-05-28T08:00:56.652Z</time>
      </trkpt>
      <trkpt lat="46.95244" lon="-0.79397">
        <ele>147</ele>
        <time>2022-05-28T08:00:59.032Z</time>
      </trkpt>
      <trkpt lat="46.95221" lon="-0.79381">
        <ele>148</ele>
        <time>2022-05-28T08:01:04.911Z</time>
      </trkpt>
      <trkpt lat="46.9519" lon="-0.79351">
        <ele>148</ele>
        <time>2022-05-28T08:01:10.530Z</time>
      </trkpt>
      <trkpt lat="46.95163" lon="-0.79316">
        <ele>148</ele>
        <time>2022-05-28T08:01:15.981Z</time>
      </trkpt>
      <trkpt lat="46.95145" lon="-0.79281">
        <ele>149</ele>
        <time>2022-05-28T08:01:22.426Z</time>
      </trkpt>
      <trkpt lat="46.95109" lon="-0.79182">
        <ele>148</ele>
        <time>2022-05-28T08:01:32.705Z</time>
      </trkpt>
      <trkpt lat="46.95084" lon="-0.7913">
        <ele>148</ele>
        <time>2022-05-28T08:01:39.271Z</time>
      </trkpt>
      <trkpt lat="46.95052" lon="-0.79074">
        <ele>147</ele>
        <time>2022-05-28T08:01:45.576Z</time>
      </trkpt>
      <trkpt lat="46.95023" lon="-0.79039">
        <ele>147</ele>
        <time>2022-05-28T08:01:51.258Z</time>
      </trkpt>
      <trkpt lat="46.94935" lon="-0.78956">
        <ele>148</ele>
        <time>2022-05-28T08:02:08.640Z</time>
      </trkpt>
      <trkpt lat="46.94893" lon="-0.78919">
        <ele>148</ele>
        <time>2022-05-28T08:02:16.051Z</time>
      </trkpt>
      <trkpt lat="46.94864" lon="-0.789">
        <ele>149</ele>
        <time>2022-05-28T08:02:22.741Z</time>
      </trkpt>
      <trkpt lat="46.94832" lon="-0.78884">
        <ele>150</ele>
        <time>2022-05-28T08:02:29.707Z</time>
      </trkpt>
      <trkpt lat="46.9477" lon="-0.78858">
        <ele>150</ele>
        <time>2022-05-28T08:02:39.460Z</time>
      </trkpt>
      <trkpt lat="46.9467" lon="-0.78822">
        <ele>149</ele>
        <time>2022-05-28T08:02:53.699Z</time>
      </trkpt>
      <trkpt lat="46.94629" lon="-0.78814">
        <ele>149</ele>
        <time>2022-05-28T08:02:59.953Z</time>
      </trkpt>
      <trkpt lat="46.94588" lon="-0.7881">
        <ele>150</ele>
        <time>2022-05-28T08:03:07.935Z</time>
      </trkpt>
      <trkpt lat="46.94564" lon="-0.78803">
        <ele>150</ele>
        <time>2022-05-28T08:03:11.635Z</time>
      </trkpt>
      <trkpt lat="46.94532" lon="-0.78787">
        <ele>150</ele>
        <time>2022-05-28T08:03:16.748Z</time>
      </trkpt>
      <trkpt lat="46.94515" lon="-0.78772">
        <ele>150</ele>
        <time>2022-05-28T08:03:19.749Z</time>
      </trkpt>
      <trkpt lat="46.94503" lon="-0.78751">
        <ele>150</ele>
        <time>2022-05-28T08:03:22.576Z</time>
      </trkpt>
      <trkpt lat="46.94496" lon="-0.78724">
        <ele>150</ele>
        <time>2022-05-28T08:03:25.558Z</time>
      </trkpt>
      <trkpt lat="46.9448" lon="-0.78587">
        <ele>149</ele>
        <time>2022-05-28T08:03:38.583Z</time>
      </trkpt>
      <trkpt lat="46.94475" lon="-0.78484">
        <ele>148</ele>
        <time>2022-05-28T08:03:47.955Z</time>
      </trkpt>
      <trkpt lat="46.9447" lon="-0.78449">
        <ele>147</ele>
        <time>2022-05-28T08:03:50.580Z</time>
      </trkpt>
      <trkpt lat="46.94419" lon="-0.78221">
        <ele>140</ele>
        <time>2022-05-28T08:04:07.972Z</time>
      </trkpt>
      <trkpt lat="46.94401" lon="-0.78167">
        <ele>139</ele>
        <time>2022-05-28T08:04:12.980Z</time>
      </trkpt>
      <trkpt lat="46.94374" lon="-0.78116">
        <ele>137</ele>
        <time>2022-05-28T08:04:17.572Z</time>
      </trkpt>
      <trkpt lat="46.94338" lon="-0.78071">
        <ele>135</ele>
        <time>2022-05-28T08:04:22.614Z</time>
      </trkpt>
      <trkpt lat="46.94308" lon="-0.78046">
        <ele>135</ele>
        <time>2022-05-28T08:04:27.833Z</time>
      </trkpt>
      <trkpt lat="46.9416" lon="-0.77953">
        <ele>139</ele>
        <time>2022-05-28T08:04:59.288Z</time>
      </trkpt>
      <trkpt lat="46.94109" lon="-0.77918">
        <ele>138</ele>
        <time>2022-05-28T08:05:06.551Z</time>
      </trkpt>
      <trkpt lat="46.94085" lon="-0.77891">
        <ele>137</ele>
        <time>2022-05-28T08:05:10.002Z</time>
      </trkpt>
      <trkpt lat="46.94071" lon="-0.77862">
        <ele>136</ele>
        <time>2022-05-28T08:05:12.604Z</time>
      </trkpt>
      <trkpt lat="46.94065" lon="-0.77843">
        <ele>135</ele>
        <time>2022-05-28T08:05:13.901Z</time>
      </trkpt>
      <trkpt lat="46.94062" lon="-0.7782">
        <ele>134</ele>
        <time>2022-05-28T08:05:15.389Z</time>
      </trkpt>
      <trkpt lat="46.94061" lon="-0.77794">
        <ele>134</ele>
        <time>2022-05-28T08:05:18.078Z</time>
      </trkpt>
      <trkpt lat="46.94063" lon="-0.77771">
        <ele>133</ele>
        <time>2022-05-28T08:05:19.545Z</time>
      </trkpt>
      <trkpt lat="46.94076" lon="-0.77688">
        <ele>136</ele>
        <time>2022-05-28T08:05:35.199Z</time>
      </trkpt>
      <trkpt lat="46.94077" lon="-0.77649">
        <ele>137</ele>
        <time>2022-05-28T08:05:41.224Z</time>
      </trkpt>
      <trkpt lat="46.94074" lon="-0.77615">
        <ele>138</ele>
        <time>2022-05-28T08:05:46.861Z</time>
      </trkpt>
      <trkpt lat="46.94068" lon="-0.77579">
        <ele>139</ele>
        <time>2022-05-28T08:05:52.722Z</time>
      </trkpt>
      <trkpt lat="46.94061" lon="-0.77558">
        <ele>140</ele>
        <time>2022-05-28T08:05:57.689Z</time>
      </trkpt>
      <trkpt lat="46.94048" lon="-0.77524">
        <ele>141</ele>
        <time>2022-05-28T08:06:03.709Z</time>
      </trkpt>
      <trkpt lat="46.94033" lon="-0.77497">
        <ele>143</ele>
        <time>2022-05-28T08:06:13.609Z</time>
      </trkpt>
      <trkpt lat="46.94003" lon="-0.77461">
        <ele>145</ele>
        <time>2022-05-28T08:06:24.047Z</time>
      </trkpt>
      <trkpt lat="46.93974" lon="-0.77438">
        <ele>145</ele>
        <time>2022-05-28T08:06:29.034Z</time>
      </trkpt>
      <trkpt lat="46.93691" lon="-0.77251">
        <ele>137</ele>
        <time>2022-05-28T08:07:06.513Z</time>
      </trkpt>
      <trkpt lat="46.93646" lon="-0.77215">
        <ele>139</ele>
        <time>2022-05-28T08:07:18.315Z</time>
      </trkpt>
      <trkpt lat="46.93618" lon="-0.77188">
        <ele>139</ele>
        <time>2022-05-28T08:07:23.384Z</time>
      </trkpt>
      <trkpt lat="46.93407" lon="-0.7693">
        <ele>140</ele>
        <time>2022-05-28T08:08:06.431Z</time>
      </trkpt>
      <trkpt lat="46.93379" lon="-0.7688">
        <ele>140</ele>
        <time>2022-05-28T08:08:13.108Z</time>
      </trkpt>
      <trkpt lat="46.93141" lon="-0.76285">
        <ele>140</ele>
        <time>2022-05-28T08:09:24.313Z</time>
      </trkpt>
      <trkpt lat="46.93114" lon="-0.76232">
        <ele>141</ele>
        <time>2022-05-28T08:09:32.875Z</time>
      </trkpt>
      <trkpt lat="46.931" lon="-0.76212">
        <ele>141</ele>
        <time>2022-05-28T08:09:35.832Z</time>
      </trkpt>
      <trkpt lat="46.93082" lon="-0.76192">
        <ele>141</ele>
        <time>2022-05-28T08:09:39.249Z</time>
      </trkpt>
      <trkpt lat="46.92958" lon="-0.76064">
        <ele>140</ele>
        <time>2022-05-28T08:10:00.825Z</time>
      </trkpt>
      <trkpt lat="46.92946" lon="-0.76049">
        <ele>140</ele>
        <time>2022-05-28T08:10:03.211Z</time>
      </trkpt>
      <trkpt lat="46.92923" lon="-0.7601">
        <ele>139</ele>
        <time>2022-05-28T08:10:07.371Z</time>
      </trkpt>
      <trkpt lat="46.92907" lon="-0.75966">
        <ele>140</ele>
        <time>2022-05-28T08:10:14.369Z</time>
      </trkpt>
      <trkpt lat="46.9288" lon="-0.75855">
        <ele>142</ele>
        <time>2022-05-28T08:10:30.088Z</time>
      </trkpt>
      <trkpt lat="46.92858" lon="-0.75809">
        <ele>143</ele>
        <time>2022-05-28T08:10:37.683Z</time>
      </trkpt>
      <trkpt lat="46.92841" lon="-0.75787">
        <ele>143</ele>
        <time>2022-05-28T08:10:41.114Z</time>
      </trkpt>
      <trkpt lat="46.92827" lon="-0.75776">
        <ele>144</ele>
        <time>2022-05-28T08:10:46.078Z</time>
      </trkpt>
      <trkpt lat="46.92882" lon="-0.75696">
        <ele>150</ele>
        <time>2022-05-28T08:11:15.542Z</time>
      </trkpt>
      <trkpt lat="46.92917" lon="-0.75608">
        <ele>158</ele>
        <time>2022-05-28T08:11:56.963Z</time>
      </trkpt>
      <trkpt lat="46.92961" lon="-0.7557">
        <ele>163</ele>
        <time>2022-05-28T08:12:22.387Z</time>
      </trkpt>
      <trkpt lat="46.9285" lon="-0.75473">
        <ele>158</ele>
        <time>2022-05-28T08:12:36.520Z</time>
      </trkpt>
      <trkpt lat="46.92684" lon="-0.75487">
        <ele>151</ele>
        <time>2022-05-28T08:12:54.255Z</time>
      </trkpt>
      <trkpt lat="46.92543" lon="-0.75508">
        <ele>149</ele>
        <time>2022-05-28T08:13:13.109Z</time>
      </trkpt>
      <trkpt lat="46.92521" lon="-0.75547">
        <ele>149</ele>
        <time>2022-05-28T08:13:18.333Z</time>
      </trkpt>
      <trkpt lat="46.92525" lon="-0.75616">
        <ele>146</ele>
        <time>2022-05-28T08:13:22.711Z</time>
      </trkpt>
      <trkpt lat="46.92476" lon="-0.75639">
        <ele>146</ele>
        <time>2022-05-28T08:13:30.492Z</time>
      </trkpt>
      <trkpt lat="46.92437" lon="-0.75672">
        <ele>145</ele>
        <time>2022-05-28T08:13:36.089Z</time>
      </trkpt>
      <trkpt lat="46.92345" lon="-0.75655">
        <ele>149</ele>
        <time>2022-05-28T08:13:58.534Z</time>
      </trkpt>
      <trkpt lat="46.92271" lon="-0.75592">
        <ele>149</ele>
        <time>2022-05-28T08:14:11.479Z</time>
      </trkpt>
      <trkpt lat="46.92239" lon="-0.75614">
        <ele>149</ele>
        <time>2022-05-28T08:14:16.825Z</time>
      </trkpt>
      <trkpt lat="46.92209" lon="-0.75628">
        <ele>150</ele>
        <time>2022-05-28T08:14:23.477Z</time>
      </trkpt>
      <trkpt lat="46.9217" lon="-0.75621">
        <ele>150</ele>
        <time>2022-05-28T08:14:29.419Z</time>
      </trkpt>
      <trkpt lat="46.92144" lon="-0.75625">
        <ele>150</ele>
        <time>2022-05-28T08:14:33.372Z</time>
      </trkpt>
      <trkpt lat="46.92131" lon="-0.7563">
        <ele>150</ele>
        <time>2022-05-28T08:14:35.405Z</time>
      </trkpt>
      <trkpt lat="46.92115" lon="-0.75639">
        <ele>150</ele>
        <time>2022-05-28T08:14:37.997Z</time>
      </trkpt>
      <trkpt lat="46.92086" lon="-0.75663">
        <ele>148</ele>
        <time>2022-05-28T08:14:41.146Z</time>
      </trkpt>
      <trkpt lat="46.92015" lon="-0.7573">
        <ele>152</ele>
        <time>2022-05-28T08:15:02.694Z</time>
      </trkpt>
      <trkpt lat="46.92" lon="-0.75737">
        <ele>151</ele>
        <time>2022-05-28T08:15:04.151Z</time>
      </trkpt>
      <trkpt lat="46.91885" lon="-0.75764">
        <ele>152</ele>
        <time>2022-05-28T08:15:23.306Z</time>
      </trkpt>
      <trkpt lat="46.91833" lon="-0.75765">
        <ele>150</ele>
        <time>2022-05-28T08:15:29.001Z</time>
      </trkpt>
      <trkpt lat="46.9182" lon="-0.75769">
        <ele>150</ele>
        <time>2022-05-28T08:15:31.010Z</time>
      </trkpt>
      <trkpt lat="46.91807" lon="-0.75778">
        <ele>150</ele>
        <time>2022-05-28T08:15:33.184Z</time>
      </trkpt>
      <trkpt lat="46.91801" lon="-0.75786">
        <ele>150</ele>
        <time>2022-05-28T08:15:34.411Z</time>
      </trkpt>
      <trkpt lat="46.91792" lon="-0.75808">
        <ele>151</ele>
        <time>2022-05-28T08:15:39.476Z</time>
      </trkpt>
      <trkpt lat="46.9178" lon="-0.75879">
        <ele>153</ele>
        <time>2022-05-28T08:15:51.118Z</time>
      </trkpt>
      <trkpt lat="46.91774" lon="-0.75902">
        <ele>153</ele>
        <time>2022-05-28T08:15:53.661Z</time>
      </trkpt>
      <trkpt lat="46.9174" lon="-0.75991">
        <ele>153</ele>
        <time>2022-05-28T08:16:04.194Z</time>
      </trkpt>
      <trkpt lat="46.91709" lon="-0.76054">
        <ele>152</ele>
        <time>2022-05-28T08:16:10.970Z</time>
      </trkpt>
      <trkpt lat="46.91632" lon="-0.76155">
        <ele>152</ele>
        <time>2022-05-28T08:16:26.604Z</time>
      </trkpt>
      <trkpt lat="46.916" lon="-0.76217">
        <ele>154</ele>
        <time>2022-05-28T08:16:38.628Z</time>
      </trkpt>
      <trkpt lat="46.91582" lon="-0.76263">
        <ele>155</ele>
        <time>2022-05-28T08:16:45.924Z</time>
      </trkpt>
      <trkpt lat="46.91556" lon="-0.76358">
        <ele>158</ele>
        <time>2022-05-28T08:17:02.800Z</time>
      </trkpt>
      <trkpt lat="46.91537" lon="-0.7644">
        <ele>161</ele>
        <time>2022-05-28T08:17:18.546Z</time>
      </trkpt>
      <trkpt lat="46.91522" lon="-0.7654">
        <ele>162</ele>
        <time>2022-05-28T08:17:30.740Z</time>
      </trkpt>
      <trkpt lat="46.915" lon="-0.76601">
        <ele>163</ele>
        <time>2022-05-28T08:17:39.585Z</time>
      </trkpt>
      <trkpt lat="46.91492" lon="-0.76646">
        <ele>165</ele>
        <time>2022-05-28T08:17:49.512Z</time>
      </trkpt>
      <trkpt lat="46.91475" lon="-0.76713">
        <ele>167</ele>
        <time>2022-05-28T08:18:01.019Z</time>
      </trkpt>
      <trkpt lat="46.91454" lon="-0.76775">
        <ele>168</ele>
        <time>2022-05-28T08:18:09.886Z</time>
      </trkpt>
      <trkpt lat="46.91431" lon="-0.7682">
        <ele>168</ele>
        <time>2022-05-28T08:18:15.691Z</time>
      </trkpt>
      <trkpt lat="46.91418" lon="-0.76838">
        <ele>168</ele>
        <time>2022-05-28T08:18:18.397Z</time>
      </trkpt>
      <trkpt lat="46.91381" lon="-0.76878">
        <ele>170</ele>
        <time>2022-05-28T08:18:29.578Z</time>
      </trkpt>
      <trkpt lat="46.91346" lon="-0.76911">
        <ele>171</ele>
        <time>2022-05-28T08:18:37.636Z</time>
      </trkpt>
      <trkpt lat="46.91307" lon="-0.76955">
        <ele>173</ele>
        <time>2022-05-28T08:18:49.193Z</time>
      </trkpt>
      <trkpt lat="46.91219" lon="-0.77067">
        <ele>177</ele>
        <time>2022-05-28T08:19:14.572Z</time>
      </trkpt>
      <trkpt lat="46.91154" lon="-0.7712">
        <ele>182</ele>
        <time>2022-05-28T08:19:39.188Z</time>
      </trkpt>
      <trkpt lat="46.91144" lon="-0.77132">
        <ele>182</ele>
        <time>2022-05-28T08:19:41.143Z</time>
      </trkpt>
      <trkpt lat="46.91133" lon="-0.77154">
        <ele>183</ele>
        <time>2022-05-28T08:19:46.294Z</time>
      </trkpt>
      <trkpt lat="46.91127" lon="-0.77179">
        <ele>184</ele>
        <time>2022-05-28T08:19:51.403Z</time>
      </trkpt>
      <trkpt lat="46.91127" lon="-0.7724">
        <ele>187</ele>
        <time>2022-05-28T08:20:06.116Z</time>
      </trkpt>
      <trkpt lat="46.91117" lon="-0.77322">
        <ele>189</ele>
        <time>2022-05-28T08:20:18.624Z</time>
      </trkpt>
      <trkpt lat="46.91109" lon="-0.77354">
        <ele>189</ele>
        <time>2022-05-28T08:20:22.144Z</time>
      </trkpt>
      <trkpt lat="46.91087" lon="-0.77394">
        <ele>189</ele>
        <time>2022-05-28T08:20:27.449Z</time>
      </trkpt>
      <trkpt lat="46.90874" lon="-0.7771">
        <ele>188</ele>
        <time>2022-05-28T08:21:11.908Z</time>
      </trkpt>
      <trkpt lat="46.90746" lon="-0.77861">
        <ele>194</ele>
        <time>2022-05-28T08:21:48.627Z</time>
      </trkpt>
      <trkpt lat="46.90628" lon="-0.78012">
        <ele>198</ele>
        <time>2022-05-28T08:22:19.474Z</time>
      </trkpt>
      <trkpt lat="46.90435" lon="-0.78152">
        <ele>203</ele>
        <time>2022-05-28T08:23:00.796Z</time>
      </trkpt>
      <trkpt lat="46.90345" lon="-0.78307">
        <ele>204</ele>
        <time>2022-05-28T08:23:23.337Z</time>
      </trkpt>
      <trkpt lat="46.90032" lon="-0.7886">
        <ele>197</ele>
        <time>2022-05-28T08:24:28.519Z</time>
      </trkpt>
      <trkpt lat="46.89752" lon="-0.7923">
        <ele>190</ele>
        <time>2022-05-28T08:25:16.836Z</time>
      </trkpt>
      <trkpt lat="46.89021" lon="-0.79348">
        <ele>166</ele>
        <time>2022-05-28T08:26:40.971Z</time>
      </trkpt>
      <trkpt lat="46.88662" lon="-0.79321">
        <ele>152</ele>
        <time>2022-05-28T08:27:20.199Z</time>
      </trkpt>
      <trkpt lat="46.88399" lon="-0.79453">
        <ele>147</ele>
        <time>2022-05-28T08:27:55.982Z</time>
      </trkpt>
      <trkpt lat="46.87982" lon="-0.79452">
        <ele>156</ele>
        <time>2022-05-28T08:29:14.563Z</time>
      </trkpt>
      <trkpt lat="46.87806" lon="-0.79465">
        <ele>157</ele>
        <time>2022-05-28T08:29:42.717Z</time>
      </trkpt>
      <trkpt lat="46.87617" lon="-0.79465">
        <ele>155</ele>
        <time>2022-05-28T08:30:08.649Z</time>
      </trkpt>
      <trkpt lat="46.87581" lon="-0.79482">
        <ele>155</ele>
        <time>2022-05-28T08:30:14.370Z</time>
      </trkpt>
      <trkpt lat="46.87383" lon="-0.79679">
        <ele>151</ele>
        <time>2022-05-28T08:30:45.523Z</time>
      </trkpt>
      <trkpt lat="46.87213" lon="-0.79899">
        <ele>145</ele>
        <time>2022-05-28T08:31:12.777Z</time>
      </trkpt>
      <trkpt lat="46.86964" lon="-0.8">
        <ele>142</ele>
        <time>2022-05-28T08:31:47.911Z</time>
      </trkpt>
      <trkpt lat="46.86834" lon="-0.79959">
        <ele>144</ele>
        <time>2022-05-28T08:32:11.279Z</time>
      </trkpt>
      <trkpt lat="46.86672" lon="-0.79869">
        <ele>145</ele>
        <time>2022-05-28T08:32:38.991Z</time>
      </trkpt>
      <trkpt lat="46.8666" lon="-0.79917">
        <ele>144</ele>
        <time>2022-05-28T08:32:43.115Z</time>
      </trkpt>
      <trkpt lat="46.86624" lon="-0.80011">
        <ele>141</ele>
        <time>2022-05-28T08:32:51.050Z</time>
      </trkpt>
      <trkpt lat="46.86605" lon="-0.80052">
        <ele>140</ele>
        <time>2022-05-28T08:32:55.018Z</time>
      </trkpt>
      <trkpt lat="46.86587" lon="-0.80074">
        <ele>139</ele>
        <time>2022-05-28T08:32:57.511Z</time>
      </trkpt>
      <trkpt lat="46.86463" lon="-0.80182">
        <ele>139</ele>
        <time>2022-05-28T08:33:19.335Z</time>
      </trkpt>
      <trkpt lat="46.86342" lon="-0.80283">
        <ele>141</ele>
        <time>2022-05-28T08:33:43.641Z</time>
      </trkpt>
      <trkpt lat="46.86261" lon="-0.8034">
        <ele>141</ele>
        <time>2022-05-28T08:33:57.234Z</time>
      </trkpt>
      <trkpt lat="46.86214" lon="-0.80385">
        <ele>142</ele>
        <time>2022-05-28T08:34:07.397Z</time>
      </trkpt>
      <trkpt lat="46.86138" lon="-0.80468">
        <ele>146</ele>
        <time>2022-05-28T08:34:30.086Z</time>
      </trkpt>
      <trkpt lat="46.8609" lon="-0.80531">
        <ele>148</ele>
        <time>2022-05-28T08:34:43.595Z</time>
      </trkpt>
      <trkpt lat="46.86049" lon="-0.80595">
        <ele>149</ele>
        <time>2022-05-28T08:34:54.315Z</time>
      </trkpt>
      <trkpt lat="46.86028" lon="-0.80637">
        <ele>149</ele>
        <time>2022-05-28T08:34:59.695Z</time>
      </trkpt>
      <trkpt lat="46.85972" lon="-0.80766">
        <ele>152</ele>
        <time>2022-05-28T08:35:21.012Z</time>
      </trkpt>
      <trkpt lat="46.85909" lon="-0.80924">
        <ele>154</ele>
        <time>2022-05-28T08:35:43.209Z</time>
      </trkpt>
      <trkpt lat="46.85877" lon="-0.80985">
        <ele>153</ele>
        <time>2022-05-28T08:35:49.916Z</time>
      </trkpt>
      <trkpt lat="46.8583" lon="-0.81054">
        <ele>154</ele>
        <time>2022-05-28T08:36:01.615Z</time>
      </trkpt>
      <trkpt lat="46.85772" lon="-0.81129">
        <ele>153</ele>
        <time>2022-05-28T08:36:12.022Z</time>
      </trkpt>
      <trkpt lat="46.85722" lon="-0.81187">
        <ele>152</ele>
        <time>2022-05-28T08:36:20.399Z</time>
      </trkpt>
      <trkpt lat="46.85692" lon="-0.81214">
        <ele>152</ele>
        <time>2022-05-28T08:36:25.726Z</time>
      </trkpt>
      <trkpt lat="46.85616" lon="-0.81269">
        <ele>152</ele>
        <time>2022-05-28T08:36:38.549Z</time>
      </trkpt>
      <trkpt lat="46.85574" lon="-0.81307">
        <ele>152</ele>
        <time>2022-05-28T08:36:46.017Z</time>
      </trkpt>
      <trkpt lat="46.85518" lon="-0.81365">
        <ele>154</ele>
        <time>2022-05-28T08:37:00.087Z</time>
      </trkpt>
      <trkpt lat="46.85383" lon="-0.81515">
        <ele>156</ele>
        <time>2022-05-28T08:37:28.895Z</time>
      </trkpt>
      <trkpt lat="46.85364" lon="-0.81542">
        <ele>157</ele>
        <time>2022-05-28T08:37:34.901Z</time>
      </trkpt>
      <trkpt lat="46.85342" lon="-0.81594">
        <ele>157</ele>
        <time>2022-05-28T08:37:41.225Z</time>
      </trkpt>
      <trkpt lat="46.85284" lon="-0.81821">
        <ele>158</ele>
        <time>2022-05-28T08:38:07.794Z</time>
      </trkpt>
      <trkpt lat="46.85278" lon="-0.81879">
        <ele>158</ele>
        <time>2022-05-28T08:38:13.861Z</time>
      </trkpt>
      <trkpt lat="46.8528" lon="-0.8192">
        <ele>159</ele>
        <time>2022-05-28T08:38:20.071Z</time>
      </trkpt>
      <trkpt lat="46.85278" lon="-0.81948">
        <ele>158</ele>
        <time>2022-05-28T08:38:21.989Z</time>
      </trkpt>
      <trkpt lat="46.85276" lon="-0.81964">
        <ele>158</ele>
        <time>2022-05-28T08:38:23.671Z</time>
      </trkpt>
      <trkpt lat="46.85259" lon="-0.8203">
        <ele>155</ele>
        <time>2022-05-28T08:38:28.170Z</time>
      </trkpt>
      <trkpt lat="46.85229" lon="-0.82097">
        <ele>152</ele>
        <time>2022-05-28T08:38:33.526Z</time>
      </trkpt>
      <trkpt lat="46.85038" lon="-0.8245">
        <ele>153</ele>
        <time>2022-05-28T08:39:21.552Z</time>
      </trkpt>
      <trkpt lat="46.85042" lon="-0.82461">
        <ele>154</ele>
        <time>2022-05-28T08:39:26.719Z</time>
      </trkpt>
      <trkpt lat="46.8504" lon="-0.82473">
        <ele>154</ele>
        <time>2022-05-28T08:39:27.997Z</time>
      </trkpt>
      <trkpt lat="46.8503" lon="-0.82481">
        <ele>154</ele>
        <time>2022-05-28T08:39:29.720Z</time>
      </trkpt>
      <trkpt lat="46.85022" lon="-0.82477">
        <ele>153</ele>
        <time>2022-05-28T08:39:30.488Z</time>
      </trkpt>
      <trkpt lat="46.84957" lon="-0.82604">
        <ele>154</ele>
        <time>2022-05-28T08:39:48.443Z</time>
      </trkpt>
      <trkpt lat="46.84912" lon="-0.82741">
        <ele>155</ele>
        <time>2022-05-28T08:40:05.717Z</time>
      </trkpt>
      <trkpt lat="46.849" lon="-0.82786">
        <ele>155</ele>
        <time>2022-05-28T08:40:10.712Z</time>
      </trkpt>
      <trkpt lat="46.84871" lon="-0.82921">
        <ele>156</ele>
        <time>2022-05-28T08:40:26.912Z</time>
      </trkpt>
      <trkpt lat="46.84848" lon="-0.82998">
        <ele>156</ele>
        <time>2022-05-28T08:40:35.602Z</time>
      </trkpt>
      <trkpt lat="46.84842" lon="-0.83031">
        <ele>157</ele>
        <time>2022-05-28T08:40:41.232Z</time>
      </trkpt>
      <trkpt lat="46.84838" lon="-0.83079">
        <ele>158</ele>
        <time>2022-05-28T08:40:48.098Z</time>
      </trkpt>
      <trkpt lat="46.84841" lon="-0.83164">
        <ele>160</ele>
        <time>2022-05-28T08:41:00.776Z</time>
      </trkpt>
      <trkpt lat="46.84839" lon="-0.83188">
        <ele>160</ele>
        <time>2022-05-28T08:41:03.276Z</time>
      </trkpt>
      <trkpt lat="46.84834" lon="-0.83208">
        <ele>160</ele>
        <time>2022-05-28T08:41:05.478Z</time>
      </trkpt>
      <trkpt lat="46.84825" lon="-0.83228">
        <ele>160</ele>
        <time>2022-05-28T08:41:07.954Z</time>
      </trkpt>
      <trkpt lat="46.84813" lon="-0.83243">
        <ele>161</ele>
        <time>2022-05-28T08:41:12.913Z</time>
      </trkpt>
      <trkpt lat="46.84786" lon="-0.83262">
        <ele>161</ele>
        <time>2022-05-28T08:41:17.444Z</time>
      </trkpt>
      <trkpt lat="46.84722" lon="-0.83296">
        <ele>164</ele>
        <time>2022-05-28T08:41:34.115Z</time>
      </trkpt>
      <trkpt lat="46.84678" lon="-0.8318">
        <ele>165</ele>
        <time>2022-05-28T08:41:49.408Z</time>
      </trkpt>
      <trkpt lat="46.84664" lon="-0.83149">
        <ele>163</ele>
        <time>2022-05-28T08:41:51.714Z</time>
      </trkpt>
      <trkpt lat="46.84648" lon="-0.83125">
        <ele>162</ele>
        <time>2022-05-28T08:41:54.132Z</time>
      </trkpt>
      <trkpt lat="46.84588" lon="-0.83058">
        <ele>159</ele>
        <time>2022-05-28T08:42:02.324Z</time>
      </trkpt>
      <trkpt lat="46.84581" lon="-0.83053">
        <ele>158</ele>
        <time>2022-05-28T08:42:03.030Z</time>
      </trkpt>
      <trkpt lat="46.84573" lon="-0.83049">
        <ele>158</ele>
        <time>2022-05-28T08:42:04.309Z</time>
      </trkpt>
      <trkpt lat="46.84559" lon="-0.83053">
        <ele>158</ele>
        <time>2022-05-28T08:42:06.466Z</time>
      </trkpt>
      <trkpt lat="46.84542" lon="-0.83069">
        <ele>158</ele>
        <time>2022-05-28T08:42:09.523Z</time>
      </trkpt>
      <trkpt lat="46.84517" lon="-0.8308">
        <ele>158</ele>
        <time>2022-05-28T08:42:13.471Z</time>
      </trkpt>
      <trkpt lat="46.84489" lon="-0.83105">
        <ele>158</ele>
        <time>2022-05-28T08:42:18.432Z</time>
      </trkpt>
      <trkpt lat="46.84476" lon="-0.83101">
        <ele>157</ele>
        <time>2022-05-28T08:42:19.638Z</time>
      </trkpt>
      <trkpt lat="46.84392" lon="-0.82988">
        <ele>156</ele>
        <time>2022-05-28T08:42:35.557Z</time>
      </trkpt>
      <trkpt lat="46.84356" lon="-0.82946">
        <ele>159</ele>
        <time>2022-05-28T08:42:50.376Z</time>
      </trkpt>
      <trkpt lat="46.84311" lon="-0.8287">
        <ele>160</ele>
        <time>2022-05-28T08:43:02.395Z</time>
      </trkpt>
      <trkpt lat="46.84288" lon="-0.82819">
        <ele>159</ele>
        <time>2022-05-28T08:43:07.514Z</time>
      </trkpt>
      <trkpt lat="46.8428" lon="-0.82811">
        <ele>159</ele>
        <time>2022-05-28T08:43:08.980Z</time>
      </trkpt>
      <trkpt lat="46.84121" lon="-0.82723">
        <ele>162</ele>
        <time>2022-05-28T08:43:39.687Z</time>
      </trkpt>
      <trkpt lat="46.84076" lon="-0.82694">
        <ele>163</ele>
        <time>2022-05-28T08:43:48.830Z</time>
      </trkpt>
      <trkpt lat="46.84048" lon="-0.82673">
        <ele>162</ele>
        <time>2022-05-28T08:43:52.454Z</time>
      </trkpt>
      <trkpt lat="46.84025" lon="-0.82652">
        <ele>162</ele>
        <time>2022-05-28T08:43:56.554Z</time>
      </trkpt>
      <trkpt lat="46.83972" lon="-0.82572">
        <ele>159</ele>
        <time>2022-05-28T08:44:04.841Z</time>
      </trkpt>
      <trkpt lat="46.83882" lon="-0.82417">
        <ele>156</ele>
        <time>2022-05-28T08:44:22.212Z</time>
      </trkpt>
      <trkpt lat="46.83867" lon="-0.82399">
        <ele>156</ele>
        <time>2022-05-28T08:44:25.147Z</time>
      </trkpt>
      <trkpt lat="46.83819" lon="-0.82367">
        <ele>156</ele>
        <time>2022-05-28T08:44:33.125Z</time>
      </trkpt>
      <trkpt lat="46.83798" lon="-0.82342">
        <ele>156</ele>
        <time>2022-05-28T08:44:37.220Z</time>
      </trkpt>
      <trkpt lat="46.83787" lon="-0.82322">
        <ele>156</ele>
        <time>2022-05-28T08:44:39.875Z</time>
      </trkpt>
      <trkpt lat="46.83749" lon="-0.82222">
        <ele>155</ele>
        <time>2022-05-28T08:44:50.406Z</time>
      </trkpt>
      <trkpt lat="46.83735" lon="-0.82215">
        <ele>154</ele>
        <time>2022-05-28T08:44:51.748Z</time>
      </trkpt>
      <trkpt lat="46.83727" lon="-0.82214">
        <ele>154</ele>
        <time>2022-05-28T08:44:52.962Z</time>
      </trkpt>
      <trkpt lat="46.83705" lon="-0.82217">
        <ele>153</ele>
        <time>2022-05-28T08:44:55.267Z</time>
      </trkpt>
      <trkpt lat="46.8367" lon="-0.82227">
        <ele>152</ele>
        <time>2022-05-28T08:44:59.495Z</time>
      </trkpt>
      <trkpt lat="46.83648" lon="-0.82238">
        <ele>153</ele>
        <time>2022-05-28T08:45:05.114Z</time>
      </trkpt>
      <trkpt lat="46.83602" lon="-0.82269">
        <ele>154</ele>
        <time>2022-05-28T08:45:14.471Z</time>
      </trkpt>
      <trkpt lat="46.83515" lon="-0.8231">
        <ele>156</ele>
        <time>2022-05-28T08:45:31.752Z</time>
      </trkpt>
      <trkpt lat="46.8349" lon="-0.82325">
        <ele>157</ele>
        <time>2022-05-28T08:45:37.825Z</time>
      </trkpt>
      <trkpt lat="46.83473" lon="-0.8234">
        <ele>158</ele>
        <time>2022-05-28T08:45:43.087Z</time>
      </trkpt>
      <trkpt lat="46.83399" lon="-0.82423">
        <ele>162</ele>
        <time>2022-05-28T08:46:05.595Z</time>
      </trkpt>
      <trkpt lat="46.83371" lon="-0.82451">
        <ele>163</ele>
        <time>2022-05-28T08:46:12.576Z</time>
      </trkpt>
      <trkpt lat="46.83268" lon="-0.82521">
        <ele>168</ele>
        <time>2022-05-28T08:46:40.372Z</time>
      </trkpt>
      <trkpt lat="46.83239" lon="-0.82537">
        <ele>170</ele>
        <time>2022-05-28T08:46:50.264Z</time>
      </trkpt>
      <trkpt lat="46.83098" lon="-0.82596">
        <ele>174</ele>
        <time>2022-05-28T08:47:19.702Z</time>
      </trkpt>
      <trkpt lat="46.83072" lon="-0.8261">
        <ele>175</ele>
        <time>2022-05-28T08:47:25.861Z</time>
      </trkpt>
      <trkpt lat="46.83047" lon="-0.82628">
        <ele>176</ele>
        <time>2022-05-28T08:47:32.040Z</time>
      </trkpt>
      <trkpt lat="46.82993" lon="-0.82676">
        <ele>177</ele>
        <time>2022-05-28T08:47:43.238Z</time>
      </trkpt>
      <trkpt lat="46.8286" lon="-0.82757">
        <ele>182</ele>
        <time>2022-05-28T08:48:14.744Z</time>
      </trkpt>
      <trkpt lat="46.82792" lon="-0.82814">
        <ele>185</ele>
        <time>2022-05-28T08:48:32.628Z</time>
      </trkpt>
      <trkpt lat="46.82775" lon="-0.82825">
        <ele>185</ele>
        <time>2022-05-28T08:48:35.439Z</time>
      </trkpt>
      <trkpt lat="46.82752" lon="-0.82832">
        <ele>186</ele>
        <time>2022-05-28T08:48:41.086Z</time>
      </trkpt>
      <trkpt lat="46.82647" lon="-0.82846">
        <ele>189</ele>
        <time>2022-05-28T08:49:02.534Z</time>
      </trkpt>
      <trkpt lat="46.82632" lon="-0.82855">
        <ele>189</ele>
        <time>2022-05-28T08:49:04.986Z</time>
      </trkpt>
      <trkpt lat="46.82552" lon="-0.8295">
        <ele>190</ele>
        <time>2022-05-28T08:49:22.130Z</time>
      </trkpt>
      <trkpt lat="46.82534" lon="-0.82978">
        <ele>191</ele>
        <time>2022-05-28T08:49:28.110Z</time>
      </trkpt>
      <trkpt lat="46.82538" lon="-0.83025">
        <ele>192</ele>
        <time>2022-05-28T08:49:34.886Z</time>
      </trkpt>
      <trkpt lat="46.82529" lon="-0.83083">
        <ele>193</ele>
        <time>2022-05-28T08:49:42.811Z</time>
      </trkpt>
      <trkpt lat="46.8252" lon="-0.8312">
        <ele>195</ele>
        <time>2022-05-28T08:49:52.619Z</time>
      </trkpt>
      <trkpt lat="46.82461" lon="-0.83298">
        <ele>197</ele>
        <time>2022-05-28T08:50:16.334Z</time>
      </trkpt>
      <trkpt lat="46.82456" lon="-0.83321">
        <ele>197</ele>
        <time>2022-05-28T08:50:18.831Z</time>
      </trkpt>
      <trkpt lat="46.82405" lon="-0.83336">
        <ele>197</ele>
        <time>2022-05-28T08:50:26.698Z</time>
      </trkpt>
      <trkpt lat="46.82366" lon="-0.83342">
        <ele>197</ele>
        <time>2022-05-28T08:50:32.628Z</time>
      </trkpt>
      <trkpt lat="46.82275" lon="-0.8335">
        <ele>198</ele>
        <time>2022-05-28T08:50:47.987Z</time>
      </trkpt>
      <trkpt lat="46.82194" lon="-0.83353">
        <ele>200</ele>
        <time>2022-05-28T08:51:03.786Z</time>
      </trkpt>
      <trkpt lat="46.82144" lon="-0.83372">
        <ele>201</ele>
        <time>2022-05-28T08:51:13.290Z</time>
      </trkpt>
      <trkpt lat="46.82084" lon="-0.83387">
        <ele>204</ele>
        <time>2022-05-28T08:51:29.202Z</time>
      </trkpt>
      <trkpt lat="46.8203" lon="-0.83391">
        <ele>207</ele>
        <time>2022-05-28T08:51:44.509Z</time>
      </trkpt>
      <trkpt lat="46.81882" lon="-0.83395">
        <ele>209</ele>
        <time>2022-05-28T08:52:10.109Z</time>
      </trkpt>
      <trkpt lat="46.81856" lon="-0.83401">
        <ele>209</ele>
        <time>2022-05-28T08:52:14.089Z</time>
      </trkpt>
      <trkpt lat="46.81843" lon="-0.83408">
        <ele>209</ele>
        <time>2022-05-28T08:52:16.185Z</time>
      </trkpt>
      <trkpt lat="46.81796" lon="-0.83444">
        <ele>211</ele>
        <time>2022-05-28T08:52:28.207Z</time>
      </trkpt>
      <trkpt lat="46.81782" lon="-0.83449">
        <ele>212</ele>
        <time>2022-05-28T08:52:33.118Z</time>
      </trkpt>
      <trkpt lat="46.81739" lon="-0.83458">
        <ele>214</ele>
        <time>2022-05-28T08:52:44.019Z</time>
      </trkpt>
      <trkpt lat="46.81714" lon="-0.83469">
        <ele>213</ele>
        <time>2022-05-28T08:52:46.882Z</time>
      </trkpt>
      <trkpt lat="46.81617" lon="-0.83527">
        <ele>208</ele>
        <time>2022-05-28T08:52:57.629Z</time>
      </trkpt>
      <trkpt lat="46.81591" lon="-0.83547">
        <ele>207</ele>
        <time>2022-05-28T08:53:00.955Z</time>
      </trkpt>
      <trkpt lat="46.81475" lon="-0.83659">
        <ele>203</ele>
        <time>2022-05-28T08:53:17.344Z</time>
      </trkpt>
      <trkpt lat="46.81341" lon="-0.83773">
        <ele>203</ele>
        <time>2022-05-28T08:53:40.791Z</time>
      </trkpt>
      <trkpt lat="46.81311" lon="-0.83785">
        <ele>203</ele>
        <time>2022-05-28T08:53:45.495Z</time>
      </trkpt>
      <trkpt lat="46.81283" lon="-0.83782">
        <ele>202</ele>
        <time>2022-05-28T08:53:48.635Z</time>
      </trkpt>
      <trkpt lat="46.81255" lon="-0.83767">
        <ele>201</ele>
        <time>2022-05-28T08:53:52.023Z</time>
      </trkpt>
      <trkpt lat="46.81223" lon="-0.83739">
        <ele>200</ele>
        <time>2022-05-28T08:53:56.488Z</time>
      </trkpt>
      <trkpt lat="46.81195" lon="-0.83727">
        <ele>199</ele>
        <time>2022-05-28T08:53:59.785Z</time>
      </trkpt>
      <trkpt lat="46.8118" lon="-0.83728">
        <ele>199</ele>
        <time>2022-05-28T08:54:02.056Z</time>
      </trkpt>
      <trkpt lat="46.81074" lon="-0.83753">
        <ele>198</ele>
        <time>2022-05-28T08:54:16.956Z</time>
      </trkpt>
      <trkpt lat="46.81021" lon="-0.83762">
        <ele>199</ele>
        <time>2022-05-28T08:54:26.707Z</time>
      </trkpt>
      <trkpt lat="46.80975" lon="-0.83777">
        <ele>199</ele>
        <time>2022-05-28T08:54:33.834Z</time>
      </trkpt>
      <trkpt lat="46.80952" lon="-0.83793">
        <ele>199</ele>
        <time>2022-05-28T08:54:37.686Z</time>
      </trkpt>
      <trkpt lat="46.80889" lon="-0.83847">
        <ele>195</ele>
        <time>2022-05-28T08:54:44.829Z</time>
      </trkpt>
      <trkpt lat="46.80864" lon="-0.83865">
        <ele>194</ele>
        <time>2022-05-28T08:54:47.940Z</time>
      </trkpt>
      <trkpt lat="46.80844" lon="-0.83866">
        <ele>193</ele>
        <time>2022-05-28T08:54:49.961Z</time>
      </trkpt>
      <trkpt lat="46.80805" lon="-0.8386">
        <ele>193</ele>
        <time>2022-05-28T08:54:55.891Z</time>
      </trkpt>
      <trkpt lat="46.80769" lon="-0.83862">
        <ele>193</ele>
        <time>2022-05-28T08:55:01.339Z</time>
      </trkpt>
      <trkpt lat="46.80759" lon="-0.83865">
        <ele>193</ele>
        <time>2022-05-28T08:55:02.882Z</time>
      </trkpt>
      <trkpt lat="46.80713" lon="-0.83886">
        <ele>194</ele>
        <time>2022-05-28T08:55:11.882Z</time>
      </trkpt>
      <trkpt lat="46.80617" lon="-0.83935">
        <ele>197</ele>
        <time>2022-05-28T08:55:32.816Z</time>
      </trkpt>
      <trkpt lat="46.80569" lon="-0.83963">
        <ele>198</ele>
        <time>2022-05-28T08:55:42.323Z</time>
      </trkpt>
      <trkpt lat="46.805" lon="-0.8402">
        <ele>200</ele>
        <time>2022-05-28T08:55:57.873Z</time>
      </trkpt>
      <trkpt lat="46.80383" lon="-0.84132">
        <ele>204</ele>
        <time>2022-05-28T08:56:26.373Z</time>
      </trkpt>
      <trkpt lat="46.80363" lon="-0.84148">
        <ele>206</ele>
        <time>2022-05-28T08:56:36.335Z</time>
      </trkpt>
      <trkpt lat="46.80315" lon="-0.8418">
        <ele>208</ele>
        <time>2022-05-28T08:56:48.320Z</time>
      </trkpt>
      <trkpt lat="46.80235" lon="-0.84216">
        <ele>208</ele>
        <time>2022-05-28T08:57:00.978Z</time>
      </trkpt>
      <trkpt lat="46.80222" lon="-0.84227">
        <ele>209</ele>
        <time>2022-05-28T08:57:05.906Z</time>
      </trkpt>
      <trkpt lat="46.80157" lon="-0.84315">
        <ele>209</ele>
        <time>2022-05-28T08:57:19.307Z</time>
      </trkpt>
      <trkpt lat="46.80137" lon="-0.84336">
        <ele>209</ele>
        <time>2022-05-28T08:57:23.031Z</time>
      </trkpt>
      <trkpt lat="46.80094" lon="-0.84373">
        <ele>209</ele>
        <time>2022-05-28T08:57:30.578Z</time>
      </trkpt>
      <trkpt lat="46.80062" lon="-0.84392">
        <ele>210</ele>
        <time>2022-05-28T08:57:37.644Z</time>
      </trkpt>
      <trkpt lat="46.80029" lon="-0.84401">
        <ele>210</ele>
        <time>2022-05-28T08:57:42.720Z</time>
      </trkpt>
      <trkpt lat="46.79822" lon="-0.84401">
        <ele>220</ele>
        <time>2022-05-28T08:58:36.167Z</time>
      </trkpt>
      <trkpt lat="46.79724" lon="-0.84389">
        <ele>220</ele>
        <time>2022-05-28T08:58:51.054Z</time>
      </trkpt>
      <trkpt lat="46.79649" lon="-0.84344">
        <ele>223.1</ele>
        <time>2022-05-28T08:59:09.536Z</time>
      </trkpt>
      <trkpt lat="46.79581" lon="-0.843">
        <ele>228.3</ele>
        <time>2022-05-28T08:59:35.058Z</time>
      </trkpt>
      <trkpt lat="46.79507" lon="-0.84262">
        <ele>229.9</ele>
        <time>2022-05-28T08:59:49.762Z</time>
      </trkpt>
      <trkpt lat="46.79434" lon="-0.84202">
        <ele>232.4</ele>
        <time>2022-05-28T09:00:07.044Z</time>
      </trkpt>
      <trkpt lat="46.79406" lon="-0.84174">
        <ele>236.6</ele>
        <time>2022-05-28T09:00:28.427Z</time>
      </trkpt>
      <trkpt lat="46.7935" lon="-0.84098">
        <ele>243.1</ele>
        <time>2022-05-28T09:01:00.651Z</time>
      </trkpt>
      <trkpt lat="46.79316" lon="-0.84063">
        <ele>246.7</ele>
        <time>2022-05-28T09:01:18.545Z</time>
      </trkpt>
      <trkpt lat="46.79292" lon="-0.8405">
        <ele>249.5</ele>
        <time>2022-05-28T09:01:33.021Z</time>
      </trkpt>
      <trkpt lat="46.7923" lon="-0.8403">
        <ele>254.4</ele>
        <time>2022-05-28T09:01:57.087Z</time>
      </trkpt>
      <trkpt lat="46.79196" lon="-0.84015">
        <ele>258.5</ele>
        <time>2022-05-28T09:02:18.325Z</time>
      </trkpt>
      <trkpt lat="46.79135" lon="-0.83967">
        <ele>262.6</ele>
        <time>2022-05-28T09:02:38.919Z</time>
      </trkpt>
      <trkpt lat="46.79083" lon="-0.83912">
        <ele>266.5</ele>
        <time>2022-05-28T09:02:58.365Z</time>
      </trkpt>
      <trkpt lat="46.7904" lon="-0.83876">
        <ele>265.6</ele>
        <time>2022-05-28T09:03:04.802Z</time>
      </trkpt>
      <trkpt lat="46.79019" lon="-0.83871">
        <ele>263.9</ele>
        <time>2022-05-28T09:03:06.763Z</time>
      </trkpt>
      <trkpt lat="46.79009" lon="-0.83935">
        <ele>266.4</ele>
        <time>2022-05-28T09:03:19.523Z</time>
      </trkpt>
      <trkpt lat="46.78998" lon="-0.8402">
        <ele>271.7</ele>
        <time>2022-05-28T09:03:46.024Z</time>
      </trkpt>
      <trkpt lat="46.79011" lon="-0.84102">
        <ele>271.3</ele>
        <time>2022-05-28T09:03:54.239Z</time>
      </trkpt>
      <trkpt lat="46.79026" lon="-0.84174">
        <ele>267.8</ele>
        <time>2022-05-28T09:03:58.918Z</time>
      </trkpt>
      <trkpt lat="46.79034" lon="-0.84207">
        <ele>267.1</ele>
        <time>2022-05-28T09:04:01.697Z</time>
      </trkpt>
      <trkpt lat="46.79057" lon="-0.84261">
        <ele>266.6</ele>
        <time>2022-05-28T09:04:07.654Z</time>
      </trkpt>
      <trkpt lat="46.79089" lon="-0.84321">
        <ele>265.6</ele>
        <time>2022-05-28T09:04:14.323Z</time>
      </trkpt>
      <trkpt lat="46.79099" lon="-0.84346">
        <ele>265.6</ele>
        <time>2022-05-28T09:04:17.258Z</time>
      </trkpt>
      <trkpt lat="46.79114" lon="-0.8443">
        <ele>265.9</ele>
        <time>2022-05-28T09:04:26.710Z</time>
      </trkpt>
      <trkpt lat="46.79149" lon="-0.84533">
        <ele>265.9</ele>
        <time>2022-05-28T09:04:38.575Z</time>
      </trkpt>
      <trkpt lat="46.7918" lon="-0.84629">
        <ele>263.4</ele>
        <time>2022-05-28T09:04:46.818Z</time>
      </trkpt>
      <trkpt lat="46.792" lon="-0.84696">
        <ele>260.7</ele>
        <time>2022-05-28T09:04:51.689Z</time>
      </trkpt>
      <trkpt lat="46.79206" lon="-0.84733">
        <ele>258.4</ele>
        <time>2022-05-28T09:04:54.097Z</time>
      </trkpt>
      <trkpt lat="46.79208" lon="-0.84824">
        <ele>255</ele>
        <time>2022-05-28T09:05:00.221Z</time>
      </trkpt>
      <trkpt lat="46.79209" lon="-0.8491">
        <ele>254</ele>
        <time>2022-05-28T09:05:07.846Z</time>
      </trkpt>
      <trkpt lat="46.79211" lon="-0.84978">
        <ele>253</ele>
        <time>2022-05-28T09:05:13.628Z</time>
      </trkpt>
      <trkpt lat="46.79207" lon="-0.85028">
        <ele>249.5</ele>
        <time>2022-05-28T09:05:16.778Z</time>
      </trkpt>
      <trkpt lat="46.79198" lon="-0.85092">
        <ele>244.7</ele>
        <time>2022-05-28T09:05:20.791Z</time>
      </trkpt>
      <trkpt lat="46.79195" lon="-0.85136">
        <ele>241.3</ele>
        <time>2022-05-28T09:05:23.536Z</time>
      </trkpt>
      <trkpt lat="46.79197" lon="-0.85163">
        <ele>239.4</ele>
        <time>2022-05-28T09:05:25.281Z</time>
      </trkpt>
      <trkpt lat="46.7922" lon="-0.8516">
        <ele>241.3</ele>
        <time>2022-05-28T09:05:34.670Z</time>
      </trkpt>
      <trkpt lat="46.79239" lon="-0.85144">
        <ele>244.1</ele>
        <time>2022-05-28T09:05:48.773Z</time>
      </trkpt>
      <trkpt lat="46.79279" lon="-0.85112">
        <ele>246.1</ele>
        <time>2022-05-28T09:05:59.884Z</time>
      </trkpt>
      <trkpt lat="46.79317" lon="-0.85071">
        <ele>245.8</ele>
        <time>2022-05-28T09:06:06.628Z</time>
      </trkpt>
      <trkpt lat="46.7936" lon="-0.85043">
        <ele>243.2</ele>
        <time>2022-05-28T09:06:11.166Z</time>
      </trkpt>
      <trkpt lat="46.79415" lon="-0.85039">
        <ele>241.1</ele>
        <time>2022-05-28T09:06:17.329Z</time>
      </trkpt>
      <trkpt lat="46.79457" lon="-0.85045">
        <ele>238.8</ele>
        <time>2022-05-28T09:06:21.449Z</time>
      </trkpt>
      <trkpt lat="46.79498" lon="-0.85056">
        <ele>237</ele>
        <time>2022-05-28T09:06:25.775Z</time>
      </trkpt>
      <trkpt lat="46.79533" lon="-0.85082">
        <ele>236.2</ele>
        <time>2022-05-28T09:06:30.751Z</time>
      </trkpt>
      <trkpt lat="46.79564" lon="-0.85118">
        <ele>235.2</ele>
        <time>2022-05-28T09:06:35.564Z</time>
      </trkpt>
      <trkpt lat="46.79584" lon="-0.85169">
        <ele>234</ele>
        <time>2022-05-28T09:06:40.260Z</time>
      </trkpt>
      <trkpt lat="46.79604" lon="-0.85239">
        <ele>232.6</ele>
        <time>2022-05-28T09:06:46.396Z</time>
      </trkpt>
      <trkpt lat="46.79631" lon="-0.85332">
        <ele>230.2</ele>
        <time>2022-05-28T09:06:54.224Z</time>
      </trkpt>
      <trkpt lat="46.79673" lon="-0.85405">
        <ele>227.8</ele>
        <time>2022-05-28T09:07:01.515Z</time>
      </trkpt>
      <trkpt lat="46.79718" lon="-0.85446">
        <ele>224.5</ele>
        <time>2022-05-28T09:07:06.429Z</time>
      </trkpt>
      <trkpt lat="46.79768" lon="-0.85479">
        <ele>221</ele>
        <time>2022-05-28T09:07:11.499Z</time>
      </trkpt>
      <trkpt lat="46.79805" lon="-0.85493">
        <ele>219.3</ele>
        <time>2022-05-28T09:07:15.469Z</time>
      </trkpt>
      <trkpt lat="46.79825" lon="-0.85488">
        <ele>217.7</ele>
        <time>2022-05-28T09:07:17.354Z</time>
      </trkpt>
      <trkpt lat="46.79851" lon="-0.85472">
        <ele>217.1</ele>
        <time>2022-05-28T09:07:20.851Z</time>
      </trkpt>
      <trkpt lat="46.79883" lon="-0.85447">
        <ele>216.5</ele>
        <time>2022-05-28T09:07:25.561Z</time>
      </trkpt>
      <trkpt lat="46.79916" lon="-0.85434">
        <ele>213.8</ele>
        <time>2022-05-28T09:07:28.729Z</time>
      </trkpt>
      <trkpt lat="46.79957" lon="-0.85432">
        <ele>211.8</ele>
        <time>2022-05-28T09:07:32.824Z</time>
      </trkpt>
      <trkpt lat="46.80004" lon="-0.85446">
        <ele>208.7</ele>
        <time>2022-05-28T09:07:37.231Z</time>
      </trkpt>
      <trkpt lat="46.80029" lon="-0.85456">
        <ele>206.6</ele>
        <time>2022-05-28T09:07:39.574Z</time>
      </trkpt>
      <trkpt lat="46.8006" lon="-0.85478">
        <ele>205.6</ele>
        <time>2022-05-28T09:07:43.720Z</time>
      </trkpt>
      <trkpt lat="46.80118" lon="-0.85531">
        <ele>204.9</ele>
        <time>2022-05-28T09:07:53.081Z</time>
      </trkpt>
      <trkpt lat="46.80156" lon="-0.85579">
        <ele>203.8</ele>
        <time>2022-05-28T09:07:59.308Z</time>
      </trkpt>
      <trkpt lat="46.8019" lon="-0.85608">
        <ele>203</ele>
        <time>2022-05-28T09:08:04.341Z</time>
      </trkpt>
      <trkpt lat="46.80251" lon="-0.85632">
        <ele>203.5</ele>
        <time>2022-05-28T09:08:14.567Z</time>
      </trkpt>
      <trkpt lat="46.80304" lon="-0.85647">
        <ele>205.9</ele>
        <time>2022-05-28T09:08:27.852Z</time>
      </trkpt>
      <trkpt lat="46.80384" lon="-0.85662">
        <ele>208.8</ele>
        <time>2022-05-28T09:08:45.830Z</time>
      </trkpt>
      <trkpt lat="46.8047" lon="-0.85683">
        <ele>210.9</ele>
        <time>2022-05-28T09:09:02.698Z</time>
      </trkpt>
      <trkpt lat="46.80529" lon="-0.857">
        <ele>212.9</ele>
        <time>2022-05-28T09:09:15.637Z</time>
      </trkpt>
      <trkpt lat="46.80569" lon="-0.85712">
        <ele>215.2</ele>
        <time>2022-05-28T09:09:27.341Z</time>
      </trkpt>
      <trkpt lat="46.80632" lon="-0.85735">
        <ele>217.7</ele>
        <time>2022-05-28T09:09:42.208Z</time>
      </trkpt>
      <trkpt lat="46.80696" lon="-0.85765">
        <ele>218.4</ele>
        <time>2022-05-28T09:09:53.349Z</time>
      </trkpt>
      <trkpt lat="46.80754" lon="-0.85796">
        <ele>216.3</ele>
        <time>2022-05-28T09:10:00.445Z</time>
      </trkpt>
      <trkpt lat="46.80815" lon="-0.85826">
        <ele>215.2</ele>
        <time>2022-05-28T09:10:08.682Z</time>
      </trkpt>
      <trkpt lat="46.80846" lon="-0.8583">
        <ele>214.5</ele>
        <time>2022-05-28T09:10:12.618Z</time>
      </trkpt>
      <trkpt lat="46.80879" lon="-0.85822">
        <ele>214</ele>
        <time>2022-05-28T09:10:16.945Z</time>
      </trkpt>
      <trkpt lat="46.80895" lon="-0.85816">
        <ele>214.1</ele>
        <time>2022-05-28T09:10:19.613Z</time>
      </trkpt>
      <trkpt lat="46.80916" lon="-0.85814">
        <ele>213</ele>
        <time>2022-05-28T09:10:21.765Z</time>
      </trkpt>
      <trkpt lat="46.80934" lon="-0.85816">
        <ele>214</ele>
        <time>2022-05-28T09:10:26.870Z</time>
      </trkpt>
      <trkpt lat="46.80963" lon="-0.85831">
        <ele>215</ele>
        <time>2022-05-28T09:10:33.426Z</time>
      </trkpt>
      <trkpt lat="46.80969" lon="-0.85828">
        <ele>216</ele>
        <time>2022-05-28T09:10:37.536Z</time>
      </trkpt>
      <trkpt lat="46.80977" lon="-0.8583">
        <ele>216</ele>
        <time>2022-05-28T09:10:38.763Z</time>
      </trkpt>
      <trkpt lat="46.80982" lon="-0.85841">
        <ele>216</ele>
        <time>2022-05-28T09:10:40.130Z</time>
      </trkpt>
      <trkpt lat="46.80978" lon="-0.85855">
        <ele>216</ele>
        <time>2022-05-28T09:10:41.700Z</time>
      </trkpt>
      <trkpt lat="46.81007" lon="-0.85894">
        <ele>217</ele>
        <time>2022-05-28T09:10:49.444Z</time>
      </trkpt>
      <trkpt lat="46.81022" lon="-0.85921">
        <ele>216</ele>
        <time>2022-05-28T09:10:51.984Z</time>
      </trkpt>
      <trkpt lat="46.81027" lon="-0.85946">
        <ele>215</ele>
        <time>2022-05-28T09:10:53.713Z</time>
      </trkpt>
      <trkpt lat="46.81022" lon="-0.85985">
        <ele>213</ele>
        <time>2022-05-28T09:10:56.177Z</time>
      </trkpt>
      <trkpt lat="46.81009" lon="-0.86017">
        <ele>212</ele>
        <time>2022-05-28T09:10:58.949Z</time>
      </trkpt>
      <trkpt lat="46.80991" lon="-0.8605">
        <ele>210</ele>
        <time>2022-05-28T09:11:01.570Z</time>
      </trkpt>
      <trkpt lat="46.8098" lon="-0.86064">
        <ele>210</ele>
        <time>2022-05-28T09:11:03.776Z</time>
      </trkpt>
      <trkpt lat="46.80964" lon="-0.86072">
        <ele>210</ele>
        <time>2022-05-28T09:11:06.333Z</time>
      </trkpt>
      <trkpt lat="46.80949" lon="-0.86072">
        <ele>210</ele>
        <time>2022-05-28T09:11:08.601Z</time>
      </trkpt>
      <trkpt lat="46.80879" lon="-0.86049">
        <ele>212</ele>
        <time>2022-05-28T09:11:23.101Z</time>
      </trkpt>
      <trkpt lat="46.80867" lon="-0.86042">
        <ele>212</ele>
        <time>2022-05-28T09:11:25.055Z</time>
      </trkpt>
      <trkpt lat="46.80858" lon="-0.86031">
        <ele>213</ele>
        <time>2022-05-28T09:11:30.013Z</time>
      </trkpt>
      <trkpt lat="46.80851" lon="-0.86017">
        <ele>213</ele>
        <time>2022-05-28T09:11:31.808Z</time>
      </trkpt>
      <trkpt lat="46.80849" lon="-0.86003">
        <ele>213</ele>
        <time>2022-05-28T09:11:33.288Z</time>
      </trkpt>
      <trkpt lat="46.80827" lon="-0.86005">
        <ele>213</ele>
        <time>2022-05-28T09:11:36.621Z</time>
      </trkpt>
      <trkpt lat="46.80813" lon="-0.86015">
        <ele>213</ele>
        <time>2022-05-28T09:11:38.978Z</time>
      </trkpt>
      <trkpt lat="46.80755" lon="-0.86075">
        <ele>214</ele>
        <time>2022-05-28T09:11:51.340Z</time>
      </trkpt>
      <trkpt lat="46.80705" lon="-0.86116">
        <ele>211</ele>
        <time>2022-05-28T09:11:57.039Z</time>
      </trkpt>
      <trkpt lat="46.80659" lon="-0.86161">
        <ele>208</ele>
        <time>2022-05-28T09:12:02.473Z</time>
      </trkpt>
      <trkpt lat="46.80651" lon="-0.86177">
        <ele>206</ele>
        <time>2022-05-28T09:12:03.704Z</time>
      </trkpt>
      <trkpt lat="46.8065" lon="-0.86203">
        <ele>205</ele>
        <time>2022-05-28T09:12:05.432Z</time>
      </trkpt>
      <trkpt lat="46.80658" lon="-0.86334">
        <ele>196</ele>
        <time>2022-05-28T09:12:13.599Z</time>
      </trkpt>
      <trkpt lat="46.80625" lon="-0.8647">
        <ele>190</ele>
        <time>2022-05-28T09:12:22.894Z</time>
      </trkpt>
      <trkpt lat="46.80629" lon="-0.86552">
        <ele>190</ele>
        <time>2022-05-28T09:12:31.403Z</time>
      </trkpt>
      <trkpt lat="46.80622" lon="-0.86576">
        <ele>189</ele>
        <time>2022-05-28T09:12:33.136Z</time>
      </trkpt>
      <trkpt lat="46.8061" lon="-0.86598">
        <ele>189</ele>
        <time>2022-05-28T09:12:36.047Z</time>
      </trkpt>
      <trkpt lat="46.80602" lon="-0.86623">
        <ele>188</ele>
        <time>2022-05-28T09:12:37.917Z</time>
      </trkpt>
      <trkpt lat="46.80602" lon="-0.86636">
        <ele>188</ele>
        <time>2022-05-28T09:12:39.263Z</time>
      </trkpt>
      <trkpt lat="46.8061" lon="-0.86661">
        <ele>187</ele>
        <time>2022-05-28T09:12:41.132Z</time>
      </trkpt>
      <trkpt lat="46.80671" lon="-0.86774">
        <ele>188</ele>
        <time>2022-05-28T09:12:57.591Z</time>
      </trkpt>
      <trkpt lat="46.80679" lon="-0.86792">
        <ele>188</ele>
        <time>2022-05-28T09:12:59.812Z</time>
      </trkpt>
      <trkpt lat="46.80682" lon="-0.86809">
        <ele>188</ele>
        <time>2022-05-28T09:13:01.629Z</time>
      </trkpt>
      <trkpt lat="46.80669" lon="-0.87062">
        <ele>180</ele>
        <time>2022-05-28T09:13:19.640Z</time>
      </trkpt>
      <trkpt lat="46.80655" lon="-0.8718">
        <ele>179</ele>
        <time>2022-05-28T09:13:30.728Z</time>
      </trkpt>
      <trkpt lat="46.80646" lon="-0.87365">
        <ele>175</ele>
        <time>2022-05-28T09:13:45.376Z</time>
      </trkpt>
      <trkpt lat="46.80622" lon="-0.87463">
        <ele>171</ele>
        <time>2022-05-28T09:13:52.281Z</time>
      </trkpt>
      <trkpt lat="46.80621" lon="-0.8749">
        <ele>169</ele>
        <time>2022-05-28T09:13:53.960Z</time>
      </trkpt>
      <trkpt lat="46.80626" lon="-0.87538">
        <ele>167</ele>
        <time>2022-05-28T09:13:57.099Z</time>
      </trkpt>
      <trkpt lat="46.80622" lon="-0.87554">
        <ele>167</ele>
        <time>2022-05-28T09:13:58.862Z</time>
      </trkpt>
      <trkpt lat="46.80564" lon="-0.87684">
        <ele>162</ele>
        <time>2022-05-28T09:14:09.802Z</time>
      </trkpt>
      <trkpt lat="46.80553" lon="-0.8774">
        <ele>161</ele>
        <time>2022-05-28T09:14:14.642Z</time>
      </trkpt>
      <trkpt lat="46.80553" lon="-0.87762">
        <ele>162</ele>
        <time>2022-05-28T09:14:19.571Z</time>
      </trkpt>
      <trkpt lat="46.80557" lon="-0.87784">
        <ele>163</ele>
        <time>2022-05-28T09:14:24.521Z</time>
      </trkpt>
      <trkpt lat="46.80593" lon="-0.87848">
        <ele>166</ele>
        <time>2022-05-28T09:14:40.046Z</time>
      </trkpt>
      <trkpt lat="46.80617" lon="-0.87882">
        <ele>168</ele>
        <time>2022-05-28T09:14:50.066Z</time>
      </trkpt>
      <trkpt lat="46.80621" lon="-0.87896">
        <ele>169</ele>
        <time>2022-05-28T09:14:55.135Z</time>
      </trkpt>
      <trkpt lat="46.80621" lon="-0.87917">
        <ele>169</ele>
        <time>2022-05-28T09:14:57.309Z</time>
      </trkpt>
      <trkpt lat="46.8061" lon="-0.87944">
        <ele>169</ele>
        <time>2022-05-28T09:15:00.561Z</time>
      </trkpt>
      <trkpt lat="46.80579" lon="-0.88002">
        <ele>168</ele>
        <time>2022-05-28T09:15:06.942Z</time>
      </trkpt>
      <trkpt lat="46.80562" lon="-0.8807">
        <ele>167</ele>
        <time>2022-05-28T09:15:13.203Z</time>
      </trkpt>
      <trkpt lat="46.8055" lon="-0.88139">
        <ele>164</ele>
        <time>2022-05-28T09:15:17.766Z</time>
      </trkpt>
      <trkpt lat="46.80516" lon="-0.88293">
        <ele>161</ele>
        <time>2022-05-28T09:15:30.996Z</time>
      </trkpt>
      <trkpt lat="46.80516" lon="-0.88327">
        <ele>159</ele>
        <time>2022-05-28T09:15:33.108Z</time>
      </trkpt>
      <trkpt lat="46.80531" lon="-0.88353">
        <ele>157</ele>
        <time>2022-05-28T09:15:35.220Z</time>
      </trkpt>
      <trkpt lat="46.80511" lon="-0.88402">
        <ele>156</ele>
        <time>2022-05-28T09:15:39.940Z</time>
      </trkpt>
      <trkpt lat="46.80394" lon="-0.88552">
        <ele>155</ele>
        <time>2022-05-28T09:16:02.112Z</time>
      </trkpt>
      <trkpt lat="46.80378" lon="-0.88578">
        <ele>154</ele>
        <time>2022-05-28T09:16:04.670Z</time>
      </trkpt>
      <trkpt lat="46.80332" lon="-0.8869">
        <ele>152</ele>
        <time>2022-05-28T09:16:15.764Z</time>
      </trkpt>
      <trkpt lat="46.80308" lon="-0.8873">
        <ele>151</ele>
        <time>2022-05-28T09:16:20.100Z</time>
      </trkpt>
      <trkpt lat="46.80245" lon="-0.88823">
        <ele>149</ele>
        <time>2022-05-28T09:16:31.217Z</time>
      </trkpt>
      <trkpt lat="46.80219" lon="-0.88855">
        <ele>147</ele>
        <time>2022-05-28T09:16:34.456Z</time>
      </trkpt>
      <trkpt lat="46.80104" lon="-0.88969">
        <ele>139</ele>
        <time>2022-05-28T09:16:47.803Z</time>
      </trkpt>
      <trkpt lat="46.8007" lon="-0.89006">
        <ele>137</ele>
        <time>2022-05-28T09:16:52.167Z</time>
      </trkpt>
      <trkpt lat="46.80057" lon="-0.89024">
        <ele>136</ele>
        <time>2022-05-28T09:16:53.907Z</time>
      </trkpt>
      <trkpt lat="46.80046" lon="-0.89052">
        <ele>135</ele>
        <time>2022-05-28T09:16:56.212Z</time>
      </trkpt>
      <trkpt lat="46.80023" lon="-0.89138">
        <ele>133</ele>
        <time>2022-05-28T09:17:03.497Z</time>
      </trkpt>
      <trkpt lat="46.80008" lon="-0.89178">
        <ele>132</ele>
        <time>2022-05-28T09:17:07.086Z</time>
      </trkpt>
      <trkpt lat="46.79999" lon="-0.8919">
        <ele>132</ele>
        <time>2022-05-28T09:17:08.928Z</time>
      </trkpt>
      <trkpt lat="46.79968" lon="-0.89223">
        <ele>129</ele>
        <time>2022-05-28T09:17:12.409Z</time>
      </trkpt>
      <trkpt lat="46.79951" lon="-0.89232">
        <ele>127</ele>
        <time>2022-05-28T09:17:14.049Z</time>
      </trkpt>
      <trkpt lat="46.79925" lon="-0.89239">
        <ele>126</ele>
        <time>2022-05-28T09:17:16.958Z</time>
      </trkpt>
      <trkpt lat="46.79907" lon="-0.89241">
        <ele>125</ele>
        <time>2022-05-28T09:17:18.716Z</time>
      </trkpt>
      <trkpt lat="46.79881" lon="-0.89239">
        <ele>124</ele>
        <time>2022-05-28T09:17:21.569Z</time>
      </trkpt>
      <trkpt lat="46.7986" lon="-0.89233">
        <ele>123</ele>
        <time>2022-05-28T09:17:23.778Z</time>
      </trkpt>
      <trkpt lat="46.79841" lon="-0.89232">
        <ele>123</ele>
        <time>2022-05-28T09:17:26.653Z</time>
      </trkpt>
      <trkpt lat="46.79827" lon="-0.89234">
        <ele>122</ele>
        <time>2022-05-28T09:17:27.929Z</time>
      </trkpt>
      <trkpt lat="46.7981" lon="-0.89246">
        <ele>122</ele>
        <time>2022-05-28T09:17:30.784Z</time>
      </trkpt>
      <trkpt lat="46.79795" lon="-0.89262">
        <ele>121</ele>
        <time>2022-05-28T09:17:32.612Z</time>
      </trkpt>
      <trkpt lat="46.79748" lon="-0.89332">
        <ele>119</ele>
        <time>2022-05-28T09:17:40.460Z</time>
      </trkpt>
      <trkpt lat="46.79727" lon="-0.89371">
        <ele>119</ele>
        <time>2022-05-28T09:17:45.597Z</time>
      </trkpt>
      <trkpt lat="46.79652" lon="-0.8948">
        <ele>118</ele>
        <time>2022-05-28T09:18:00.260Z</time>
      </trkpt>
      <trkpt lat="46.79642" lon="-0.89501">
        <ele>117</ele>
        <time>2022-05-28T09:18:01.947Z</time>
      </trkpt>
      <trkpt lat="46.7965" lon="-0.89531">
        <ele>116</ele>
        <time>2022-05-28T09:18:04.244Z</time>
      </trkpt>
      <trkpt lat="46.79683" lon="-0.89602">
        <ele>114</ele>
        <time>2022-05-28T09:18:10.894Z</time>
      </trkpt>
      <trkpt lat="46.79704" lon="-0.89641">
        <ele>112</ele>
        <time>2022-05-28T09:18:14.129Z</time>
      </trkpt>
      <trkpt lat="46.79741" lon="-0.89702">
        <ele>109</ele>
        <time>2022-05-28T09:18:19.621Z</time>
      </trkpt>
      <trkpt lat="46.79775" lon="-0.89752">
        <ele>107</ele>
        <time>2022-05-28T09:18:24.791Z</time>
      </trkpt>
      <trkpt lat="46.79816" lon="-0.89805">
        <ele>105</ele>
        <time>2022-05-28T09:18:30.873Z</time>
      </trkpt>
      <trkpt lat="46.79826" lon="-0.89827">
        <ele>104</ele>
        <time>2022-05-28T09:18:32.634Z</time>
      </trkpt>
      <trkpt lat="46.79825" lon="-0.89839">
        <ele>104</ele>
        <time>2022-05-28T09:18:33.886Z</time>
      </trkpt>
      <trkpt lat="46.79837" lon="-0.89862">
        <ele>105</ele>
        <time>2022-05-28T09:18:39.142Z</time>
      </trkpt>
      <trkpt lat="46.79892" lon="-0.90062">
        <ele>111</ele>
        <time>2022-05-28T09:19:13.792Z</time>
      </trkpt>
      <trkpt lat="46.79895" lon="-0.90106">
        <ele>113</ele>
        <time>2022-05-28T09:19:23.656Z</time>
      </trkpt>
      <trkpt lat="46.79889" lon="-0.90228">
        <ele>119</ele>
        <time>2022-05-28T09:19:53.084Z</time>
      </trkpt>
      <trkpt lat="46.79889" lon="-0.90341">
        <ele>122</ele>
        <time>2022-05-28T09:20:10.841Z</time>
      </trkpt>
      <trkpt lat="46.79876" lon="-0.90447">
        <ele>123</ele>
        <time>2022-05-28T09:20:23.598Z</time>
      </trkpt>
      <trkpt lat="46.79876" lon="-0.90583">
        <ele>128</ele>
        <time>2022-05-28T09:20:49.353Z</time>
      </trkpt>
      <trkpt lat="46.79869" lon="-0.90711">
        <ele>133</ele>
        <time>2022-05-28T09:21:14.698Z</time>
      </trkpt>
      <trkpt lat="46.79863" lon="-0.90737">
        <ele>133</ele>
        <time>2022-05-28T09:21:17.539Z</time>
      </trkpt>
      <trkpt lat="46.79839" lon="-0.90784">
        <ele>134</ele>
        <time>2022-05-28T09:21:25.385Z</time>
      </trkpt>
      <trkpt lat="46.7983" lon="-0.90806">
        <ele>133</ele>
        <time>2022-05-28T09:21:27.076Z</time>
      </trkpt>
      <trkpt lat="46.79823" lon="-0.90834">
        <ele>133</ele>
        <time>2022-05-28T09:21:30.162Z</time>
      </trkpt>
      <trkpt lat="46.79787" lon="-0.91072">
        <ele>138</ele>
        <time>2022-05-28T09:22:04.695Z</time>
      </trkpt>
      <trkpt lat="46.79792" lon="-0.91105">
        <ele>139</ele>
        <time>2022-05-28T09:22:10.301Z</time>
      </trkpt>
      <trkpt lat="46.798" lon="-0.91124">
        <ele>140</ele>
        <time>2022-05-28T09:22:15.238Z</time>
      </trkpt>
      <trkpt lat="46.79828" lon="-0.91175">
        <ele>142</ele>
        <time>2022-05-28T09:22:26.281Z</time>
      </trkpt>
      <trkpt lat="46.79843" lon="-0.9121">
        <ele>142</ele>
        <time>2022-05-28T09:22:30.555Z</time>
      </trkpt>
      <trkpt lat="46.7985" lon="-0.91258">
        <ele>141</ele>
        <time>2022-05-28T09:22:34.485Z</time>
      </trkpt>
      <trkpt lat="46.79872" lon="-0.91278">
        <ele>141</ele>
        <time>2022-05-28T09:22:38.403Z</time>
      </trkpt>
      <trkpt lat="46.79886" lon="-0.91296">
        <ele>141</ele>
        <time>2022-05-28T09:22:41.223Z</time>
      </trkpt>
      <trkpt lat="46.79897" lon="-0.91315">
        <ele>141</ele>
        <time>2022-05-28T09:22:43.799Z</time>
      </trkpt>
      <trkpt lat="46.79902" lon="-0.91335">
        <ele>140</ele>
        <time>2022-05-28T09:22:45.122Z</time>
      </trkpt>
      <trkpt lat="46.79898" lon="-0.91344">
        <ele>140</ele>
        <time>2022-05-28T09:22:46.233Z</time>
      </trkpt>
      <trkpt lat="46.79848" lon="-0.91387">
        <ele>138</ele>
        <time>2022-05-28T09:22:52.778Z</time>
      </trkpt>
      <trkpt lat="46.79806" lon="-0.91431">
        <ele>136</ele>
        <time>2022-05-28T09:22:58.429Z</time>
      </trkpt>
      <trkpt lat="46.79799" lon="-0.91442">
        <ele>136</ele>
        <time>2022-05-28T09:22:59.983Z</time>
      </trkpt>
      <trkpt lat="46.79794" lon="-0.91457">
        <ele>136</ele>
        <time>2022-05-28T09:23:01.711Z</time>
      </trkpt>
      <trkpt lat="46.79783" lon="-0.9155">
        <ele>136</ele>
        <time>2022-05-28T09:23:11.481Z</time>
      </trkpt>
      <trkpt lat="46.79776" lon="-0.91585">
        <ele>137</ele>
        <time>2022-05-28T09:23:17.300Z</time>
      </trkpt>
      <trkpt lat="46.79741" lon="-0.91676">
        <ele>136</ele>
        <time>2022-05-28T09:23:26.815Z</time>
      </trkpt>
      <trkpt lat="46.79697" lon="-0.91845">
        <ele>133</ele>
        <time>2022-05-28T09:23:41.943Z</time>
      </trkpt>
      <trkpt lat="46.79688" lon="-0.91927">
        <ele>132</ele>
        <time>2022-05-28T09:23:49.284Z</time>
      </trkpt>
      <trkpt lat="46.79679" lon="-0.92089">
        <ele>128</ele>
        <time>2022-05-28T09:24:01.698Z</time>
      </trkpt>
      <trkpt lat="46.79672" lon="-0.92116">
        <ele>127</ele>
        <time>2022-05-28T09:24:03.685Z</time>
      </trkpt>
      <trkpt lat="46.79661" lon="-0.92143">
        <ele>125</ele>
        <time>2022-05-28T09:24:05.637Z</time>
      </trkpt>
      <trkpt lat="46.79615" lon="-0.92217">
        <ele>121</ele>
        <time>2022-05-28T09:24:12.171Z</time>
      </trkpt>
      <trkpt lat="46.79602" lon="-0.92242">
        <ele>120</ele>
        <time>2022-05-28T09:24:14.393Z</time>
      </trkpt>
      <trkpt lat="46.7959" lon="-0.92272">
        <ele>121</ele>
        <time>2022-05-28T09:24:20.074Z</time>
      </trkpt>
      <trkpt lat="46.79547" lon="-0.92403">
        <ele>126</ele>
        <time>2022-05-28T09:24:46.401Z</time>
      </trkpt>
      <trkpt lat="46.79539" lon="-0.9242">
        <ele>127</ele>
        <time>2022-05-28T09:24:51.308Z</time>
      </trkpt>
      <trkpt lat="46.79521" lon="-0.92436">
        <ele>128</ele>
        <time>2022-05-28T09:24:56.690Z</time>
      </trkpt>
      <trkpt lat="46.79471" lon="-0.92456">
        <ele>127</ele>
        <time>2022-05-28T09:25:03.289Z</time>
      </trkpt>
      <trkpt lat="46.7943" lon="-0.92467">
        <ele>125</ele>
        <time>2022-05-28T09:25:07.556Z</time>
      </trkpt>
      <trkpt lat="46.79419" lon="-0.92473">
        <ele>124</ele>
        <time>2022-05-28T09:25:08.621Z</time>
      </trkpt>
      <trkpt lat="46.79431" lon="-0.92558">
        <ele>127</ele>
        <time>2022-05-28T09:25:24.394Z</time>
      </trkpt>
      <trkpt lat="46.79432" lon="-0.92574">
        <ele>126.1</ele>
        <time>2022-05-28T09:25:25.373Z</time>
      </trkpt>
      <trkpt lat="46.79411" lon="-0.92546">
        <ele>124.8</ele>
        <time>2022-05-28T09:25:28.263Z</time>
      </trkpt>
      <trkpt lat="46.7938" lon="-0.92489">
        <ele>122.2</ele>
        <time>2022-05-28T09:25:33.282Z</time>
      </trkpt>
      <trkpt lat="46.79348" lon="-0.92431">
        <ele>117.8</ele>
        <time>2022-05-28T09:25:37.875Z</time>
      </trkpt>
      <trkpt lat="46.79326" lon="-0.92429">
        <ele>116.2</ele>
        <time>2022-05-28T09:25:39.906Z</time>
      </trkpt>
      <trkpt lat="46.79312" lon="-0.92437">
        <ele>116</ele>
        <time>2022-05-28T09:25:41.936Z</time>
      </trkpt>
      <trkpt lat="46.79297" lon="-0.92452">
        <ele>116.6</ele>
        <time>2022-05-28T09:25:45.754Z</time>
      </trkpt>
      <trkpt lat="46.79273" lon="-0.92506">
        <ele>119</ele>
        <time>2022-05-28T09:25:58.078Z</time>
      </trkpt>
      <trkpt lat="46.79253" lon="-0.9255">
        <ele>120.7</ele>
        <time>2022-05-28T09:26:07.219Z</time>
      </trkpt>
      <trkpt lat="46.79244" lon="-0.92563">
        <ele>121.6</ele>
        <time>2022-05-28T09:26:11.657Z</time>
      </trkpt>
      <trkpt lat="46.79218" lon="-0.92581">
        <ele>124</ele>
        <time>2022-05-28T09:26:23.547Z</time>
      </trkpt>
      <trkpt lat="46.7919" lon="-0.92607">
        <ele>126</ele>
        <time>2022-05-28T09:26:33.577Z</time>
      </trkpt>
      <trkpt lat="46.79158" lon="-0.92651">
        <ele>128.4</ele>
        <time>2022-05-28T09:26:45.830Z</time>
      </trkpt>
      <trkpt lat="46.79141" lon="-0.92667">
        <ele>129.9</ele>
        <time>2022-05-28T09:26:53.186Z</time>
      </trkpt>
      <trkpt lat="46.79096" lon="-0.92675">
        <ele>132</ele>
        <time>2022-05-28T09:27:04.564Z</time>
      </trkpt>
      <trkpt lat="46.79052" lon="-0.92678">
        <ele>135</ele>
        <time>2022-05-28T09:27:19.322Z</time>
      </trkpt>
      <trkpt lat="46.79012" lon="-0.92719">
        <ele>136.4</ele>
        <time>2022-05-28T09:27:29.224Z</time>
      </trkpt>
      <trkpt lat="46.78971" lon="-0.92771">
        <ele>135.6</ele>
        <time>2022-05-28T09:27:36.444Z</time>
      </trkpt>
      <trkpt lat="46.78945" lon="-0.92807">
        <ele>133.1</ele>
        <time>2022-05-28T09:27:39.711Z</time>
      </trkpt>
      <trkpt lat="46.7893" lon="-0.92851">
        <ele>133.1</ele>
        <time>2022-05-28T09:27:44.804Z</time>
      </trkpt>
      <trkpt lat="46.78921" lon="-0.92902">
        <ele>131.8</ele>
        <time>2022-05-28T09:27:48.731Z</time>
      </trkpt>
      <trkpt lat="46.78919" lon="-0.92933">
        <ele>131.6</ele>
        <time>2022-05-28T09:27:51.693Z</time>
      </trkpt>
      <trkpt lat="46.78923" lon="-0.92968">
        <ele>131.5</ele>
        <time>2022-05-28T09:27:55.209Z</time>
      </trkpt>
      <trkpt lat="46.78932" lon="-0.93009">
        <ele>131.8</ele>
        <time>2022-05-28T09:28:00.199Z</time>
      </trkpt>
      <trkpt lat="46.78949" lon="-0.93053">
        <ele>132.2</ele>
        <time>2022-05-28T09:28:06.035Z</time>
      </trkpt>
      <trkpt lat="46.78971" lon="-0.93093">
        <ele>132.9</ele>
        <time>2022-05-28T09:28:12.573Z</time>
      </trkpt>
      <trkpt lat="46.78998" lon="-0.93126">
        <ele>134.4</ele>
        <time>2022-05-28T09:28:21.060Z</time>
      </trkpt>
      <trkpt lat="46.7905" lon="-0.93182">
        <ele>136.1</ele>
        <time>2022-05-28T09:28:33.832Z</time>
      </trkpt>
      <trkpt lat="46.79106" lon="-0.93244">
        <ele>137.8</ele>
        <time>2022-05-28T09:28:47.497Z</time>
      </trkpt>
      <trkpt lat="46.79127" lon="-0.9327">
        <ele>138.2</ele>
        <time>2022-05-28T09:28:52.320Z</time>
      </trkpt>
      <trkpt lat="46.79143" lon="-0.93302">
        <ele>138</ele>
        <time>2022-05-28T09:28:56.103Z</time>
      </trkpt>
      <trkpt lat="46.79159" lon="-0.93356">
        <ele>137</ele>
        <time>2022-05-28T09:29:00.996Z</time>
      </trkpt>
      <trkpt lat="46.79173" lon="-0.93423">
        <ele>134.8</ele>
        <time>2022-05-28T09:29:06.046Z</time>
      </trkpt>
      <trkpt lat="46.79194" lon="-0.9349">
        <ele>133.3</ele>
        <time>2022-05-28T09:29:11.883Z</time>
      </trkpt>
      <trkpt lat="46.79209" lon="-0.93539">
        <ele>132.8</ele>
        <time>2022-05-28T09:29:16.755Z</time>
      </trkpt>
      <trkpt lat="46.79224" lon="-0.93595">
        <ele>133.1</ele>
        <time>2022-05-28T09:29:23.484Z</time>
      </trkpt>
      <trkpt lat="46.79239" lon="-0.93641">
        <ele>133.6</ele>
        <time>2022-05-28T09:29:29.598Z</time>
      </trkpt>
      <trkpt lat="46.79253" lon="-0.93692">
        <ele>134.1</ele>
        <time>2022-05-28T09:29:36.046Z</time>
      </trkpt>
      <trkpt lat="46.79264" lon="-0.93727">
        <ele>134.4</ele>
        <time>2022-05-28T09:29:40.492Z</time>
      </trkpt>
      <trkpt lat="46.79274" lon="-0.93736">
        <ele>134.4</ele>
        <time>2022-05-28T09:29:42.257Z</time>
      </trkpt>
      <trkpt lat="46.79294" lon="-0.93738">
        <ele>134.4</ele>
        <time>2022-05-28T09:29:45.329Z</time>
      </trkpt>
      <trkpt lat="46.79323" lon="-0.93729">
        <ele>134.9</ele>
        <time>2022-05-28T09:29:50.654Z</time>
      </trkpt>
      <trkpt lat="46.7935" lon="-0.93718">
        <ele>135.2</ele>
        <time>2022-05-28T09:29:55.376Z</time>
      </trkpt>
      <trkpt lat="46.79391" lon="-0.93691">
        <ele>136</ele>
        <time>2022-05-28T09:30:03.497Z</time>
      </trkpt>
      <trkpt lat="46.79406" lon="-0.9368">
        <ele>136</ele>
        <time>2022-05-28T09:30:06.061Z</time>
      </trkpt>
      <trkpt lat="46.7941" lon="-0.93669">
        <ele>136</ele>
        <time>2022-05-28T09:30:07.361Z</time>
      </trkpt>
      <trkpt lat="46.7942" lon="-0.93662">
        <ele>136</ele>
        <time>2022-05-28T09:30:09.013Z</time>
      </trkpt>
      <trkpt lat="46.79431" lon="-0.93663">
        <ele>136</ele>
        <time>2022-05-28T09:30:10.748Z</time>
      </trkpt>
      <trkpt lat="46.7945" lon="-0.93664">
        <ele>136</ele>
        <time>2022-05-28T09:30:13.576Z</time>
      </trkpt>
      <trkpt lat="46.79506" lon="-0.93641">
        <ele>135.8</ele>
        <time>2022-05-28T09:30:22.100Z</time>
      </trkpt>
      <trkpt lat="46.79556" lon="-0.93621">
        <ele>135</ele>
        <time>2022-05-28T09:30:28.986Z</time>
      </trkpt>
      <trkpt lat="46.79593" lon="-0.93603">
        <ele>134.8</ele>
        <time>2022-05-28T09:30:34.521Z</time>
      </trkpt>
      <trkpt lat="46.79673" lon="-0.93557">
        <ele>131</ele>
        <time>2022-05-28T09:30:43.599Z</time>
      </trkpt>
      <trkpt lat="46.79692" lon="-0.93668">
        <ele>129</ele>
        <time>2022-05-28T09:30:53.073Z</time>
      </trkpt>
      <trkpt lat="46.79813" lon="-0.94257">
        <ele>122</ele>
        <time>2022-05-28T09:31:47.878Z</time>
      </trkpt>
      <trkpt lat="46.79819" lon="-0.94335">
        <ele>119</ele>
        <time>2022-05-28T09:31:53.096Z</time>
      </trkpt>
      <trkpt lat="46.79838" lon="-0.94472">
        <ele>118</ele>
        <time>2022-05-28T09:32:06.242Z</time>
      </trkpt>
      <trkpt lat="46.79863" lon="-0.94549">
        <ele>117</ele>
        <time>2022-05-28T09:32:13.803Z</time>
      </trkpt>
      <trkpt lat="46.79888" lon="-0.94598">
        <ele>117</ele>
        <time>2022-05-28T09:32:20.130Z</time>
      </trkpt>
      <trkpt lat="46.79936" lon="-0.94682">
        <ele>119</ele>
        <time>2022-05-28T09:32:35.068Z</time>
      </trkpt>
      <trkpt lat="46.79995" lon="-0.94798">
        <ele>121</ele>
        <time>2022-05-28T09:32:53.435Z</time>
      </trkpt>
      <trkpt lat="46.8" lon="-0.94823">
        <ele>122</ele>
        <time>2022-05-28T09:32:58.523Z</time>
      </trkpt>
      <trkpt lat="46.79999" lon="-0.94926">
        <ele>120</ele>
        <time>2022-05-28T09:33:06.862Z</time>
      </trkpt>
      <trkpt lat="46.8001" lon="-0.94999">
        <ele>119</ele>
        <time>2022-05-28T09:33:13.361Z</time>
      </trkpt>
      <trkpt lat="46.80052" lon="-0.95081">
        <ele>116</ele>
        <time>2022-05-28T09:33:20.802Z</time>
      </trkpt>
      <trkpt lat="46.8006" lon="-0.95114">
        <ele>115</ele>
        <time>2022-05-28T09:33:23.365Z</time>
      </trkpt>
      <trkpt lat="46.8007" lon="-0.952">
        <ele>113</ele>
        <time>2022-05-28T09:33:30.152Z</time>
      </trkpt>
      <trkpt lat="46.80079" lon="-0.95251">
        <ele>112</ele>
        <time>2022-05-28T09:33:34.436Z</time>
      </trkpt>
      <trkpt lat="46.801" lon="-0.95325">
        <ele>111</ele>
        <time>2022-05-28T09:33:41.478Z</time>
      </trkpt>
      <trkpt lat="46.80108" lon="-0.95364">
        <ele>111</ele>
        <time>2022-05-28T09:33:45.693Z</time>
      </trkpt>
      <trkpt lat="46.80116" lon="-0.9545">
        <ele>110</ele>
        <time>2022-05-28T09:33:53.414Z</time>
      </trkpt>
      <trkpt lat="46.80131" lon="-0.95519">
        <ele>109</ele>
        <time>2022-05-28T09:33:59.675Z</time>
      </trkpt>
      <trkpt lat="46.80141" lon="-0.95553">
        <ele>109</ele>
        <time>2022-05-28T09:34:03.506Z</time>
      </trkpt>
      <trkpt lat="46.80153" lon="-0.95581">
        <ele>109</ele>
        <time>2022-05-28T09:34:06.925Z</time>
      </trkpt>
      <trkpt lat="46.80164" lon="-0.95597">
        <ele>109</ele>
        <time>2022-05-28T09:34:09.273Z</time>
      </trkpt>
      <trkpt lat="46.80188" lon="-0.95623">
        <ele>109</ele>
        <time>2022-05-28T09:34:13.791Z</time>
      </trkpt>
      <trkpt lat="46.80204" lon="-0.9565">
        <ele>108</ele>
        <time>2022-05-28T09:34:16.421Z</time>
      </trkpt>
      <trkpt lat="46.8021" lon="-0.95693">
        <ele>108</ele>
        <time>2022-05-28T09:34:20.963Z</time>
      </trkpt>
      <trkpt lat="46.80209" lon="-0.95727">
        <ele>107</ele>
        <time>2022-05-28T09:34:23.433Z</time>
      </trkpt>
      <trkpt lat="46.80206" lon="-0.9574">
        <ele>107</ele>
        <time>2022-05-28T09:34:24.854Z</time>
      </trkpt>
      <trkpt lat="46.80182" lon="-0.95803">
        <ele>106</ele>
        <time>2022-05-28T09:34:31.085Z</time>
      </trkpt>
      <trkpt lat="46.80172" lon="-0.95838">
        <ele>105</ele>
        <time>2022-05-28T09:34:33.927Z</time>
      </trkpt>
      <trkpt lat="46.80149" lon="-0.95957">
        <ele>103</ele>
        <time>2022-05-28T09:34:44.323Z</time>
      </trkpt>
      <trkpt lat="46.80147" lon="-0.95998">
        <ele>102</ele>
        <time>2022-05-28T09:34:47.472Z</time>
      </trkpt>
      <trkpt lat="46.8016" lon="-0.96141">
        <ele>100</ele>
        <time>2022-05-28T09:34:59.941Z</time>
      </trkpt>
      <trkpt lat="46.80164" lon="-0.96157">
        <ele>100</ele>
        <time>2022-05-28T09:35:01.704Z</time>
      </trkpt>
      <trkpt lat="46.80172" lon="-0.96177">
        <ele>100</ele>
        <time>2022-05-28T09:35:04.102Z</time>
      </trkpt>
      <trkpt lat="46.80225" lon="-0.9627">
        <ele>99</ele>
        <time>2022-05-28T09:35:15.319Z</time>
      </trkpt>
      <trkpt lat="46.80239" lon="-0.96302">
        <ele>100</ele>
        <time>2022-05-28T09:35:21.264Z</time>
      </trkpt>
      <trkpt lat="46.80267" lon="-0.96446">
        <ele>100</ele>
        <time>2022-05-28T09:35:36.759Z</time>
      </trkpt>
      <trkpt lat="46.80272" lon="-0.9646">
        <ele>101</ele>
        <time>2022-05-28T09:35:41.788Z</time>
      </trkpt>
      <trkpt lat="46.80357" lon="-0.96604">
        <ele>103</ele>
        <time>2022-05-28T09:36:04.737Z</time>
      </trkpt>
      <trkpt lat="46.8046" lon="-0.9673">
        <ele>104</ele>
        <time>2022-05-28T09:36:26.580Z</time>
      </trkpt>
      <trkpt lat="46.80508" lon="-0.96765">
        <ele>103</ele>
        <time>2022-05-28T09:36:33.446Z</time>
      </trkpt>
      <trkpt lat="46.80532" lon="-0.96777">
        <ele>103</ele>
        <time>2022-05-28T09:36:37.282Z</time>
      </trkpt>
      <trkpt lat="46.80551" lon="-0.96791">
        <ele>102</ele>
        <time>2022-05-28T09:36:39.474Z</time>
      </trkpt>
      <trkpt lat="46.8057" lon="-0.96819">
        <ele>101</ele>
        <time>2022-05-28T09:36:42.461Z</time>
      </trkpt>
      <trkpt lat="46.80625" lon="-0.96943">
        <ele>102</ele>
        <time>2022-05-28T09:36:59.314Z</time>
      </trkpt>
      <trkpt lat="46.80645" lon="-0.96967">
        <ele>103</ele>
        <time>2022-05-28T09:37:05.245Z</time>
      </trkpt>
      <trkpt lat="46.80703" lon="-0.97025">
        <ele>106</ele>
        <time>2022-05-28T09:37:22.163Z</time>
      </trkpt>
      <trkpt lat="46.80719" lon="-0.97055">
        <ele>107</ele>
        <time>2022-05-28T09:37:28.112Z</time>
      </trkpt>
      <trkpt lat="46.80737" lon="-0.97114">
        <ele>108</ele>
        <time>2022-05-28T09:37:36.538Z</time>
      </trkpt>
      <trkpt lat="46.80784" lon="-0.9722">
        <ele>110</ele>
        <time>2022-05-28T09:37:53.108Z</time>
      </trkpt>
      <trkpt lat="46.8081" lon="-0.97331">
        <ele>111</ele>
        <time>2022-05-28T09:38:06.844Z</time>
      </trkpt>
      <trkpt lat="46.80884" lon="-0.97556">
        <ele>110</ele>
        <time>2022-05-28T09:38:31.308Z</time>
      </trkpt>
      <trkpt lat="46.8089" lon="-0.97583">
        <ele>109</ele>
        <time>2022-05-28T09:38:33.250Z</time>
      </trkpt>
      <trkpt lat="46.80896" lon="-0.97683">
        <ele>109</ele>
        <time>2022-05-28T09:38:43.639Z</time>
      </trkpt>
      <trkpt lat="46.80889" lon="-0.97813">
        <ele>109</ele>
        <time>2022-05-28T09:38:57.136Z</time>
      </trkpt>
      <trkpt lat="46.80897" lon="-0.97886">
        <ele>108</ele>
        <time>2022-05-28T09:39:03.551Z</time>
      </trkpt>
      <trkpt lat="46.80912" lon="-0.9797">
        <ele>108</ele>
        <time>2022-05-28T09:39:12.536Z</time>
      </trkpt>
      <trkpt lat="46.80937" lon="-0.98041">
        <ele>107</ele>
        <time>2022-05-28T09:39:19.550Z</time>
      </trkpt>
      <trkpt lat="46.81081" lon="-0.98418">
        <ele>103</ele>
        <time>2022-05-28T09:39:59.056Z</time>
      </trkpt>
      <trkpt lat="46.81118" lon="-0.98526">
        <ele>100</ele>
        <time>2022-05-28T09:40:08.254Z</time>
      </trkpt>
      <trkpt lat="46.81122" lon="-0.98552">
        <ele>99</ele>
        <time>2022-05-28T09:40:10.037Z</time>
      </trkpt>
      <trkpt lat="46.81722" lon="-0.98749">
        <ele>113</ele>
        <time>2022-05-28T09:42:07.431Z</time>
      </trkpt>
      <trkpt lat="46.81759" lon="-0.98768">
        <ele>113</ele>
        <time>2022-05-28T09:42:13.362Z</time>
      </trkpt>
      <trkpt lat="46.81835" lon="-0.98816">
        <ele>110</ele>
        <time>2022-05-28T09:42:22.580Z</time>
      </trkpt>
      <trkpt lat="46.82145" lon="-0.99021">
        <ele>113</ele>
        <time>2022-05-28T09:43:18.670Z</time>
      </trkpt>
      <trkpt lat="46.82169" lon="-0.99041">
        <ele>115</ele>
        <time>2022-05-28T09:43:28.477Z</time>
      </trkpt>
      <trkpt lat="46.8219" lon="-0.99067">
        <ele>116</ele>
        <time>2022-05-28T09:43:34.613Z</time>
      </trkpt>
      <trkpt lat="46.82201" lon="-0.99093">
        <ele>117</ele>
        <time>2022-05-28T09:43:39.979Z</time>
      </trkpt>
      <trkpt lat="46.82211" lon="-0.99131">
        <ele>118</ele>
        <time>2022-05-28T09:43:46.158Z</time>
      </trkpt>
      <trkpt lat="46.82253" lon="-0.99349">
        <ele>114</ele>
        <time>2022-05-28T09:44:04.858Z</time>
      </trkpt>
      <trkpt lat="46.82255" lon="-0.99368">
        <ele>113</ele>
        <time>2022-05-28T09:44:06.052Z</time>
      </trkpt>
      <trkpt lat="46.82255" lon="-0.9943">
        <ele>111</ele>
        <time>2022-05-28T09:44:10.419Z</time>
      </trkpt>
      <trkpt lat="46.82258" lon="-0.99446">
        <ele>110</ele>
        <time>2022-05-28T09:44:11.449Z</time>
      </trkpt>
      <trkpt lat="46.82265" lon="-0.99456">
        <ele>109</ele>
        <time>2022-05-28T09:44:12.337Z</time>
      </trkpt>
      <trkpt lat="46.82299" lon="-0.99476">
        <ele>109</ele>
        <time>2022-05-28T09:44:17.880Z</time>
      </trkpt>
      <trkpt lat="46.82314" lon="-0.99491">
        <ele>109</ele>
        <time>2022-05-28T09:44:20.628Z</time>
      </trkpt>
      <trkpt lat="46.82353" lon="-0.99582">
        <ele>104</ele>
        <time>2022-05-28T09:44:27.294Z</time>
      </trkpt>
      <trkpt lat="46.82372" lon="-0.99604">
        <ele>101</ele>
        <time>2022-05-28T09:44:29.494Z</time>
      </trkpt>
      <trkpt lat="46.82391" lon="-0.99616">
        <ele>99</ele>
        <time>2022-05-28T09:44:31.371Z</time>
      </trkpt>
      <trkpt lat="46.82408" lon="-0.99622">
        <ele>98</ele>
        <time>2022-05-28T09:44:33.055Z</time>
      </trkpt>
      <trkpt lat="46.82553" lon="-0.99643">
        <ele>92</ele>
        <time>2022-05-28T09:44:48.700Z</time>
      </trkpt>
      <trkpt lat="46.82578" lon="-0.99653">
        <ele>91</ele>
        <time>2022-05-28T09:44:51.536Z</time>
      </trkpt>
      <trkpt lat="46.82598" lon="-0.99667">
        <ele>92</ele>
        <time>2022-05-28T09:44:57.036Z</time>
      </trkpt>
      <trkpt lat="46.82626" lon="-0.997">
        <ele>94</ele>
        <time>2022-05-28T09:45:07.235Z</time>
      </trkpt>
      <trkpt lat="46.82653" lon="-0.99765">
        <ele>97</ele>
        <time>2022-05-28T09:45:22.390Z</time>
      </trkpt>
      <trkpt lat="46.82779" lon="-1.00146">
        <ele>108</ele>
        <time>2022-05-28T09:46:28.225Z</time>
      </trkpt>
      <trkpt lat="46.82799" lon="-1.00199">
        <ele>109</ele>
        <time>2022-05-28T09:46:36.252Z</time>
      </trkpt>
      <trkpt lat="46.82827" lon="-1.00254">
        <ele>110</ele>
        <time>2022-05-28T09:46:45.066Z</time>
      </trkpt>
      <trkpt lat="46.82857" lon="-1.00291">
        <ele>111</ele>
        <time>2022-05-28T09:46:52.787Z</time>
      </trkpt>
      <trkpt lat="46.82898" lon="-1.00326">
        <ele>112</ele>
        <time>2022-05-28T09:47:01.684Z</time>
      </trkpt>
      <trkpt lat="46.82925" lon="-1.0034">
        <ele>112</ele>
        <time>2022-05-28T09:47:06.016Z</time>
      </trkpt>
      <trkpt lat="46.82959" lon="-1.0035">
        <ele>114</ele>
        <time>2022-05-28T09:47:16.120Z</time>
      </trkpt>
      <trkpt lat="46.83098" lon="-1.00363">
        <ele>119</ele>
        <time>2022-05-28T09:47:47.010Z</time>
      </trkpt>
      <trkpt lat="46.84472" lon="-1.00469">
        <ele>112</ele>
        <time>2022-05-28T09:51:05.404Z</time>
      </trkpt>
      <trkpt lat="46.84477" lon="-1.00456">
        <ele>112</ele>
        <time>2022-05-28T09:51:06.947Z</time>
      </trkpt>
      <trkpt lat="46.84488" lon="-1.0045">
        <ele>111</ele>
        <time>2022-05-28T09:51:08.012Z</time>
      </trkpt>
      <trkpt lat="46.845" lon="-1.00456">
        <ele>111</ele>
        <time>2022-05-28T09:51:09.930Z</time>
      </trkpt>
      <trkpt lat="46.84504" lon="-1.00473">
        <ele>111</ele>
        <time>2022-05-28T09:51:11.789Z</time>
      </trkpt>
      <trkpt lat="46.84589" lon="-1.00465">
        <ele>111</ele>
        <time>2022-05-28T09:51:24.670Z</time>
      </trkpt>
      <trkpt lat="46.84621" lon="-1.00458">
        <ele>112</ele>
        <time>2022-05-28T09:51:31.439Z</time>
      </trkpt>
      <trkpt lat="46.84761" lon="-1.0041">
        <ele>116</ele>
        <time>2022-05-28T09:52:00.479Z</time>
      </trkpt>
      <trkpt lat="46.84761" lon="-1.00398">
        <ele>116</ele>
        <time>2022-05-28T09:52:01.720Z</time>
      </trkpt>
      <trkpt lat="46.84768" lon="-1.00392">
        <ele>116</ele>
        <time>2022-05-28T09:52:02.947Z</time>
      </trkpt>
      <trkpt lat="46.84775" lon="-1.00398">
        <ele>116</ele>
        <time>2022-05-28T09:52:04.174Z</time>
      </trkpt>
      <trkpt lat="46.84776" lon="-1.00404">
        <ele>116</ele>
        <time>2022-05-28T09:52:04.813Z</time>
      </trkpt>
      <trkpt lat="46.84829" lon="-1.00389">
        <ele>115</ele>
        <time>2022-05-28T09:52:11.729Z</time>
      </trkpt>
      <trkpt lat="46.84889" lon="-1.00378">
        <ele>114</ele>
        <time>2022-05-28T09:52:19.607Z</time>
      </trkpt>
      <trkpt lat="46.8492" lon="-1.00377">
        <ele>114</ele>
        <time>2022-05-28T09:52:24.296Z</time>
      </trkpt>
      <trkpt lat="46.84946" lon="-1.00379">
        <ele>114</ele>
        <time>2022-05-28T09:52:28.233Z</time>
      </trkpt>
      <trkpt lat="46.84993" lon="-1.00388">
        <ele>113</ele>
        <time>2022-05-28T09:52:34.177Z</time>
      </trkpt>
      <trkpt lat="46.85039" lon="-1.00402">
        <ele>112</ele>
        <time>2022-05-28T09:52:40.060Z</time>
        <extensions>
          <visugpx:TrkExtension xmlns:visugpx="https://www.visugpx.com/editgpx/">
            <visugpx:node>13</visugpx:node>
            </visugpx:TrkExtension>
        </extensions>
      </trkpt>
      <trkpt lat="46.85043" lon="-1.00401">
        <ele>111.7</ele>
        <time>2022-05-28T09:52:40.407Z</time>
      </trkpt>
      <trkpt lat="46.85054" lon="-1.00408">
        <ele>111.1</ele>
        <time>2022-05-28T09:52:41.650Z</time>
      </trkpt>
      <trkpt lat="46.85078" lon="-1.00424">
        <ele>111</ele>
        <time>2022-05-28T09:52:45.417Z</time>
      </trkpt>
      <trkpt lat="46.85103" lon="-1.00439">
        <ele>110.4</ele>
        <time>2022-05-28T09:52:48.763Z</time>
      </trkpt>
      <trkpt lat="46.85107" lon="-1.00442">
        <ele>110.2</ele>
        <time>2022-05-28T09:52:49.351Z</time>
      </trkpt>
      <trkpt lat="46.85108" lon="-1.00443">
        <ele>110.2</ele>
        <time>2022-05-28T09:52:49.451Z</time>
      </trkpt>
      <trkpt lat="46.85109" lon="-1.00443">
        <ele>110.1</ele>
        <time>2022-05-28T09:52:49.513Z</time>
      </trkpt>
      <trkpt lat="46.8511" lon="-1.00444">
        <ele>110</ele>
        <time>2022-05-28T09:52:49.668Z</time>
      </trkpt>
      <trkpt lat="46.85113" lon="-1.00446">
        <ele>110</ele>
        <time>2022-05-28T09:52:50.167Z</time>
      </trkpt>
      <trkpt lat="46.85122" lon="-1.00453">
        <ele>109.9</ele>
        <time>2022-05-28T09:52:51.588Z</time>
      </trkpt>
      <trkpt lat="46.85129" lon="-1.00457">
        <ele>109.7</ele>
        <time>2022-05-28T09:52:52.490Z</time>
      </trkpt>
      <trkpt lat="46.85133" lon="-1.0046">
        <ele>109.6</ele>
        <time>2022-05-28T09:52:52.974Z</time>
      </trkpt>
      <trkpt lat="46.85137" lon="-1.00462">
        <ele>109.4</ele>
        <time>2022-05-28T09:52:53.422Z</time>
      </trkpt>
      <trkpt lat="46.85193" lon="-1.00505">
        <ele>108</ele>
        <time>2022-05-28T09:53:01.341Z</time>
      </trkpt>
      <trkpt lat="46.85197" lon="-1.00507">
        <ele>108</ele>
        <time>2022-05-28T09:53:01.875Z</time>
      </trkpt>
      <trkpt lat="46.85212" lon="-1.00518">
        <ele>108</ele>
        <time>2022-05-28T09:53:04.413Z</time>
      </trkpt>
      <trkpt lat="46.85222" lon="-1.00527">
        <ele>108</ele>
        <time>2022-05-28T09:53:06.205Z</time>
      </trkpt>
      <trkpt lat="46.85236" lon="-1.00537">
        <ele>108</ele>
        <time>2022-05-28T09:53:08.584Z</time>
      </trkpt>
      <trkpt lat="46.85241" lon="-1.0054">
        <ele>108</ele>
        <time>2022-05-28T09:53:09.381Z</time>
      </trkpt>
      <trkpt lat="46.85261" lon="-1.00555">
        <ele>108.4</ele>
        <time>2022-05-28T09:53:13.518Z</time>
      </trkpt>
      <trkpt lat="46.85269" lon="-1.00561">
        <ele>108.7</ele>
        <time>2022-05-28T09:53:15.364Z</time>
      </trkpt>
      <trkpt lat="46.85276" lon="-1.00566">
        <ele>109</ele>
        <time>2022-05-28T09:53:17.249Z</time>
      </trkpt>
      <trkpt lat="46.85283" lon="-1.00569">
        <ele>109</ele>
        <time>2022-05-28T09:53:18.272Z</time>
      </trkpt>
      <trkpt lat="46.85309" lon="-1.00578">
        <ele>108.9</ele>
        <time>2022-05-28T09:53:22.257Z</time>
      </trkpt>
      <trkpt lat="46.85339" lon="-1.00586">
        <ele>108.1</ele>
        <time>2022-05-28T09:53:25.860Z</time>
      </trkpt>
      <trkpt lat="46.8535" lon="-1.0059">
        <ele>108.1</ele>
        <time>2022-05-28T09:53:27.594Z</time>
      </trkpt>
      <trkpt lat="46.85358" lon="-1.00594">
        <ele>108</ele>
        <time>2022-05-28T09:53:28.716Z</time>
      </trkpt>
      <trkpt lat="46.85372" lon="-1.00602">
        <ele>107.8</ele>
        <time>2022-05-28T09:53:30.673Z</time>
      </trkpt>
      <trkpt lat="46.85406" lon="-1.00616">
        <ele>107.1</ele>
        <time>2022-05-28T09:53:35.192Z</time>
      </trkpt>
      <trkpt lat="46.85421" lon="-1.00623">
        <ele>106.9</ele>
        <time>2022-05-28T09:53:37.389Z</time>
      </trkpt>
      <trkpt lat="46.85461" lon="-1.0064">
        <ele>107</ele>
        <time>2022-05-28T09:53:43.734Z</time>
      </trkpt>
      <trkpt lat="46.85483" lon="-1.00654">
        <ele>107</ele>
        <time>2022-05-28T09:53:47.437Z</time>
      </trkpt>
      <trkpt lat="46.85492" lon="-1.0066">
        <ele>107</ele>
        <time>2022-05-28T09:53:48.869Z</time>
      </trkpt>
      <trkpt lat="46.85509" lon="-1.00673">
        <ele>107.3</ele>
        <time>2022-05-28T09:53:52.328Z</time>
      </trkpt>
      <trkpt lat="46.85539" lon="-1.00693">
        <ele>108</ele>
        <time>2022-05-28T09:53:58.494Z</time>
      </trkpt>
      <trkpt lat="46.85562" lon="-1.00711">
        <ele>108.7</ele>
        <time>2022-05-28T09:54:03.717Z</time>
      </trkpt>
      <trkpt lat="46.85593" lon="-1.00737">
        <ele>109.7</ele>
        <time>2022-05-28T09:54:10.905Z</time>
      </trkpt>
      <trkpt lat="46.85635" lon="-1.00777">
        <ele>110</ele>
        <time>2022-05-28T09:54:18.937Z</time>
      </trkpt>
      <trkpt lat="46.8564" lon="-1.00782">
        <ele>110</ele>
        <time>2022-05-28T09:54:19.848Z</time>
      </trkpt>
      <trkpt lat="46.85677" lon="-1.00817">
        <ele>111</ele>
        <time>2022-05-28T09:54:28.240Z</time>
      </trkpt>
      <trkpt lat="46.8569" lon="-1.00829">
        <ele>111</ele>
        <time>2022-05-28T09:54:30.590Z</time>
      </trkpt>
      <trkpt lat="46.85714" lon="-1.00843">
        <ele>111.8</ele>
        <time>2022-05-28T09:54:36.000Z</time>
      </trkpt>
      <trkpt lat="46.85748" lon="-1.00862">
        <ele>112</ele>
        <time>2022-05-28T09:54:41.764Z</time>
      </trkpt>
      <trkpt lat="46.85764" lon="-1.00872">
        <ele>112</ele>
        <time>2022-05-28T09:54:44.438Z</time>
      </trkpt>
      <trkpt lat="46.8579" lon="-1.00886">
        <ele>112</ele>
        <time>2022-05-28T09:54:48.615Z</time>
      </trkpt>
      <trkpt lat="46.85817" lon="-1.00904">
        <ele>112</ele>
        <time>2022-05-28T09:54:53.162Z</time>
      </trkpt>
      <trkpt lat="46.85826" lon="-1.00907">
        <ele>112</ele>
        <time>2022-05-28T09:54:54.592Z</time>
      </trkpt>
      <trkpt lat="46.85832" lon="-1.0091">
        <ele>112</ele>
        <time>2022-05-28T09:54:55.510Z</time>
      </trkpt>
      <trkpt lat="46.85837" lon="-1.00909">
        <ele>112</ele>
        <time>2022-05-28T09:54:56.252Z</time>
      </trkpt>
      <trkpt lat="46.85844" lon="-1.00907">
        <ele>112</ele>
        <time>2022-05-28T09:54:57.356Z</time>
      </trkpt>
      <trkpt lat="46.85848" lon="-1.00904">
        <ele>112</ele>
        <time>2022-05-28T09:54:58.018Z</time>
      </trkpt>
      <trkpt lat="46.85853" lon="-1.00904">
        <ele>112</ele>
        <time>2022-05-28T09:54:58.700Z</time>
      </trkpt>
      <trkpt lat="46.85856" lon="-1.00905">
        <ele>112</ele>
        <time>2022-05-28T09:54:59.244Z</time>
      </trkpt>
      <trkpt lat="46.8586" lon="-1.00907">
        <ele>112</ele>
        <time>2022-05-28T09:54:59.792Z</time>
      </trkpt>
      <trkpt lat="46.85862" lon="-1.00911">
        <ele>112</ele>
        <time>2022-05-28T09:55:00.352Z</time>
      </trkpt>
      <trkpt lat="46.85864" lon="-1.00916">
        <ele>112.1</ele>
        <time>2022-05-28T09:55:01.082Z</time>
      </trkpt>
      <trkpt lat="46.85865" lon="-1.00921">
        <ele>112.1</ele>
        <time>2022-05-28T09:55:01.640Z</time>
      </trkpt>
      <trkpt lat="46.85865" lon="-1.00926">
        <ele>112.1</ele>
        <time>2022-05-28T09:55:02.199Z</time>
      </trkpt>
      <trkpt lat="46.8587" lon="-1.00934">
        <ele>112.3</ele>
        <time>2022-05-28T09:55:03.689Z</time>
      </trkpt>
      <trkpt lat="46.85874" lon="-1.00939">
        <ele>112.5</ele>
        <time>2022-05-28T09:55:04.816Z</time>
      </trkpt>
      <trkpt lat="46.85886" lon="-1.00948">
        <ele>112.9</ele>
        <time>2022-05-28T09:55:07.631Z</time>
      </trkpt>
      <trkpt lat="46.85901" lon="-1.00956">
        <ele>113</ele>
        <time>2022-05-28T09:55:10.194Z</time>
      </trkpt>
      <trkpt lat="46.85951" lon="-1.00979">
        <ele>113</ele>
        <time>2022-05-28T09:55:18.194Z</time>
      </trkpt>
      <trkpt lat="46.85957" lon="-1.00964">
        <ele>112.8</ele>
        <time>2022-05-28T09:55:19.729Z</time>
      </trkpt>
      <trkpt lat="46.8596" lon="-1.00957">
        <ele>112.8</ele>
        <time>2022-05-28T09:55:20.568Z</time>
      </trkpt>
      <trkpt lat="46.85979" lon="-1.00923">
        <ele>113.1</ele>
        <time>2022-05-28T09:55:25.585Z</time>
      </trkpt>
      <trkpt lat="46.85985" lon="-1.00915">
        <ele>113</ele>
        <time>2022-05-28T09:55:26.662Z</time>
      </trkpt>
      <trkpt lat="46.86" lon="-1.00891">
        <ele>113</ele>
        <time>2022-05-28T09:55:29.976Z</time>
      </trkpt>
      <trkpt lat="46.86024" lon="-1.00858">
        <ele>114</ele>
        <time>2022-05-28T09:55:36.925Z</time>
        <extensions>
          <visugpx:TrkExtension xmlns:visugpx="https://www.visugpx.com/editgpx/">
            <visugpx:node>14</visugpx:node>
            </visugpx:TrkExtension>
        </extensions>
      </trkpt>
      <trkpt lat="46.86072" lon="-1.00793">
        <ele>114</ele>
        <time>2022-05-28T09:55:46.738Z</time>
      </trkpt>
      <trkpt lat="46.86095" lon="-1.00767">
        <ele>114.7</ele>
        <time>2022-05-28T09:55:52.436Z</time>
      </trkpt>
      <trkpt lat="46.86142" lon="-1.00728">
        <ele>115.3</ele>
        <time>2022-05-28T09:56:01.509Z</time>
      </trkpt>
      <trkpt lat="46.86183" lon="-1.00704">
        <ele>115.6</ele>
        <time>2022-05-28T09:56:08.676Z</time>
      </trkpt>
      <trkpt lat="46.86192" lon="-1.007">
        <ele>115.4</ele>
        <time>2022-05-28T09:56:09.801Z</time>
      </trkpt>
      <trkpt lat="46.86236" lon="-1.0068">
        <ele>116.2</ele>
        <time>2022-05-28T09:56:18.112Z</time>
      </trkpt>
      <trkpt lat="46.86272" lon="-1.00663">
        <ele>117.4</ele>
        <time>2022-05-28T09:56:26.062Z</time>
      </trkpt>
      <trkpt lat="46.86316" lon="-1.00633">
        <ele>117.8</ele>
        <time>2022-05-28T09:56:34.132Z</time>
      </trkpt>
      <trkpt lat="46.86324" lon="-1.00626">
        <ele>118.2</ele>
        <time>2022-05-28T09:56:36.332Z</time>
      </trkpt>
      <trkpt lat="46.86326" lon="-1.00624">
        <ele>118.2</ele>
        <time>2022-05-28T09:56:36.749Z</time>
      </trkpt>
      <trkpt lat="46.86352" lon="-1.00597">
        <ele>119</ele>
        <time>2022-05-28T09:56:42.972Z</time>
      </trkpt>
      <trkpt lat="46.86368" lon="-1.0058">
        <ele>119.2</ele>
        <time>2022-05-28T09:56:46.197Z</time>
        <extensions>
          <visugpx:TrkExtension xmlns:visugpx="https://www.visugpx.com/editgpx/">
            <visugpx:node>15</visugpx:node>
            </visugpx:TrkExtension>
        </extensions>
      </trkpt>
    </trkseg>
  </trk>
</gpx>